<?xml version='1.0' encoding='UTF-8'?><gpx version="1.1" creator="JPX - https://github.com/jenetics/jpx" xmlns="http://www.topografix.com/GPX/1/1"><trk><trkseg><trkpt lat="48.87165455034689" lon="2.0689835270519628"><ele>111.0</ele><time>2026-03-31T16:30:39.994Z</time></trkpt><trkpt lat="48.87160731384805" lon="2.069083741180082"><ele>111.0</ele><time>2026-03-31T16:31:36Z</time></trkpt><trkpt lat="48.87154158705166" lon="2.069182683486297"><ele>111.0</ele><time>2026-03-31T16:31:38Z</time></trkpt><trkpt lat="48.87148449997014" lon="2.069272529618646"><ele>111.0</ele><time>2026-03-31T16:31:40Z</time></trkpt><trkpt lat="48.871419159160574" lon="2.0694024498428507"><ele>111.0</ele><time>2026-03-31T16:31:45Z</time></trkpt><trkpt lat="48.871327008469095" lon="2.0695572707550394"><ele>110.6</ele><time>2026-03-31T16:31:47Z</time></trkpt><trkpt lat="48.87122938983718" lon="2.069731950498253"><ele>110.19999999999999</ele><time>2026-03-31T16:31:49Z</time></trkpt><trkpt lat="48.87118368530638" lon="2.0698175152124563"><ele>109.80000000000001</ele><time>2026-03-31T16:31:50Z</time></trkpt><trkpt lat="48.871136467776864" lon="2.0699061374962464"><ele>109.4</ele><time>2026-03-31T16:31:51Z</time></trkpt><trkpt lat="48.87107483786175" lon="2.070025644594042"><ele>109.0</ele><time>2026-03-31T16:31:52Z</time></trkpt><trkpt lat="48.87102828352777" lon="2.0701145501265046"><ele>108.2</ele><time>2026-03-31T16:31:53Z</time></trkpt><trkpt lat="48.870982120662894" lon="2.0702068736615646"><ele>107.4</ele><time>2026-03-31T16:31:54Z</time></trkpt><trkpt lat="48.8709022099623" lon="2.070362722301511"><ele>106.6</ele><time>2026-03-31T16:31:56Z</time></trkpt><trkpt lat="48.870854821930976" lon="2.0704553575055935"><ele>105.8</ele><time>2026-03-31T16:31:57Z</time></trkpt><trkpt lat="48.87078046022714" lon="2.070597126163259"><ele>105.0</ele><time>2026-03-31T16:31:59Z</time></trkpt><trkpt lat="48.870716260355834" lon="2.0707163057089355"><ele>104.16666666666667</ele><time>2026-03-31T16:32:01Z</time></trkpt><trkpt lat="48.87067181988905" lon="2.070819656213436"><ele>103.33333333333334</ele><time>2026-03-31T16:32:03Z</time></trkpt><trkpt lat="48.87061999614541" lon="2.070899962031459"><ele>102.5</ele><time>2026-03-31T16:32:05.999Z</time></trkpt><trkpt lat="48.87053887481653" lon="2.070906961603839"><ele>101.66666666666667</ele><time>2026-03-31T16:32:34.999Z</time></trkpt><trkpt lat="48.87047252986241" lon="2.0708028087076404"><ele>100.83333333333334</ele><time>2026-03-31T16:32:37.999Z</time></trkpt><trkpt lat="48.87041640275109" lon="2.0706844531176825"><ele>100.0</ele><time>2026-03-31T16:32:39.999Z</time></trkpt><trkpt lat="48.87032679778631" lon="2.070546051079288"><ele>100.0</ele><time>2026-03-31T16:32:41.999Z</time></trkpt><trkpt lat="48.87025100644072" lon="2.0704222144702094"><ele>100.0</ele><time>2026-03-31T16:32:44Z</time></trkpt><trkpt lat="48.87016145807383" lon="2.07030205105637"><ele>100.0</ele><time>2026-03-31T16:32:46Z</time></trkpt><trkpt lat="48.87007538221688" lon="2.070201765229471"><ele>100.0</ele><time>2026-03-31T16:32:48Z</time></trkpt><trkpt lat="48.86998710169399" lon="2.0700780500848466"><ele>99.83333333333334</ele><time>2026-03-31T16:32:50Z</time></trkpt><trkpt lat="48.86988705844762" lon="2.0699583211399295"><ele>99.66666666666667</ele><time>2026-03-31T16:32:52Z</time></trkpt><trkpt lat="48.86983371389199" lon="2.06988581182527"><ele>99.5</ele><time>2026-03-31T16:32:53Z</time></trkpt><trkpt lat="48.869776809391674" lon="2.069806040619426"><ele>99.33333333333334</ele><time>2026-03-31T16:32:54Z</time></trkpt><trkpt lat="48.86973389188116" lon="2.069711301459491"><ele>99.16666666666667</ele><time>2026-03-31T16:32:55Z</time></trkpt><trkpt lat="48.86969717706743" lon="2.0696152582487346"><ele>99.0</ele><time>2026-03-31T16:32:56Z</time></trkpt><trkpt lat="48.86962151159397" lon="2.069452209714598"><ele>99.0</ele><time>2026-03-31T16:32:58Z</time></trkpt><trkpt lat="48.86960116092907" lon="2.0693597420354215"><ele>99.0</ele><time>2026-03-31T16:32:59Z</time></trkpt><trkpt lat="48.86958214232062" lon="2.069256800211497"><ele>99.0</ele><time>2026-03-31T16:33:00Z</time></trkpt><trkpt lat="48.869553238072434" lon="2.0691700759378326"><ele>99.0</ele><time>2026-03-31T16:33:01Z</time></trkpt><trkpt lat="48.869515025539584" lon="2.0690870692518706"><ele>99.0</ele><time>2026-03-31T16:33:02Z</time></trkpt><trkpt lat="48.86944880507115" lon="2.0689475680895306"><ele>99.0</ele><time>2026-03-31T16:33:04Z</time></trkpt><trkpt lat="48.86940092525587" lon="2.0688202195374794"><ele>99.80000000000001</ele><time>2026-03-31T16:33:06Z</time></trkpt><trkpt lat="48.86935602794481" lon="2.0686870312839822"><ele>100.60000000000001</ele><time>2026-03-31T16:33:08Z</time></trkpt><trkpt lat="48.86931354398121" lon="2.068563756501493"><ele>101.4</ele><time>2026-03-31T16:33:10Z</time></trkpt><trkpt lat="48.869251567654295" lon="2.068441237981119"><ele>102.2</ele><time>2026-03-31T16:33:12Z</time></trkpt><trkpt lat="48.869188745348566" lon="2.0684349222677363"><ele>103.0</ele><time>2026-03-31T16:33:13Z</time></trkpt><trkpt lat="48.86917241099964" lon="2.0682201196888474"><ele>100.80000000000001</ele><time>2026-03-31T16:33:15Z</time></trkpt><trkpt lat="48.869124525204995" lon="2.0680417463111995"><ele>98.6</ele><time>2026-03-31T16:33:17Z</time></trkpt><trkpt lat="48.86909888600112" lon="2.067855636229654"><ele>96.4</ele><time>2026-03-31T16:33:19Z</time></trkpt><trkpt lat="48.86906304459222" lon="2.067763418962016"><ele>94.19999999999999</ele><time>2026-03-31T16:33:20Z</time></trkpt><trkpt lat="48.86904348943464" lon="2.0676649210672626"><ele>92.0</ele><time>2026-03-31T16:33:21Z</time></trkpt><trkpt lat="48.86903971798999" lon="2.0675635780581376"><ele>92.0</ele><time>2026-03-31T16:33:22Z</time></trkpt><trkpt lat="48.86900475655107" lon="2.067467753023378"><ele>92.0</ele><time>2026-03-31T16:33:23Z</time></trkpt><trkpt lat="48.868986358435116" lon="2.0673704009367486"><ele>92.0</ele><time>2026-03-31T16:33:24Z</time></trkpt><trkpt lat="48.86897094027497" lon="2.0672677341654095"><ele>92.0</ele><time>2026-03-31T16:33:25Z</time></trkpt><trkpt lat="48.86894187890966" lon="2.0671636083227325"><ele>92.0</ele><time>2026-03-31T16:33:26Z</time></trkpt><trkpt lat="48.868919275344346" lon="2.0670657939073864"><ele>92.0</ele><time>2026-03-31T16:33:27Z</time></trkpt><trkpt lat="48.86889651657587" lon="2.0669633666887135"><ele>92.0</ele><time>2026-03-31T16:33:28Z</time></trkpt><trkpt lat="48.86887836066022" lon="2.0668554504342675"><ele>92.28571428571429</ele><time>2026-03-31T16:33:29Z</time></trkpt><trkpt lat="48.86887975408626" lon="2.0667442592613043"><ele>92.57142857142857</ele><time>2026-03-31T16:33:30Z</time></trkpt><trkpt lat="48.86884997416758" lon="2.0666467609680312"><ele>92.85714285714286</ele><time>2026-03-31T16:33:31Z</time></trkpt><trkpt lat="48.86882469146579" lon="2.066532653643439"><ele>93.14285714285714</ele><time>2026-03-31T16:33:32Z</time></trkpt><trkpt lat="48.86880206167098" lon="2.0664299276687954"><ele>93.42857142857142</ele><time>2026-03-31T16:33:33Z</time></trkpt><trkpt lat="48.86878499225308" lon="2.0663294517412614"><ele>93.71428571428571</ele><time>2026-03-31T16:33:34Z</time></trkpt><trkpt lat="48.86877643665417" lon="2.066210836119758"><ele>94.0</ele><time>2026-03-31T16:33:35Z</time></trkpt><trkpt lat="48.86875060473282" lon="2.066098810799756"><ele>94.66666666666666</ele><time>2026-03-31T16:33:36Z</time></trkpt><trkpt lat="48.868747596578146" lon="2.0659845885649255"><ele>95.33333333333333</ele><time>2026-03-31T16:33:37Z</time></trkpt><trkpt lat="48.86874062050814" lon="2.065868748859475"><ele>96.0</ele><time>2026-03-31T16:33:38Z</time></trkpt><trkpt lat="48.868731599883624" lon="2.0657539122835855"><ele>96.66666666666666</ele><time>2026-03-31T16:33:39Z</time></trkpt><trkpt lat="48.86871002036281" lon="2.0656311512177994"><ele>97.33333333333333</ele><time>2026-03-31T16:33:40Z</time></trkpt><trkpt lat="48.86869340993775" lon="2.065512221442206"><ele>98.0</ele><time>2026-03-31T16:33:41Z</time></trkpt><trkpt lat="48.86868373001511" lon="2.065390182183269"><ele>98.16666666666666</ele><time>2026-03-31T16:33:42Z</time></trkpt><trkpt lat="48.868670841420155" lon="2.0652637331026447"><ele>98.33333333333333</ele><time>2026-03-31T16:33:43Z</time></trkpt><trkpt lat="48.86866578424312" lon="2.06513309497815"><ele>98.5</ele><time>2026-03-31T16:33:44Z</time></trkpt><trkpt lat="48.86865925823127" lon="2.065008322940934"><ele>98.66666666666666</ele><time>2026-03-31T16:33:45Z</time></trkpt><trkpt lat="48.86865009689144" lon="2.064885717876782"><ele>98.83333333333333</ele><time>2026-03-31T16:33:46Z</time></trkpt><trkpt lat="48.868641266286474" lon="2.0647582200371084"><ele>99.0</ele><time>2026-03-31T16:33:47Z</time></trkpt><trkpt lat="48.86863722434845" lon="2.0646235691390564"><ele>99.33333333333333</ele><time>2026-03-31T16:33:48Z</time></trkpt><trkpt lat="48.86862818919285" lon="2.064486060781268"><ele>99.66666666666666</ele><time>2026-03-31T16:33:49Z</time></trkpt><trkpt lat="48.86862374370426" lon="2.0643474862332747"><ele>100.0</ele><time>2026-03-31T16:33:50Z</time></trkpt><trkpt lat="48.86862497338922" lon="2.0642170634749024"><ele>100.33333333333333</ele><time>2026-03-31T16:33:51Z</time></trkpt><trkpt lat="48.868632345514534" lon="2.0640740635156622"><ele>100.66666666666666</ele><time>2026-03-31T16:33:52Z</time></trkpt><trkpt lat="48.86864000133035" lon="2.0639464752488887"><ele>101.0</ele><time>2026-03-31T16:33:53Z</time></trkpt><trkpt lat="48.86864319423179" lon="2.0638129469369564"><ele>100.99999999999999</ele><time>2026-03-31T16:33:54Z</time></trkpt><trkpt lat="48.86863609641304" lon="2.0636792386349105"><ele>101.0</ele><time>2026-03-31T16:33:55Z</time></trkpt><trkpt lat="48.86863273006037" lon="2.0635469584173167"><ele>101.0</ele><time>2026-03-31T16:33:56Z</time></trkpt><trkpt lat="48.86864982180786" lon="2.0633962823429965"><ele>101.0</ele><time>2026-03-31T16:33:56.999Z</time></trkpt><trkpt lat="48.868636684185205" lon="2.0632685293024977"><ele>100.99999999999999</ele><time>2026-03-31T16:33:57.999Z</time></trkpt><trkpt lat="48.868659592956014" lon="2.0631441398193293"><ele>101.0</ele><time>2026-03-31T16:33:58.999Z</time></trkpt><trkpt lat="48.868697298593915" lon="2.0630403013018506"><ele>100.99999999999999</ele><time>2026-03-31T16:33:59.999Z</time></trkpt><trkpt lat="48.86873277431006" lon="2.062930100598641"><ele>101.0</ele><time>2026-03-31T16:34:00.999Z</time></trkpt><trkpt lat="48.8687689267368" lon="2.0628144878639394"><ele>101.0</ele><time>2026-03-31T16:34:01.999Z</time></trkpt><trkpt lat="48.86880411463772" lon="2.0627106785858444"><ele>101.0</ele><time>2026-03-31T16:34:02.999Z</time></trkpt><trkpt lat="48.868839104884124" lon="2.0626007465504976"><ele>100.99999999999999</ele><time>2026-03-31T16:34:03.999Z</time></trkpt><trkpt lat="48.86886461017239" lon="2.062495700914839"><ele>101.0</ele><time>2026-03-31T16:34:04.999Z</time></trkpt><trkpt lat="48.868872594172565" lon="2.0623622455516024"><ele>100.85714285714286</ele><time>2026-03-31T16:34:05.999Z</time></trkpt><trkpt lat="48.86888786308255" lon="2.0622454936888817"><ele>100.71428571428571</ele><time>2026-03-31T16:34:06.999Z</time></trkpt><trkpt lat="48.86890776293895" lon="2.062139217621662"><ele>100.57142857142858</ele><time>2026-03-31T16:34:07.999Z</time></trkpt><trkpt lat="48.86891798860334" lon="2.0620276082223015"><ele>100.42857142857143</ele><time>2026-03-31T16:34:08.999Z</time></trkpt><trkpt lat="48.868929712610374" lon="2.0619294234572187"><ele>100.28571428571429</ele><time>2026-03-31T16:34:09.999Z</time></trkpt><trkpt lat="48.8689477291104" lon="2.0618222927748424"><ele>100.14285714285715</ele><time>2026-03-31T16:34:10.999Z</time></trkpt><trkpt lat="48.868952470854225" lon="2.061717121597335"><ele>100.0</ele><time>2026-03-31T16:34:11.999Z</time></trkpt><trkpt lat="48.86899050026893" lon="2.0615422383415343"><ele>100.5</ele><time>2026-03-31T16:34:13.999Z</time></trkpt><trkpt lat="48.86900413517101" lon="2.0613608515825073"><ele>101.0</ele><time>2026-03-31T16:34:15.999Z</time></trkpt><trkpt lat="48.869039101034375" lon="2.0611901290806163"><ele>101.5</ele><time>2026-03-31T16:34:17.999Z</time></trkpt><trkpt lat="48.86907749495803" lon="2.0610119755793415"><ele>102.0</ele><time>2026-03-31T16:34:19.999Z</time></trkpt><trkpt lat="48.869118772132964" lon="2.060841598847313"><ele>102.8</ele><time>2026-03-31T16:34:21.999Z</time></trkpt><trkpt lat="48.869162774991445" lon="2.0606761145676358"><ele>103.6</ele><time>2026-03-31T16:34:23.999Z</time></trkpt><trkpt lat="48.86921845525507" lon="2.060519366496496"><ele>104.39999999999999</ele><time>2026-03-31T16:34:25.999Z</time></trkpt><trkpt lat="48.869261889506895" lon="2.0603673670806684"><ele>105.19999999999999</ele><time>2026-03-31T16:34:27.999Z</time></trkpt><trkpt lat="48.86929183117976" lon="2.06028262948099"><ele>106.0</ele><time>2026-03-31T16:34:28.999Z</time></trkpt><trkpt lat="48.86934081324516" lon="2.0601241859850568"><ele>106.0</ele><time>2026-03-31T16:34:30.999Z</time></trkpt><trkpt lat="48.86938535143489" lon="2.059964261432747"><ele>106.0</ele><time>2026-03-31T16:34:32.999Z</time></trkpt><trkpt lat="48.86944776551993" lon="2.0598158847537276"><ele>106.0</ele><time>2026-03-31T16:34:34.999Z</time></trkpt><trkpt lat="48.8694744311999" lon="2.0596925301819704"><ele>106.0</ele><time>2026-03-31T16:34:36.999Z</time></trkpt><trkpt lat="48.869555258248205" lon="2.059394325029879"><ele>106.0</ele><time>2026-03-31T16:34:42.999Z</time></trkpt><trkpt lat="48.86960258860564" lon="2.0592462081343084"><ele>106.0</ele><time>2026-03-31T16:34:44.999Z</time></trkpt><trkpt lat="48.86963503563299" lon="2.0591007092299396"><ele>106.0</ele><time>2026-03-31T16:34:46.999Z</time></trkpt><trkpt lat="48.86965644133083" lon="2.0589919160081678"><ele>106.0</ele><time>2026-03-31T16:34:48.999Z</time></trkpt><trkpt lat="48.86968204177483" lon="2.0588627692119332"><ele>106.0</ele><time>2026-03-31T16:34:52Z</time></trkpt><trkpt lat="48.86971936947454" lon="2.058631762799616"><ele>106.19999999999999</ele><time>2026-03-31T16:34:54Z</time></trkpt><trkpt lat="48.869731111531365" lon="2.0585373414422965"><ele>106.39999999999999</ele><time>2026-03-31T16:34:55Z</time></trkpt><trkpt lat="48.86974537319376" lon="2.058376978117643"><ele>106.6</ele><time>2026-03-31T16:34:57Z</time></trkpt><trkpt lat="48.86975663478769" lon="2.058207379411331"><ele>106.8</ele><time>2026-03-31T16:34:59Z</time></trkpt><trkpt lat="48.86976199705439" lon="2.058052693225192"><ele>107.0</ele><time>2026-03-31T16:35:01Z</time></trkpt><trkpt lat="48.86974915396278" lon="2.057883723322463"><ele>107.39999999999999</ele><time>2026-03-31T16:35:03Z</time></trkpt><trkpt lat="48.86973139810207" lon="2.057718354217163"><ele>107.79999999999998</ele><time>2026-03-31T16:35:05Z</time></trkpt><trkpt lat="48.86971512970801" lon="2.0575516461093457"><ele>108.2</ele><time>2026-03-31T16:35:07Z</time></trkpt><trkpt lat="48.86970072086805" lon="2.0573796268308158"><ele>108.6</ele><time>2026-03-31T16:35:09Z</time></trkpt><trkpt lat="48.869686804691405" lon="2.057208242621989"><ele>109.0</ele><time>2026-03-31T16:35:11Z</time></trkpt><trkpt lat="48.869671270025705" lon="2.0570360520772515"><ele>109.6</ele><time>2026-03-31T16:35:13Z</time></trkpt><trkpt lat="48.86964729452126" lon="2.056863378243095"><ele>110.2</ele><time>2026-03-31T16:35:15Z</time></trkpt><trkpt lat="48.86962118928752" lon="2.0567019060920715"><ele>110.79999999999998</ele><time>2026-03-31T16:35:17Z</time></trkpt><trkpt lat="48.86957474483079" lon="2.056546719583083"><ele>111.39999999999999</ele><time>2026-03-31T16:35:19Z</time></trkpt><trkpt lat="48.86958561271787" lon="2.0563894883259746"><ele>112.0</ele><time>2026-03-31T16:35:21Z</time></trkpt><trkpt lat="48.86956654880674" lon="2.056213693524256"><ele>112.75</ele><time>2026-03-31T16:35:23Z</time></trkpt><trkpt lat="48.86953225170777" lon="2.0560421192887173"><ele>113.5</ele><time>2026-03-31T16:35:25Z</time></trkpt><trkpt lat="48.86951615324552" lon="2.055876365680981"><ele>114.25</ele><time>2026-03-31T16:35:27Z</time></trkpt><trkpt lat="48.869510955707476" lon="2.055701049778736"><ele>115.0</ele><time>2026-03-31T16:35:29Z</time></trkpt><trkpt lat="48.86949345247345" lon="2.0555352188093403"><ele>115.0</ele><time>2026-03-31T16:35:31Z</time></trkpt><trkpt lat="48.86946088779073" lon="2.055369538869284"><ele>115.0</ele><time>2026-03-31T16:35:33Z</time></trkpt><trkpt lat="48.86944572190263" lon="2.0552019303884843"><ele>115.0</ele><time>2026-03-31T16:35:35Z</time></trkpt><trkpt lat="48.869450513547186" lon="2.055039965822123"><ele>115.0</ele><time>2026-03-31T16:35:37Z</time></trkpt><trkpt lat="48.869434709179394" lon="2.0548722864872038"><ele>115.0</ele><time>2026-03-31T16:35:39Z</time></trkpt><trkpt lat="48.869416508058784" lon="2.054702367652288"><ele>115.6</ele><time>2026-03-31T16:35:41Z</time></trkpt><trkpt lat="48.869398821141544" lon="2.0545446109928736"><ele>116.2</ele><time>2026-03-31T16:35:43Z</time></trkpt><trkpt lat="48.869380711212436" lon="2.0543904970204467"><ele>116.80000000000001</ele><time>2026-03-31T16:35:45Z</time></trkpt><trkpt lat="48.86936050711469" lon="2.0542342473896795"><ele>117.4</ele><time>2026-03-31T16:35:47Z</time></trkpt><trkpt lat="48.86933620553571" lon="2.0540824292661974"><ele>118.0</ele><time>2026-03-31T16:35:49Z</time></trkpt><trkpt lat="48.86929834881169" lon="2.0539467537044938"><ele>118.2</ele><time>2026-03-31T16:35:51Z</time></trkpt><trkpt lat="48.8692751457203" lon="2.0537992279968207"><ele>118.4</ele><time>2026-03-31T16:35:53Z</time></trkpt><trkpt lat="48.869256736365685" lon="2.053658856942702"><ele>118.60000000000001</ele><time>2026-03-31T16:35:55Z</time></trkpt><trkpt lat="48.86923226859887" lon="2.053512355684562"><ele>118.80000000000001</ele><time>2026-03-31T16:35:57Z</time></trkpt><trkpt lat="48.869205499688896" lon="2.053370114504416"><ele>119.0</ele><time>2026-03-31T16:35:58.999Z</time></trkpt><trkpt lat="48.86917161613719" lon="2.0532361145339815"><ele>119.33333333333333</ele><time>2026-03-31T16:36:00.999Z</time></trkpt><trkpt lat="48.8691502251335" lon="2.0531028979005423"><ele>119.66666666666666</ele><time>2026-03-31T16:36:02.999Z</time></trkpt><trkpt lat="48.869114169284984" lon="2.0529837875265224"><ele>120.0</ele><time>2026-03-31T16:36:04.999Z</time></trkpt><trkpt lat="48.869058971787155" lon="2.052889244802925"><ele>120.33333333333334</ele><time>2026-03-31T16:36:06.999Z</time></trkpt><trkpt lat="48.869005705616686" lon="2.052796591761819"><ele>120.66666666666667</ele><time>2026-03-31T16:36:08.999Z</time></trkpt><trkpt lat="48.86893639221666" lon="2.0527338384544906"><ele>121.0</ele><time>2026-03-31T16:36:10.999Z</time></trkpt><trkpt lat="48.868853769318044" lon="2.0526958736197867"><ele>121.00000000000001</ele><time>2026-03-31T16:36:12.999Z</time></trkpt><trkpt lat="48.86877519363896" lon="2.0526668460462103"><ele>121.0</ele><time>2026-03-31T16:36:14.999Z</time></trkpt><trkpt lat="48.86868901886911" lon="2.0526799268185956"><ele>121.0</ele><time>2026-03-31T16:36:16.999Z</time></trkpt><trkpt lat="48.868610353922925" lon="2.052690236757959"><ele>121.0</ele><time>2026-03-31T16:36:18.999Z</time></trkpt><trkpt lat="48.868519052854424" lon="2.052696801664911"><ele>121.00000000000001</ele><time>2026-03-31T16:36:20.999Z</time></trkpt><trkpt lat="48.86844414983866" lon="2.0527105262009906"><ele>121.0</ele><time>2026-03-31T16:36:22.999Z</time></trkpt><trkpt lat="48.86836599687883" lon="2.0527438812064123"><ele>121.71428571428571</ele><time>2026-03-31T16:36:24.999Z</time></trkpt><trkpt lat="48.86828548890727" lon="2.0527723738153987"><ele>122.42857142857142</ele><time>2026-03-31T16:36:26.999Z</time></trkpt><trkpt lat="48.86821253618652" lon="2.0527758164221974"><ele>123.14285714285714</ele><time>2026-03-31T16:36:28.999Z</time></trkpt><trkpt lat="48.86815058943547" lon="2.052737457551382"><ele>123.85714285714286</ele><time>2026-03-31T16:36:30.999Z</time></trkpt><trkpt lat="48.86808421736813" lon="2.052717106088625"><ele>124.57142857142857</ele><time>2026-03-31T16:36:33.999Z</time></trkpt><trkpt lat="48.86802623291924" lon="2.052655219629061"><ele>125.28571428571428</ele><time>2026-03-31T16:36:35.999Z</time></trkpt><trkpt lat="48.8679712594374" lon="2.052582843341807"><ele>126.0</ele><time>2026-03-31T16:36:37.999Z</time></trkpt><trkpt lat="48.86792328743255" lon="2.0525089230606843"><ele>126.0</ele><time>2026-03-31T16:36:39.999Z</time></trkpt><trkpt lat="48.86788103193222" lon="2.052403098278651"><ele>126.0</ele><time>2026-03-31T16:36:41.999Z</time></trkpt><trkpt lat="48.86784711627916" lon="2.0522850303110163"><ele>126.0</ele><time>2026-03-31T16:36:43.999Z</time></trkpt><trkpt lat="48.867811667684684" lon="2.052148136008577"><ele>126.0</ele><time>2026-03-31T16:36:46.999Z</time></trkpt><trkpt lat="48.86780340559134" lon="2.0520026342158024"><ele>126.0</ele><time>2026-03-31T16:36:49.999Z</time></trkpt><trkpt lat="48.86780574167826" lon="2.051901486758603"><ele>126.0</ele><time>2026-03-31T16:36:52.999Z</time></trkpt><trkpt lat="48.867789060491845" lon="2.051785884618604"><ele>126.0</ele><time>2026-03-31T16:36:54.999Z</time></trkpt><trkpt lat="48.86778479531326" lon="2.051649951464445"><ele>126.0</ele><time>2026-03-31T16:36:58Z</time></trkpt><trkpt lat="48.867775283878416" lon="2.0515442908818224"><ele>126.0</ele><time>2026-03-31T16:37:00Z</time></trkpt><trkpt lat="48.86777020405134" lon="2.0514233965809012"><ele>126.0</ele><time>2026-03-31T16:37:02Z</time></trkpt><trkpt lat="48.86776628012931" lon="2.051300327023618"><ele>126.0</ele><time>2026-03-31T16:37:04Z</time></trkpt><trkpt lat="48.8677705104822" lon="2.0511686827076514"><ele>126.0</ele><time>2026-03-31T16:37:06Z</time></trkpt><trkpt lat="48.86776805302127" lon="2.0510557221416543"><ele>126.83333333333333</ele><time>2026-03-31T16:37:08Z</time></trkpt><trkpt lat="48.86773620336057" lon="2.05095892112669"><ele>127.66666666666666</ele><time>2026-03-31T16:37:10Z</time></trkpt><trkpt lat="48.86766957023695" lon="2.050889456820477"><ele>128.5</ele><time>2026-03-31T16:37:12Z</time></trkpt><trkpt lat="48.86758505292099" lon="2.050881711246514"><ele>129.33333333333331</ele><time>2026-03-31T16:37:14Z</time></trkpt><trkpt lat="48.86748691033474" lon="2.0508882422615957"><ele>130.16666666666666</ele><time>2026-03-31T16:37:16Z</time></trkpt><trkpt lat="48.86739851809934" lon="2.050885003191883"><ele>131.0</ele><time>2026-03-31T16:37:18Z</time></trkpt><trkpt lat="48.86731992527158" lon="2.050893389543877"><ele>131.5</ele><time>2026-03-31T16:37:20Z</time></trkpt><trkpt lat="48.8672453560771" lon="2.050934783908665"><ele>132.0</ele><time>2026-03-31T16:37:22Z</time></trkpt><trkpt lat="48.8671684970336" lon="2.050967478721871"><ele>132.5</ele><time>2026-03-31T16:37:24Z</time></trkpt><trkpt lat="48.867086190441775" lon="2.050951766527722"><ele>133.0</ele><time>2026-03-31T16:37:26Z</time></trkpt><trkpt lat="48.86701482220705" lon="2.0509475802148613"><ele>133.5</ele><time>2026-03-31T16:37:28Z</time></trkpt><trkpt lat="48.86694849110867" lon="2.05096031987789"><ele>134.0</ele><time>2026-03-31T16:37:30Z</time></trkpt><trkpt lat="48.866883135008116" lon="2.050996879671076"><ele>134.0</ele><time>2026-03-31T16:37:32Z</time></trkpt><trkpt lat="48.8667968101464" lon="2.051035650702548"><ele>134.0</ele><time>2026-03-31T16:37:35Z</time></trkpt><trkpt lat="48.866715720503734" lon="2.050990630133327"><ele>134.0</ele><time>2026-03-31T16:37:39Z</time></trkpt><trkpt lat="48.866713122365205" lon="2.050883871633253"><ele>134.0</ele><time>2026-03-31T16:37:41Z</time></trkpt><trkpt lat="48.86671818376395" lon="2.050788220008267"><ele>134.0</ele><time>2026-03-31T16:37:43Z</time></trkpt><trkpt lat="48.866723805379415" lon="2.0506926512617"><ele>134.0</ele><time>2026-03-31T16:37:45Z</time></trkpt><trkpt lat="48.86671770403615" lon="2.0505939163648033"><ele>134.0</ele><time>2026-03-31T16:37:47Z</time></trkpt><trkpt lat="48.866714545597866" lon="2.050489464965722"><ele>135.16666666666666</ele><time>2026-03-31T16:37:49Z</time></trkpt><trkpt lat="48.86671403928294" lon="2.0503505694121924"><ele>136.33333333333331</ele><time>2026-03-31T16:37:52Z</time></trkpt><trkpt lat="48.866716527204694" lon="2.050246913106541"><ele>137.5</ele><time>2026-03-31T16:37:55Z</time></trkpt><trkpt lat="48.86676201589482" lon="2.0501160245074326"><ele>138.66666666666666</ele><time>2026-03-31T16:37:57.999Z</time></trkpt><trkpt lat="48.86681424119872" lon="2.0500214272808504"><ele>139.83333333333334</ele><time>2026-03-31T16:37:59.999Z</time></trkpt><trkpt lat="48.86685963648779" lon="2.049902815823742"><ele>141.0</ele><time>2026-03-31T16:38:01.999Z</time></trkpt><trkpt lat="48.86686827601853" lon="2.0497477758793803"><ele>141.2</ele><time>2026-03-31T16:38:03.999Z</time></trkpt><trkpt lat="48.86683587711508" lon="2.0495953490084116"><ele>141.39999999999998</ele><time>2026-03-31T16:38:05.999Z</time></trkpt><trkpt lat="48.86682391815811" lon="2.049442784882"><ele>141.6</ele><time>2026-03-31T16:38:07.999Z</time></trkpt><trkpt lat="48.86678514155858" lon="2.0493323161877814"><ele>141.79999999999998</ele><time>2026-03-31T16:38:09.999Z</time></trkpt><trkpt lat="48.86675825985015" lon="2.04922329256971"><ele>142.0</ele><time>2026-03-31T16:38:11.999Z</time></trkpt><trkpt lat="48.86672369455958" lon="2.0490703937048984"><ele>143.79999999999998</ele><time>2026-03-31T16:38:14.999Z</time></trkpt><trkpt lat="48.86667465361317" lon="2.0489364714975564"><ele>145.6</ele><time>2026-03-31T16:38:16.999Z</time></trkpt><trkpt lat="48.86664218258288" lon="2.0488270058743536"><ele>147.39999999999998</ele><time>2026-03-31T16:38:18.999Z</time></trkpt><trkpt lat="48.86662435062109" lon="2.04869102616397"><ele>149.2</ele><time>2026-03-31T16:38:20.999Z</time></trkpt><trkpt lat="48.86658147530094" lon="2.0485692587944553"><ele>151.0</ele><time>2026-03-31T16:38:22.999Z</time></trkpt><trkpt lat="48.86654215843537" lon="2.04841889699279"><ele>151.00000000000003</ele><time>2026-03-31T16:38:25.999Z</time></trkpt><trkpt lat="48.86651312087098" lon="2.04830259373345"><ele>151.0</ele><time>2026-03-31T16:38:27.999Z</time></trkpt><trkpt lat="48.86648542722892" lon="2.04820680050837"><ele>151.0</ele><time>2026-03-31T16:38:29.999Z</time></trkpt><trkpt lat="48.866454012951216" lon="2.0480884638934045"><ele>151.0</ele><time>2026-03-31T16:38:32.999Z</time></trkpt><trkpt lat="48.8664263545902" lon="2.0479909635550873"><ele>151.0</ele><time>2026-03-31T16:38:34.999Z</time></trkpt><trkpt lat="48.8663948809957" lon="2.0478897106583918"><ele>151.00000000000003</ele><time>2026-03-31T16:38:36.999Z</time></trkpt><trkpt lat="48.86636741848656" lon="2.047791395603835"><ele>151.0</ele><time>2026-03-31T16:38:38.999Z</time></trkpt><trkpt lat="48.8663467048494" lon="2.0476915315507336"><ele>151.66666666666669</ele><time>2026-03-31T16:38:40.999Z</time></trkpt><trkpt lat="48.86631000409577" lon="2.047602095413416"><ele>152.33333333333334</ele><time>2026-03-31T16:38:42.999Z</time></trkpt><trkpt lat="48.866281702202166" lon="2.0475162136687404"><ele>153.0</ele><time>2026-03-31T16:38:44.999Z</time></trkpt><trkpt lat="48.866247004075376" lon="2.0474261218288516"><ele>153.66666666666666</ele><time>2026-03-31T16:38:46.999Z</time></trkpt><trkpt lat="48.866198280731105" lon="2.0473415153941206"><ele>154.33333333333331</ele><time>2026-03-31T16:38:49.999Z</time></trkpt><trkpt lat="48.86615853299478" lon="2.047211043072986"><ele>155.0</ele><time>2026-03-31T16:38:52.999Z</time></trkpt><trkpt lat="48.866119608922354" lon="2.047100424371462"><ele>155.83333333333331</ele><time>2026-03-31T16:38:55.999Z</time></trkpt><trkpt lat="48.86609479055887" lon="2.0469610838046504"><ele>156.66666666666666</ele><time>2026-03-31T16:38:57.999Z</time></trkpt><trkpt lat="48.866070694004414" lon="2.0468180678782057"><ele>157.5</ele><time>2026-03-31T16:39:00.999Z</time></trkpt><trkpt lat="48.86604644007393" lon="2.046720642749274"><ele>158.33333333333334</ele><time>2026-03-31T16:39:03Z</time></trkpt><trkpt lat="48.866023899337016" lon="2.0466256536530243"><ele>159.16666666666669</ele><time>2026-03-31T16:39:05Z</time></trkpt><trkpt lat="48.865984662921726" lon="2.046538386338284"><ele>160.0</ele><time>2026-03-31T16:39:07Z</time></trkpt><trkpt lat="48.86596361984885" lon="2.046403027281379"><ele>161.71428571428572</ele><time>2026-03-31T16:39:10Z</time></trkpt><trkpt lat="48.86593626663678" lon="2.046310424985983"><ele>163.42857142857144</ele><time>2026-03-31T16:39:12Z</time></trkpt><trkpt lat="48.86590088300207" lon="2.0462078253846916"><ele>165.14285714285717</ele><time>2026-03-31T16:39:15Z</time></trkpt><trkpt lat="48.865882445108795" lon="2.046104021603969"><ele>166.85714285714286</ele><time>2026-03-31T16:39:17Z</time></trkpt><trkpt lat="48.865861260537365" lon="2.045997998967211"><ele>168.57142857142858</ele><time>2026-03-31T16:39:20Z</time></trkpt><trkpt lat="48.865836355462896" lon="2.045894368820662"><ele>170.2857142857143</ele><time>2026-03-31T16:39:22Z</time></trkpt><trkpt lat="48.86581676051139" lon="2.0457703488814007"><ele>172.0</ele><time>2026-03-31T16:39:25Z</time></trkpt><trkpt lat="48.865796338090796" lon="2.0456724876996715"><ele>172.16666666666669</ele><time>2026-03-31T16:39:27Z</time></trkpt><trkpt lat="48.86577681531161" lon="2.045571183667838"><ele>172.33333333333334</ele><time>2026-03-31T16:39:29Z</time></trkpt><trkpt lat="48.86575315711794" lon="2.0454786688441207"><ele>172.5</ele><time>2026-03-31T16:39:31Z</time></trkpt><trkpt lat="48.865728652693996" lon="2.0453846677615144"><ele>172.66666666666666</ele><time>2026-03-31T16:39:33Z</time></trkpt><trkpt lat="48.86570762024763" lon="2.045286225370417"><ele>172.83333333333331</ele><time>2026-03-31T16:39:35Z</time></trkpt><trkpt lat="48.86565962896974" lon="2.0451395527441125"><ele>173.0</ele><time>2026-03-31T16:39:39Z</time></trkpt><trkpt lat="48.8656276770605" lon="2.045014957833999"><ele>173.16666666666666</ele><time>2026-03-31T16:39:42Z</time></trkpt><trkpt lat="48.86561057990808" lon="2.0449200064962905"><ele>173.33333333333331</ele><time>2026-03-31T16:39:44Z</time></trkpt><trkpt lat="48.86559195716107" lon="2.0448283304923343"><ele>173.5</ele><time>2026-03-31T16:39:46Z</time></trkpt><trkpt lat="48.86558516393845" lon="2.0446930130444523"><ele>173.66666666666666</ele><time>2026-03-31T16:39:49Z</time></trkpt><trkpt lat="48.86554732634999" lon="2.044611635293942"><ele>173.83333333333334</ele><time>2026-03-31T16:39:51Z</time></trkpt><trkpt lat="48.86550311140898" lon="2.0444798055303015"><ele>174.0</ele><time>2026-03-31T16:39:54Z</time></trkpt><trkpt lat="48.86546740298471" lon="2.044373842471226"><ele>174.0</ele><time>2026-03-31T16:39:56Z</time></trkpt><trkpt lat="48.865417945291725" lon="2.0442911394872976"><ele>174.0</ele><time>2026-03-31T16:39:58Z</time></trkpt><trkpt lat="48.86538442797366" lon="2.0441657003731484"><ele>174.0</ele><time>2026-03-31T16:40:01Z</time></trkpt><trkpt lat="48.865343651530864" lon="2.044031822920154"><ele>174.0</ele><time>2026-03-31T16:40:03.999Z</time></trkpt><trkpt lat="48.86532081274008" lon="2.0439358517880084"><ele>174.0</ele><time>2026-03-31T16:40:05.999Z</time></trkpt><trkpt lat="48.865282593232564" lon="2.043825152044152"><ele>174.0</ele><time>2026-03-31T16:40:08.999Z</time></trkpt><trkpt lat="48.86527108158108" lon="2.0437157199527016"><ele>174.79999999999998</ele><time>2026-03-31T16:40:11.999Z</time></trkpt><trkpt lat="48.86522877250016" lon="2.043592587416032"><ele>175.6</ele><time>2026-03-31T16:40:14.999Z</time></trkpt><trkpt lat="48.86522783085884" lon="2.0434368475625493"><ele>176.4</ele><time>2026-03-31T16:40:16.999Z</time></trkpt><trkpt lat="48.86525045117192" lon="2.043311243259047"><ele>177.2</ele><time>2026-03-31T16:40:18.999Z</time></trkpt><trkpt lat="48.865246689371894" lon="2.043170138416218"><ele>178.0</ele><time>2026-03-31T16:40:20.999Z</time></trkpt><trkpt lat="48.86527454409944" lon="2.043050437094316"><ele>179.5</ele><time>2026-03-31T16:40:21.999Z</time></trkpt><trkpt lat="48.86527148891133" lon="2.042877959377552"><ele>181.0</ele><time>2026-03-31T16:40:23.999Z</time></trkpt><trkpt lat="48.86529399881117" lon="2.042702433073934"><ele>182.5</ele><time>2026-03-31T16:40:25.999Z</time></trkpt><trkpt lat="48.86530785454046" lon="2.0425320156006195"><ele>184.0</ele><time>2026-03-31T16:40:27.999Z</time></trkpt><trkpt lat="48.865319758332554" lon="2.0423573978031784"><ele>184.0</ele><time>2026-03-31T16:40:29.999Z</time></trkpt><trkpt lat="48.865330786906455" lon="2.042196993263252"><ele>184.0</ele><time>2026-03-31T16:40:31.999Z</time></trkpt><trkpt lat="48.8653666037818" lon="2.0420404849404283"><ele>184.0</ele><time>2026-03-31T16:40:33.999Z</time></trkpt><trkpt lat="48.86538369638436" lon="2.041856857137948"><ele>184.0</ele><time>2026-03-31T16:40:35.999Z</time></trkpt><trkpt lat="48.86541083666076" lon="2.041664579012509"><ele>184.14285714285714</ele><time>2026-03-31T16:40:37.999Z</time></trkpt><trkpt lat="48.865455273778025" lon="2.041590403641643"><ele>184.28571428571428</ele><time>2026-03-31T16:40:38.999Z</time></trkpt><trkpt lat="48.86546730823643" lon="2.041477884089182"><ele>184.42857142857142</ele><time>2026-03-31T16:40:39.999Z</time></trkpt><trkpt lat="48.86546571444305" lon="2.0413557285427126"><ele>184.57142857142856</ele><time>2026-03-31T16:40:40.999Z</time></trkpt><trkpt lat="48.86549486701906" lon="2.041241638693287"><ele>184.71428571428572</ele><time>2026-03-31T16:40:41.999Z</time></trkpt><trkpt lat="48.86549091942171" lon="2.041138607712679"><ele>184.85714285714283</ele><time>2026-03-31T16:40:42.999Z</time></trkpt><trkpt lat="48.86549281329366" lon="2.0410270164585596"><ele>185.0</ele><time>2026-03-31T16:40:43.999Z</time></trkpt><trkpt lat="48.865506211618325" lon="2.0409229185623117"><ele>185.0</ele><time>2026-03-31T16:40:44.999Z</time></trkpt><trkpt lat="48.86551575966644" lon="2.040819393009296"><ele>185.0</ele><time>2026-03-31T16:40:45.999Z</time></trkpt><trkpt lat="48.86553098008612" lon="2.040723682224234"><ele>185.0</ele><time>2026-03-31T16:40:46.999Z</time></trkpt><trkpt lat="48.865596013893764" lon="2.0405795084241216"><ele>185.0</ele><time>2026-03-31T16:40:48.999Z</time></trkpt><trkpt lat="48.865621246177334" lon="2.04047159478776"><ele>185.0</ele><time>2026-03-31T16:40:49.999Z</time></trkpt><trkpt lat="48.86565153196127" lon="2.0403855525177668"><ele>185.0</ele><time>2026-03-31T16:40:50.999Z</time></trkpt><trkpt lat="48.865744054969184" lon="2.040257076891782"><ele>185.16666666666666</ele><time>2026-03-31T16:40:52.999Z</time></trkpt><trkpt lat="48.8657854198015" lon="2.0401721708812706"><ele>185.33333333333331</ele><time>2026-03-31T16:40:53.999Z</time></trkpt><trkpt lat="48.86582542544964" lon="2.0400861944915722"><ele>185.5</ele><time>2026-03-31T16:40:54.999Z</time></trkpt><trkpt lat="48.86587444867363" lon="2.039999503042111"><ele>185.66666666666666</ele><time>2026-03-31T16:40:55.999Z</time></trkpt><trkpt lat="48.865921050184745" lon="2.039907057966895"><ele>185.83333333333334</ele><time>2026-03-31T16:40:56.999Z</time></trkpt><trkpt lat="48.86597841207293" lon="2.0398155004916023"><ele>186.0</ele><time>2026-03-31T16:40:57.999Z</time></trkpt><trkpt lat="48.86604188445544" lon="2.0397219728023863"><ele>186.0</ele><time>2026-03-31T16:40:58.999Z</time></trkpt><trkpt lat="48.86609821061392" lon="2.03963596373003"><ele>186.0</ele><time>2026-03-31T16:40:59.999Z</time></trkpt><trkpt lat="48.8661484518417" lon="2.0395441103770793"><ele>186.0</ele><time>2026-03-31T16:41:00.999Z</time></trkpt><trkpt lat="48.86620833161202" lon="2.039434636446079"><ele>186.0</ele><time>2026-03-31T16:41:01.999Z</time></trkpt><trkpt lat="48.8662715515586" lon="2.039354072842694"><ele>186.0</ele><time>2026-03-31T16:41:02.999Z</time></trkpt><trkpt lat="48.866314871129916" lon="2.0392488067168073"><ele>186.0</ele><time>2026-03-31T16:41:03.999Z</time></trkpt><trkpt lat="48.866359291465244" lon="2.039138450328983"><ele>185.83333333333334</ele><time>2026-03-31T16:41:04.999Z</time></trkpt><trkpt lat="48.86641297542552" lon="2.0390409127194884"><ele>185.66666666666666</ele><time>2026-03-31T16:41:05.999Z</time></trkpt><trkpt lat="48.8664652360057" lon="2.0389431729839864"><ele>185.5</ele><time>2026-03-31T16:41:06.999Z</time></trkpt><trkpt lat="48.86651596961483" lon="2.0388502494830414"><ele>185.33333333333331</ele><time>2026-03-31T16:41:08Z</time></trkpt><trkpt lat="48.866565938049035" lon="2.0387525921723424"><ele>185.16666666666666</ele><time>2026-03-31T16:41:09Z</time></trkpt><trkpt lat="48.8666146687381" lon="2.0386619298768185"><ele>185.0</ele><time>2026-03-31T16:41:10Z</time></trkpt><trkpt lat="48.866664816241425" lon="2.038574243471603"><ele>184.99999999999997</ele><time>2026-03-31T16:41:11Z</time></trkpt><trkpt lat="48.866714577309594" lon="2.038482092164119"><ele>185.0</ele><time>2026-03-31T16:41:12Z</time></trkpt><trkpt lat="48.86675575313872" lon="2.0383929658815543"><ele>185.0</ele><time>2026-03-31T16:41:13Z</time></trkpt><trkpt lat="48.86680149412605" lon="2.0383047568239077"><ele>185.0</ele><time>2026-03-31T16:41:14Z</time></trkpt><trkpt lat="48.866848711511714" lon="2.038219870779581"><ele>185.0</ele><time>2026-03-31T16:41:15Z</time></trkpt><trkpt lat="48.866891172404486" lon="2.038134726403013"><ele>184.99999999999997</ele><time>2026-03-31T16:41:16Z</time></trkpt><trkpt lat="48.866932582796835" lon="2.038059564256591"><ele>185.0</ele><time>2026-03-31T16:41:17Z</time></trkpt><trkpt lat="48.86697382839177" lon="2.037962392334689"><ele>185.0</ele><time>2026-03-31T16:41:18Z</time></trkpt><trkpt lat="48.86701345106214" lon="2.037871681578843"><ele>185.0</ele><time>2026-03-31T16:41:19Z</time></trkpt><trkpt lat="48.86706205474505" lon="2.037806706490203"><ele>185.0</ele><time>2026-03-31T16:41:20Z</time></trkpt><trkpt lat="48.867105469481764" lon="2.0377239775577567"><ele>185.0</ele><time>2026-03-31T16:41:21Z</time></trkpt><trkpt lat="48.86714596131215" lon="2.0376401806930486"><ele>185.0</ele><time>2026-03-31T16:41:22Z</time></trkpt><trkpt lat="48.86722280968276" lon="2.0374818786677165"><ele>185.0</ele><time>2026-03-31T16:41:24Z</time></trkpt><trkpt lat="48.86729791217059" lon="2.0373274907435857"><ele>185.5</ele><time>2026-03-31T16:41:26Z</time></trkpt><trkpt lat="48.86733710557568" lon="2.0372496222259038"><ele>186.0</ele><time>2026-03-31T16:41:27Z</time></trkpt><trkpt lat="48.8673996257256" lon="2.0371009191323846"><ele>186.5</ele><time>2026-03-31T16:41:29Z</time></trkpt><trkpt lat="48.8674540567306" lon="2.036991533736697"><ele>187.0</ele><time>2026-03-31T16:41:31Z</time></trkpt><trkpt lat="48.86751078069867" lon="2.0369186971670463"><ele>187.5</ele><time>2026-03-31T16:41:33Z</time></trkpt><trkpt lat="48.867567852184386" lon="2.0368670638172044"><ele>188.0</ele><time>2026-03-31T16:41:36Z</time></trkpt><trkpt lat="48.8677905778302" lon="2.0364951163116727"><ele>187.75</ele><time>2026-03-31T16:41:39Z</time></trkpt><trkpt lat="48.867946954048755" lon="2.0367001486802634"><ele>187.5</ele><time>2026-03-31T16:41:42Z</time></trkpt><trkpt lat="48.86799230673425" lon="2.0368012105767987"><ele>187.25</ele><time>2026-03-31T16:41:45Z</time></trkpt><trkpt lat="48.86792607008102" lon="2.0369509700481685"><ele>187.0</ele><time>2026-03-31T16:41:46Z</time></trkpt><trkpt lat="48.8679879576325" lon="2.036919420266364"><ele>187.0</ele><time>2026-03-31T16:41:48Z</time></trkpt><trkpt lat="48.86805862673933" lon="2.0369093871464248"><ele>187.0</ele><time>2026-03-31T16:41:51Z</time></trkpt><trkpt lat="48.868107825250846" lon="2.0369911476111455"><ele>187.0</ele><time>2026-03-31T16:41:53Z</time></trkpt><trkpt lat="48.868154261943005" lon="2.0370766961345934"><ele>187.0</ele><time>2026-03-31T16:41:55Z</time></trkpt><trkpt lat="48.868215518614015" lon="2.0371765935447446"><ele>187.0</ele><time>2026-03-31T16:41:57Z</time></trkpt><trkpt lat="48.868292443778074" lon="2.037280891203041"><ele>187.0</ele><time>2026-03-31T16:41:59Z</time></trkpt><trkpt lat="48.86839057111042" lon="2.0374068629070283"><ele>187.0</ele><time>2026-03-31T16:42:01Z</time></trkpt><trkpt lat="48.86846406257677" lon="2.0375296976293864"><ele>187.0</ele><time>2026-03-31T16:42:03Z</time></trkpt><trkpt lat="48.86854282382744" lon="2.037657180278206"><ele>187.0</ele><time>2026-03-31T16:42:04.999Z</time></trkpt><trkpt lat="48.86862184333143" lon="2.037789140433444"><ele>187.0</ele><time>2026-03-31T16:42:06.999Z</time></trkpt><trkpt lat="48.86867273547002" lon="2.0378508765528798"><ele>187.0</ele><time>2026-03-31T16:42:07.999Z</time></trkpt><trkpt lat="48.86871857567496" lon="2.0379205760744807"><ele>187.0</ele><time>2026-03-31T16:42:08.999Z</time></trkpt><trkpt lat="48.868766878364966" lon="2.037989388534363"><ele>187.0</ele><time>2026-03-31T16:42:09.999Z</time></trkpt><trkpt lat="48.868821869175314" lon="2.0380486644221643"><ele>187.0</ele><time>2026-03-31T16:42:10.999Z</time></trkpt><trkpt lat="48.86888024296195" lon="2.038107234272792"><ele>187.0</ele><time>2026-03-31T16:42:11.999Z</time></trkpt><trkpt lat="48.868941561110354" lon="2.0381566884980478"><ele>187.0</ele><time>2026-03-31T16:42:12.999Z</time></trkpt><trkpt lat="48.86900214713596" lon="2.0382141660949378"><ele>187.0</ele><time>2026-03-31T16:42:13.999Z</time></trkpt><trkpt lat="48.86906410628317" lon="2.038272606081529"><ele>187.0</ele><time>2026-03-31T16:42:14.999Z</time></trkpt><trkpt lat="48.86912445373604" lon="2.038328841914785"><ele>187.0</ele><time>2026-03-31T16:42:15.999Z</time></trkpt><trkpt lat="48.869189812583926" lon="2.038381425360672"><ele>187.0</ele><time>2026-03-31T16:42:16.999Z</time></trkpt><trkpt lat="48.86925680599612" lon="2.0384349123864753"><ele>187.0</ele><time>2026-03-31T16:42:17.999Z</time></trkpt><trkpt lat="48.869324199258706" lon="2.0384874574495773"><ele>187.0</ele><time>2026-03-31T16:42:18.999Z</time></trkpt><trkpt lat="48.86939063831163" lon="2.0385476683311565"><ele>187.0</ele><time>2026-03-31T16:42:19.999Z</time></trkpt><trkpt lat="48.86945308588093" lon="2.038600884947926"><ele>187.0</ele><time>2026-03-31T16:42:20.999Z</time></trkpt><trkpt lat="48.86952152400982" lon="2.038658105997349"><ele>187.28571428571428</ele><time>2026-03-31T16:42:21.999Z</time></trkpt><trkpt lat="48.86958632132067" lon="2.0387111203698765"><ele>187.57142857142858</ele><time>2026-03-31T16:42:22.999Z</time></trkpt><trkpt lat="48.86965203586919" lon="2.0387626100092175"><ele>187.85714285714286</ele><time>2026-03-31T16:42:23.999Z</time></trkpt><trkpt lat="48.86971781534825" lon="2.0388204195902726"><ele>188.14285714285714</ele><time>2026-03-31T16:42:24.999Z</time></trkpt><trkpt lat="48.86977813481828" lon="2.038876819434076"><ele>188.42857142857144</ele><time>2026-03-31T16:42:25.999Z</time></trkpt><trkpt lat="48.86984399395843" lon="2.0389255638469"><ele>188.71428571428572</ele><time>2026-03-31T16:42:26.999Z</time></trkpt><trkpt lat="48.86991066610006" lon="2.0389720571827183"><ele>189.0</ele><time>2026-03-31T16:42:27.999Z</time></trkpt><trkpt lat="48.86997142205809" lon="2.039023472125813"><ele>189.0</ele><time>2026-03-31T16:42:28.999Z</time></trkpt><trkpt lat="48.870031077674156" lon="2.039077830403455"><ele>189.0</ele><time>2026-03-31T16:42:29.999Z</time></trkpt><trkpt lat="48.87008668811001" lon="2.039123609373998"><ele>189.0</ele><time>2026-03-31T16:42:30.999Z</time></trkpt><trkpt lat="48.870183214393286" lon="2.0391988136030834"><ele>189.0</ele><time>2026-03-31T16:42:32.999Z</time></trkpt><trkpt lat="48.8702569653607" lon="2.0392601867490288"><ele>189.0</ele><time>2026-03-31T16:42:33.999Z</time></trkpt><trkpt lat="48.870315355473" lon="2.0393289492056823"><ele>189.0</ele><time>2026-03-31T16:42:34.999Z</time></trkpt><trkpt lat="48.87037895161161" lon="2.039381368102856"><ele>188.71428571428572</ele><time>2026-03-31T16:42:35.999Z</time></trkpt><trkpt lat="48.87044188852022" lon="2.039427363849497"><ele>188.42857142857144</ele><time>2026-03-31T16:42:36.999Z</time></trkpt><trkpt lat="48.870503177088544" lon="2.0394743961680297"><ele>188.14285714285714</ele><time>2026-03-31T16:42:37.999Z</time></trkpt><trkpt lat="48.87055780433561" lon="2.0395252478052326"><ele>187.85714285714286</ele><time>2026-03-31T16:42:38.999Z</time></trkpt><trkpt lat="48.87061691524309" lon="2.039577278103255"><ele>187.57142857142858</ele><time>2026-03-31T16:42:39.999Z</time></trkpt><trkpt lat="48.8706744558162" lon="2.039626154479001"><ele>187.28571428571428</ele><time>2026-03-31T16:42:40.999Z</time></trkpt><trkpt lat="48.87073097274352" lon="2.0396709753226365"><ele>187.0</ele><time>2026-03-31T16:42:41.999Z</time></trkpt><trkpt lat="48.870785323931706" lon="2.039722314441586"><ele>187.0</ele><time>2026-03-31T16:42:42.999Z</time></trkpt><trkpt lat="48.870890953529795" lon="2.0398196923831726"><ele>187.0</ele><time>2026-03-31T16:42:44.999Z</time></trkpt><trkpt lat="48.870953282715526" lon="2.0398503686526905"><ele>187.0</ele><time>2026-03-31T16:42:45.999Z</time></trkpt><trkpt lat="48.87100807547137" lon="2.0398986609176126"><ele>187.0</ele><time>2026-03-31T16:42:46.999Z</time></trkpt><trkpt lat="48.87110861933693" lon="2.0399941724622916"><ele>187.0</ele><time>2026-03-31T16:42:48.999Z</time></trkpt><trkpt lat="48.87120591704231" lon="2.0400965107225955"><ele>188.0</ele><time>2026-03-31T16:42:50.999Z</time></trkpt><trkpt lat="48.871291229972876" lon="2.040204600272504"><ele>189.0</ele><time>2026-03-31T16:42:52.999Z</time></trkpt><trkpt lat="48.87136838920171" lon="2.0403242205705596"><ele>190.0</ele><time>2026-03-31T16:42:54.999Z</time></trkpt><trkpt lat="48.87143401586584" lon="2.040448514777083"><ele>191.0</ele><time>2026-03-31T16:42:56.999Z</time></trkpt><trkpt lat="48.87148355089733" lon="2.04057629091931"><ele>192.0</ele><time>2026-03-31T16:42:58.999Z</time></trkpt><trkpt lat="48.87150348602218" lon="2.0406970086653478"><ele>192.0</ele><time>2026-03-31T16:43:02.999Z</time></trkpt><trkpt lat="48.87153853486444" lon="2.0407875398968613"><ele>192.0</ele><time>2026-03-31T16:43:04.999Z</time></trkpt><trkpt lat="48.87154575619559" lon="2.0408826223477887"><ele>192.0</ele><time>2026-03-31T16:43:06.999Z</time></trkpt><trkpt lat="48.871562619123885" lon="2.040979470962271"><ele>192.0</ele><time>2026-03-31T16:43:09.999Z</time></trkpt><trkpt lat="48.87201149204329" lon="2.041765285865878"><ele>191.8</ele><time>2026-03-31T16:43:12.999Z</time></trkpt><trkpt lat="48.87206572243534" lon="2.0418856364618514"><ele>191.6</ele><time>2026-03-31T16:43:14Z</time></trkpt><trkpt lat="48.872119360562586" lon="2.0420116771379977"><ele>191.4</ele><time>2026-03-31T16:43:15Z</time></trkpt><trkpt lat="48.87216993530819" lon="2.0421426576727697"><ele>191.20000000000002</ele><time>2026-03-31T16:43:16Z</time></trkpt><trkpt lat="48.87223271542638" lon="2.0422570608146"><ele>191.0</ele><time>2026-03-31T16:43:17Z</time></trkpt><trkpt lat="48.87229279528198" lon="2.042395119911237"><ele>190.60000000000002</ele><time>2026-03-31T16:43:18Z</time></trkpt><trkpt lat="48.87234860233798" lon="2.042524028140071"><ele>190.2</ele><time>2026-03-31T16:43:19Z</time></trkpt><trkpt lat="48.87240086321613" lon="2.042658906630861"><ele>189.8</ele><time>2026-03-31T16:43:20Z</time></trkpt><trkpt lat="48.87244801988413" lon="2.042795566087806"><ele>189.39999999999998</ele><time>2026-03-31T16:43:21Z</time></trkpt><trkpt lat="48.8725074532279" lon="2.0429056319687877"><ele>189.0</ele><time>2026-03-31T16:43:22Z</time></trkpt><trkpt lat="48.872552000766056" lon="2.0430306778223346"><ele>189.0</ele><time>2026-03-31T16:43:23Z</time></trkpt><trkpt lat="48.87260380183617" lon="2.043141781120433"><ele>189.0</ele><time>2026-03-31T16:43:24Z</time></trkpt><trkpt lat="48.87265774085046" lon="2.0432561808017775"><ele>189.0</ele><time>2026-03-31T16:43:25Z</time></trkpt><trkpt lat="48.87270603535688" lon="2.043373451515458"><ele>189.0</ele><time>2026-03-31T16:43:26Z</time></trkpt><trkpt lat="48.87275189709271" lon="2.0434721500000226"><ele>189.0</ele><time>2026-03-31T16:43:27Z</time></trkpt><trkpt lat="48.87279901654359" lon="2.0435745774975094"><ele>189.0</ele><time>2026-03-31T16:43:28Z</time></trkpt><trkpt lat="48.87283565702315" lon="2.04368741644911"><ele>188.66666666666666</ele><time>2026-03-31T16:43:29Z</time></trkpt><trkpt lat="48.87288687840447" lon="2.0437830202095695"><ele>188.33333333333334</ele><time>2026-03-31T16:43:30Z</time></trkpt><trkpt lat="48.87292835463131" lon="2.0438723031148522"><ele>188.0</ele><time>2026-03-31T16:43:32Z</time></trkpt><trkpt lat="48.87297464849071" lon="2.0439799808984986"><ele>187.66666666666669</ele><time>2026-03-31T16:43:33Z</time></trkpt><trkpt lat="48.87302185224343" lon="2.0440892533579245"><ele>187.33333333333334</ele><time>2026-03-31T16:43:34Z</time></trkpt><trkpt lat="48.873067521172146" lon="2.04419336372716"><ele>187.0</ele><time>2026-03-31T16:43:35Z</time></trkpt><trkpt lat="48.87300438211977" lon="2.044049429742847"><ele>186.33333333333334</ele><time>2026-03-31T16:43:36Z</time></trkpt><trkpt lat="48.87304994812014" lon="2.0441533027849577"><ele>185.66666666666669</ele><time>2026-03-31T16:43:37Z</time></trkpt><trkpt lat="48.87309725316713" lon="2.0442611429403583"><ele>185.0</ele><time>2026-03-31T16:43:38Z</time></trkpt><trkpt lat="48.873143565499376" lon="2.044365771389861"><ele>184.33333333333334</ele><time>2026-03-31T16:43:39Z</time></trkpt><trkpt lat="48.873191622304425" lon="2.044473204935369"><ele>183.66666666666666</ele><time>2026-03-31T16:43:40Z</time></trkpt><trkpt lat="48.87324182532202" lon="2.044585433191711"><ele>183.0</ele><time>2026-03-31T16:43:41Z</time></trkpt><trkpt lat="48.87328819376264" lon="2.0446859938180366"><ele>183.0</ele><time>2026-03-31T16:43:42Z</time></trkpt><trkpt lat="48.87333903668749" lon="2.044797572725445"><ele>183.0</ele><time>2026-03-31T16:43:43Z</time></trkpt><trkpt lat="48.87338070766799" lon="2.0448840201997447"><ele>183.0</ele><time>2026-03-31T16:43:44Z</time></trkpt><trkpt lat="48.87338960882721" lon="2.045019321980132"><ele>183.0</ele><time>2026-03-31T16:43:45Z</time></trkpt><trkpt lat="48.87344408428188" lon="2.0450915026885648"><ele>183.0</ele><time>2026-03-31T16:43:46Z</time></trkpt><trkpt lat="48.873493261752735" lon="2.045166592307156"><ele>183.0</ele><time>2026-03-31T16:43:47Z</time></trkpt><trkpt lat="48.87354358738681" lon="2.0452399481436707"><ele>183.5</ele><time>2026-03-31T16:43:48Z</time></trkpt><trkpt lat="48.8736020299503" lon="2.045296755584384"><ele>184.0</ele><time>2026-03-31T16:43:49Z</time></trkpt><trkpt lat="48.87365053471805" lon="2.045379683016078"><ele>184.5</ele><time>2026-03-31T16:43:50Z</time></trkpt><trkpt lat="48.87369868745966" lon="2.045457314823279"><ele>185.0</ele><time>2026-03-31T16:43:51Z</time></trkpt><trkpt lat="48.87379061399039" lon="2.045605525668855"><ele>185.5</ele><time>2026-03-31T16:43:53Z</time></trkpt><trkpt lat="48.87383727047801" lon="2.0456807486482584"><ele>186.0</ele><time>2026-03-31T16:43:54Z</time></trkpt><trkpt lat="48.87388595166471" lon="2.0457592362463255"><ele>185.85714285714286</ele><time>2026-03-31T16:43:55Z</time></trkpt><trkpt lat="48.873934826313445" lon="2.0458383427863516"><ele>185.71428571428572</ele><time>2026-03-31T16:43:56Z</time></trkpt><trkpt lat="48.87398616835193" lon="2.0459233716451717"><ele>185.57142857142856</ele><time>2026-03-31T16:43:57Z</time></trkpt><trkpt lat="48.874037592373874" lon="2.0460085361303997"><ele>185.42857142857144</ele><time>2026-03-31T16:43:58Z</time></trkpt><trkpt lat="48.874085930182666" lon="2.0460885894661445"><ele>185.28571428571428</ele><time>2026-03-31T16:43:59Z</time></trkpt><trkpt lat="48.87413606126504" lon="2.046171612763665"><ele>185.14285714285714</ele><time>2026-03-31T16:44:00Z</time></trkpt><trkpt lat="48.8741899562798" lon="2.046260869515439"><ele>185.0</ele><time>2026-03-31T16:44:01Z</time></trkpt><trkpt lat="48.87424248454781" lon="2.0463478627932927"><ele>184.33333333333331</ele><time>2026-03-31T16:44:02Z</time></trkpt><trkpt lat="48.87429387613786" lon="2.0464329736904503"><ele>183.66666666666666</ele><time>2026-03-31T16:44:03Z</time></trkpt><trkpt lat="48.87434399025958" lon="2.0465157302098804"><ele>183.0</ele><time>2026-03-31T16:44:04Z</time></trkpt><trkpt lat="48.87439721557506" lon="2.0466032779408367"><ele>182.33333333333334</ele><time>2026-03-31T16:44:04.999Z</time></trkpt><trkpt lat="48.87444721415727" lon="2.0466855179689616"><ele>181.66666666666669</ele><time>2026-03-31T16:44:05.999Z</time></trkpt><trkpt lat="48.874498088066105" lon="2.046769197988839"><ele>181.0</ele><time>2026-03-31T16:44:06.999Z</time></trkpt><trkpt lat="48.87454985444985" lon="2.0468543459461754"><ele>181.0</ele><time>2026-03-31T16:44:07.999Z</time></trkpt><trkpt lat="48.874602765325086" lon="2.046941376410405"><ele>181.0</ele><time>2026-03-31T16:44:08.999Z</time></trkpt><trkpt lat="48.87465525377079" lon="2.0470275780765896"><ele>181.0</ele><time>2026-03-31T16:44:09.999Z</time></trkpt><trkpt lat="48.874695008197314" lon="2.0471294344869775"><ele>181.0</ele><time>2026-03-31T16:44:10.999Z</time></trkpt><trkpt lat="48.874761145970986" lon="2.047201417590783"><ele>181.0</ele><time>2026-03-31T16:44:11.999Z</time></trkpt><trkpt lat="48.8748141593357" lon="2.0472884478257765"><ele>181.0</ele><time>2026-03-31T16:44:12.999Z</time></trkpt><trkpt lat="48.87486224316975" lon="2.0473813428318115"><ele>181.16666666666669</ele><time>2026-03-31T16:44:13.999Z</time></trkpt><trkpt lat="48.874916012255525" lon="2.04747626283128"><ele>181.33333333333334</ele><time>2026-03-31T16:44:14.999Z</time></trkpt><trkpt lat="48.87497220553061" lon="2.0475653338867676"><ele>181.5</ele><time>2026-03-31T16:44:15.999Z</time></trkpt><trkpt lat="48.87503077989922" lon="2.047651909266142"><ele>181.66666666666666</ele><time>2026-03-31T16:44:16.999Z</time></trkpt><trkpt lat="48.875081252346526" lon="2.047743787796558"><ele>181.83333333333331</ele><time>2026-03-31T16:44:17.999Z</time></trkpt><trkpt lat="48.87513634502697" lon="2.0478370507328902"><ele>182.0</ele><time>2026-03-31T16:44:18.999Z</time></trkpt><trkpt lat="48.8752013375842" lon="2.047928584107921"><ele>181.33333333333331</ele><time>2026-03-31T16:44:19.999Z</time></trkpt><trkpt lat="48.875256110656665" lon="2.0480208362103567"><ele>180.66666666666666</ele><time>2026-03-31T16:44:20.999Z</time></trkpt><trkpt lat="48.87531067168583" lon="2.0481143925872343"><ele>180.0</ele><time>2026-03-31T16:44:21.999Z</time></trkpt><trkpt lat="48.875354325235854" lon="2.048209739089285"><ele>179.33333333333334</ele><time>2026-03-31T16:44:22.999Z</time></trkpt><trkpt lat="48.87541748517626" lon="2.048298892756014"><ele>178.66666666666669</ele><time>2026-03-31T16:44:23.999Z</time></trkpt><trkpt lat="48.87546844215397" lon="2.048382052375384"><ele>178.0</ele><time>2026-03-31T16:44:24.999Z</time></trkpt><trkpt lat="48.87552228204952" lon="2.0484664598525333"><ele>178.0</ele><time>2026-03-31T16:44:25.999Z</time></trkpt><trkpt lat="48.87557127893284" lon="2.0485551502150363"><ele>178.0</ele><time>2026-03-31T16:44:26.999Z</time></trkpt><trkpt lat="48.87562794384431" lon="2.0486412328268133"><ele>178.0</ele><time>2026-03-31T16:44:27.999Z</time></trkpt><trkpt lat="48.8756816853073" lon="2.0487293980158117"><ele>178.0</ele><time>2026-03-31T16:44:28.999Z</time></trkpt><trkpt lat="48.87573926144239" lon="2.0488109005777084"><ele>178.0</ele><time>2026-03-31T16:44:29.999Z</time></trkpt><trkpt lat="48.87579096396515" lon="2.048903104377476"><ele>178.0</ele><time>2026-03-31T16:44:30.999Z</time></trkpt><trkpt lat="48.87584488813735" lon="2.0489827767866333"><ele>178.0</ele><time>2026-03-31T16:44:31.999Z</time></trkpt><trkpt lat="48.875901311682114" lon="2.0490639330584894"><ele>178.0</ele><time>2026-03-31T16:44:32.999Z</time></trkpt><trkpt lat="48.87595240477883" lon="2.049153181041238"><ele>178.0</ele><time>2026-03-31T16:44:33.999Z</time></trkpt><trkpt lat="48.87600237878219" lon="2.049240532001303"><ele>178.0</ele><time>2026-03-31T16:44:34.999Z</time></trkpt><trkpt lat="48.876053483515996" lon="2.049323843704704"><ele>178.0</ele><time>2026-03-31T16:44:35.999Z</time></trkpt><trkpt lat="48.87610487520206" lon="2.0494121817877935"><ele>178.0</ele><time>2026-03-31T16:44:36.999Z</time></trkpt><trkpt lat="48.87615653695938" lon="2.0494949929442994"><ele>178.0</ele><time>2026-03-31T16:44:37.999Z</time></trkpt><trkpt lat="48.876212446716686" lon="2.0495732408407585"><ele>178.0</ele><time>2026-03-31T16:44:38.999Z</time></trkpt><trkpt lat="48.87626614439575" lon="2.0496802107115366"><ele>178.0</ele><time>2026-03-31T16:44:39.999Z</time></trkpt><trkpt lat="48.8763215016267" lon="2.0497636249943803"><ele>178.0</ele><time>2026-03-31T16:44:40.999Z</time></trkpt><trkpt lat="48.87637483865496" lon="2.049849389752901"><ele>178.0</ele><time>2026-03-31T16:44:41.999Z</time></trkpt><trkpt lat="48.876431562906994" lon="2.0499378978724416"><ele>178.0</ele><time>2026-03-31T16:44:42.999Z</time></trkpt><trkpt lat="48.876490552265864" lon="2.0500434628708857"><ele>178.0</ele><time>2026-03-31T16:44:43.999Z</time></trkpt><trkpt lat="48.876553479804436" lon="2.0501363866035334"><ele>178.0</ele><time>2026-03-31T16:44:44.999Z</time></trkpt><trkpt lat="48.876615171474754" lon="2.0502448524389125"><ele>178.0</ele><time>2026-03-31T16:44:45.999Z</time></trkpt><trkpt lat="48.876680281069085" lon="2.0503554202082217"><ele>178.0</ele><time>2026-03-31T16:44:46.999Z</time></trkpt><trkpt lat="48.87674297344965" lon="2.0504611009291174"><ele>178.0</ele><time>2026-03-31T16:44:47.999Z</time></trkpt><trkpt lat="48.8768085424973" lon="2.050570883432938"><ele>176.8</ele><time>2026-03-31T16:44:48.999Z</time></trkpt><trkpt lat="48.87687187356831" lon="2.0506753739221493"><ele>175.60000000000002</ele><time>2026-03-31T16:44:49.999Z</time></trkpt><trkpt lat="48.87693483911258" lon="2.0507819045544937"><ele>174.39999999999998</ele><time>2026-03-31T16:44:50.999Z</time></trkpt><trkpt lat="48.876997522479165" lon="2.050900493248564"><ele>173.2</ele><time>2026-03-31T16:44:51.999Z</time></trkpt><trkpt lat="48.87705817686484" lon="2.0510260145412245"><ele>172.0</ele><time>2026-03-31T16:44:52.999Z</time></trkpt><trkpt lat="48.87711189673811" lon="2.0511585492022135"><ele>172.0</ele><time>2026-03-31T16:44:53.999Z</time></trkpt><trkpt lat="48.87716310195" lon="2.0513065189479884"><ele>172.0</ele><time>2026-03-31T16:44:54.999Z</time></trkpt><trkpt lat="48.877206474794235" lon="2.051451737964017"><ele>172.0</ele><time>2026-03-31T16:44:55.999Z</time></trkpt><trkpt lat="48.877251458649084" lon="2.051585309471645"><ele>172.0</ele><time>2026-03-31T16:44:56.999Z</time></trkpt><trkpt lat="48.877308776152745" lon="2.051713542724165"><ele>172.0</ele><time>2026-03-31T16:44:57.999Z</time></trkpt><trkpt lat="48.87733750878219" lon="2.0518564468337197"><ele>172.39999999999998</ele><time>2026-03-31T16:44:58.999Z</time></trkpt><trkpt lat="48.87738070916646" lon="2.0519880292533"><ele>172.79999999999998</ele><time>2026-03-31T16:44:59.999Z</time></trkpt><trkpt lat="48.87742386526091" lon="2.0521155934709943"><ele>173.2</ele><time>2026-03-31T16:45:00.999Z</time></trkpt><trkpt lat="48.87746632060872" lon="2.0522432276130727"><ele>173.6</ele><time>2026-03-31T16:45:01.999Z</time></trkpt><trkpt lat="48.87750671659489" lon="2.052363190742818"><ele>174.0</ele><time>2026-03-31T16:45:02.999Z</time></trkpt><trkpt lat="48.87754349035221" lon="2.0524861770573337"><ele>174.33333333333334</ele><time>2026-03-31T16:45:03.999Z</time></trkpt><trkpt lat="48.877577588633194" lon="2.0526063757873523"><ele>174.66666666666666</ele><time>2026-03-31T16:45:04.999Z</time></trkpt><trkpt lat="48.8776262380628" lon="2.052709088437744"><ele>175.0</ele><time>2026-03-31T16:45:05.999Z</time></trkpt><trkpt lat="48.877661320943744" lon="2.0528205230997454"><ele>175.33333333333331</ele><time>2026-03-31T16:45:06.999Z</time></trkpt><trkpt lat="48.877697429593645" lon="2.05293521572174"><ele>175.66666666666666</ele><time>2026-03-31T16:45:07.999Z</time></trkpt><trkpt lat="48.87771804069774" lon="2.053053068370545"><ele>176.0</ele><time>2026-03-31T16:45:08.999Z</time></trkpt><trkpt lat="48.877751570097935" lon="2.0531626442548054"><ele>175.16666666666666</ele><time>2026-03-31T16:45:09.999Z</time></trkpt><trkpt lat="48.87778357026767" lon="2.053271584269399"><ele>174.33333333333331</ele><time>2026-03-31T16:45:10.999Z</time></trkpt><trkpt lat="48.877828751884486" lon="2.053359860682794"><ele>173.5</ele><time>2026-03-31T16:45:11.999Z</time></trkpt><trkpt lat="48.87786207357644" lon="2.0534676971848476"><ele>172.66666666666666</ele><time>2026-03-31T16:45:12.999Z</time></trkpt><trkpt lat="48.87788162696207" lon="2.0535915147668202"><ele>171.83333333333334</ele><time>2026-03-31T16:45:13.999Z</time></trkpt><trkpt lat="48.87792866279515" lon="2.053693987515946"><ele>171.0</ele><time>2026-03-31T16:45:14.999Z</time></trkpt><trkpt lat="48.87796277169117" lon="2.05381475383594"><ele>171.0</ele><time>2026-03-31T16:45:15.999Z</time></trkpt><trkpt lat="48.87799209385676" lon="2.0539185721911895"><ele>171.0</ele><time>2026-03-31T16:45:16.999Z</time></trkpt><trkpt lat="48.87802318850743" lon="2.054028666194336"><ele>171.0</ele><time>2026-03-31T16:45:17.999Z</time></trkpt><trkpt lat="48.878051861514535" lon="2.0541316185046354"><ele>171.0</ele><time>2026-03-31T16:45:18.999Z</time></trkpt><trkpt lat="48.87808107357628" lon="2.0542411962099867"><ele>171.0</ele><time>2026-03-31T16:45:20Z</time></trkpt><trkpt lat="48.87810593560646" lon="2.054343987358708"><ele>171.0</ele><time>2026-03-31T16:45:21Z</time></trkpt><trkpt lat="48.87814332616617" lon="2.0545140306355463"><ele>171.0</ele><time>2026-03-31T16:45:23Z</time></trkpt><trkpt lat="48.87817485077734" lon="2.0546818808313585"><ele>171.0</ele><time>2026-03-31T16:45:25Z</time></trkpt><trkpt lat="48.8782026199445" lon="2.0548432449232448"><ele>171.0</ele><time>2026-03-31T16:45:27Z</time></trkpt><trkpt lat="48.87822645420314" lon="2.055013268060288"><ele>171.0</ele><time>2026-03-31T16:45:29Z</time></trkpt><trkpt lat="48.87825632552682" lon="2.055199911430037"><ele>171.42857142857142</ele><time>2026-03-31T16:45:31Z</time></trkpt><trkpt lat="48.8782718582532" lon="2.0552952725374736"><ele>171.85714285714286</ele><time>2026-03-31T16:45:32Z</time></trkpt><trkpt lat="48.87829162751697" lon="2.055390198029349"><ele>172.28571428571428</ele><time>2026-03-31T16:45:33Z</time></trkpt><trkpt lat="48.87830874702841" lon="2.055487332943535"><ele>172.71428571428572</ele><time>2026-03-31T16:45:34Z</time></trkpt><trkpt lat="48.87831899892888" lon="2.0555864395751224"><ele>173.14285714285714</ele><time>2026-03-31T16:45:35Z</time></trkpt><trkpt lat="48.878328856005936" lon="2.055693084946452"><ele>173.57142857142856</ele><time>2026-03-31T16:45:36Z</time></trkpt><trkpt lat="48.878336937293035" lon="2.0557979641261985"><ele>174.0</ele><time>2026-03-31T16:45:37Z</time></trkpt><trkpt lat="48.87834501859629" lon="2.0559073746848857"><ele>174.5</ele><time>2026-03-31T16:45:38Z</time></trkpt><trkpt lat="48.87835300508689" lon="2.0560172994269887"><ele>175.0</ele><time>2026-03-31T16:45:39Z</time></trkpt><trkpt lat="48.878363380952855" lon="2.0561298304533864"><ele>175.5</ele><time>2026-03-31T16:45:40Z</time></trkpt><trkpt lat="48.87836640200289" lon="2.056246927093859"><ele>176.0</ele><time>2026-03-31T16:45:41Z</time></trkpt><trkpt lat="48.87837423156911" lon="2.056368157123412"><ele>176.5</ele><time>2026-03-31T16:45:42Z</time></trkpt><trkpt lat="48.87838519005287" lon="2.0564893620943034"><ele>177.0</ele><time>2026-03-31T16:45:43Z</time></trkpt><trkpt lat="48.87839780870876" lon="2.056616058705673"><ele>177.0</ele><time>2026-03-31T16:45:44Z</time></trkpt><trkpt lat="48.87840632757603" lon="2.0567418689713017"><ele>177.0</ele><time>2026-03-31T16:45:45Z</time></trkpt><trkpt lat="48.87841269815805" lon="2.056866565514589"><ele>177.0</ele><time>2026-03-31T16:45:46Z</time></trkpt><trkpt lat="48.8784231422879" lon="2.0569917959983464"><ele>177.0</ele><time>2026-03-31T16:45:47Z</time></trkpt><trkpt lat="48.878437158032305" lon="2.0571102691367873"><ele>177.0</ele><time>2026-03-31T16:45:48Z</time></trkpt><trkpt lat="48.878446284457766" lon="2.057232667079496"><ele>177.0</ele><time>2026-03-31T16:45:49Z</time></trkpt><trkpt lat="48.878451024788625" lon="2.0573572660243853"><ele>176.66666666666666</ele><time>2026-03-31T16:45:50Z</time></trkpt><trkpt lat="48.87845780486069" lon="2.0574757391492393"><ele>176.33333333333334</ele><time>2026-03-31T16:45:51Z</time></trkpt><trkpt lat="48.87846494247845" lon="2.0575967946942026"><ele>176.0</ele><time>2026-03-31T16:45:52Z</time></trkpt><trkpt lat="48.87847170870126" lon="2.057721816210349"><ele>175.66666666666669</ele><time>2026-03-31T16:45:53Z</time></trkpt><trkpt lat="48.878479129662615" lon="2.057840198601918"><ele>175.33333333333334</ele><time>2026-03-31T16:45:54Z</time></trkpt><trkpt lat="48.87848659483173" lon="2.0579743559672816"><ele>175.0</ele><time>2026-03-31T16:45:55Z</time></trkpt><trkpt lat="48.878501416454114" lon="2.0581079683379206"><ele>175.0</ele><time>2026-03-31T16:45:56Z</time></trkpt><trkpt lat="48.878508906165024" lon="2.058249344519888"><ele>175.0</ele><time>2026-03-31T16:45:57Z</time></trkpt><trkpt lat="48.87851908800926" lon="2.058395189904049"><ele>175.0</ele><time>2026-03-31T16:45:58Z</time></trkpt><trkpt lat="48.87853103707892" lon="2.058543529275743"><ele>175.0</ele><time>2026-03-31T16:45:59Z</time></trkpt><trkpt lat="48.87854297154684" lon="2.0586972193243596"><ele>175.0</ele><time>2026-03-31T16:46:00Z</time></trkpt><trkpt lat="48.87855656251013" lon="2.0588569752574166"><ele>174.8</ele><time>2026-03-31T16:46:01Z</time></trkpt><trkpt lat="48.87857247926664" lon="2.0590202487599663"><ele>174.6</ele><time>2026-03-31T16:46:02Z</time></trkpt><trkpt lat="48.878581939688786" lon="2.0591841360097423"><ele>174.39999999999998</ele><time>2026-03-31T16:46:03Z</time></trkpt><trkpt lat="48.878591870039216" lon="2.059349900695755"><ele>174.2</ele><time>2026-03-31T16:46:04Z</time></trkpt><trkpt lat="48.878604078509724" lon="2.059513130250359"><ele>174.0</ele><time>2026-03-31T16:46:05Z</time></trkpt><trkpt lat="48.8786208103278" lon="2.0596610242245483"><ele>173.79999999999998</ele><time>2026-03-31T16:46:06Z</time></trkpt><trkpt lat="48.878628869159954" lon="2.059828160635026"><ele>173.6</ele><time>2026-03-31T16:46:07Z</time></trkpt><trkpt lat="48.8786429925787" lon="2.0599885076737436"><ele>173.4</ele><time>2026-03-31T16:46:08Z</time></trkpt><trkpt lat="48.87865874800449" lon="2.0601546455884394"><ele>173.2</ele><time>2026-03-31T16:46:09Z</time></trkpt><trkpt lat="48.8786807606556" lon="2.0603258362795174"><ele>173.0</ele><time>2026-03-31T16:46:10Z</time></trkpt><trkpt lat="48.87870556821617" lon="2.0604959922838444"><ele>172.75</ele><time>2026-03-31T16:46:11Z</time></trkpt><trkpt lat="48.87872992839509" lon="2.0606706529287666"><ele>172.5</ele><time>2026-03-31T16:46:12Z</time></trkpt><trkpt lat="48.87875729475064" lon="2.0608452666147317"><ele>172.25</ele><time>2026-03-31T16:46:13Z</time></trkpt><trkpt lat="48.87878885678047" lon="2.061021109646686"><ele>172.0</ele><time>2026-03-31T16:46:14Z</time></trkpt><trkpt lat="48.87882415410553" lon="2.0611961251873794"><ele>171.25</ele><time>2026-03-31T16:46:15Z</time></trkpt><trkpt lat="48.87886138747362" lon="2.0613763162236443"><ele>170.5</ele><time>2026-03-31T16:46:16Z</time></trkpt><trkpt lat="48.878896070382645" lon="2.0615563566367228"><ele>169.75</ele><time>2026-03-31T16:46:16.999Z</time></trkpt><trkpt lat="48.87893979688957" lon="2.0617349244545253"><ele>169.0</ele><time>2026-03-31T16:46:17.999Z</time></trkpt><trkpt lat="48.87898674732008" lon="2.061903745118935"><ele>167.25</ele><time>2026-03-31T16:46:18.999Z</time></trkpt><trkpt lat="48.879032474069554" lon="2.062070868626326"><ele>165.5</ele><time>2026-03-31T16:46:19.999Z</time></trkpt><trkpt lat="48.87908129137014" lon="2.062237844046462"><ele>163.75</ele><time>2026-03-31T16:46:20.999Z</time></trkpt><trkpt lat="48.87912951359978" lon="2.062402634749808"><ele>162.0</ele><time>2026-03-31T16:46:21.999Z</time></trkpt><trkpt lat="48.87919006717242" lon="2.0625688563569966"><ele>160.75</ele><time>2026-03-31T16:46:22.999Z</time></trkpt><trkpt lat="48.87924683708304" lon="2.0627228157705315"><ele>159.5</ele><time>2026-03-31T16:46:23.999Z</time></trkpt><trkpt lat="48.8793056098477" lon="2.062872362474489"><ele>158.25</ele><time>2026-03-31T16:46:24.999Z</time></trkpt><trkpt lat="48.87936236910885" lon="2.063028368010204"><ele>157.0</ele><time>2026-03-31T16:46:25.999Z</time></trkpt><trkpt lat="48.87942196743925" lon="2.0631842705702432"><ele>156.0</ele><time>2026-03-31T16:46:26.999Z</time></trkpt><trkpt lat="48.879482940761136" lon="2.0633361406477744"><ele>155.0</ele><time>2026-03-31T16:46:27.999Z</time></trkpt><trkpt lat="48.87955269506312" lon="2.063486117673427"><ele>154.0</ele><time>2026-03-31T16:46:28.999Z</time></trkpt><trkpt lat="48.87962211380987" lon="2.0636324561347212"><ele>153.0</ele><time>2026-03-31T16:46:29.999Z</time></trkpt><trkpt lat="48.87968929268625" lon="2.063779355731636"><ele>153.0</ele><time>2026-03-31T16:46:30.999Z</time></trkpt><trkpt lat="48.87976349301016" lon="2.063930534283981"><ele>153.0</ele><time>2026-03-31T16:46:31.999Z</time></trkpt><trkpt lat="48.87983971646232" lon="2.0640823721092953"><ele>153.0</ele><time>2026-03-31T16:46:32.999Z</time></trkpt><trkpt lat="48.87992236990331" lon="2.0642274287021336"><ele>153.0</ele><time>2026-03-31T16:46:33.999Z</time></trkpt><trkpt lat="48.88000470677317" lon="2.0643742948541983"><ele>152.25</ele><time>2026-03-31T16:46:34.999Z</time></trkpt><trkpt lat="48.88008830034588" lon="2.0645139521770015"><ele>151.5</ele><time>2026-03-31T16:46:35.999Z</time></trkpt><trkpt lat="48.88018186236447" lon="2.064639588173014"><ele>150.75</ele><time>2026-03-31T16:46:36.999Z</time></trkpt><trkpt lat="48.88027491106469" lon="2.0647676633741496"><ele>150.0</ele><time>2026-03-31T16:46:37.999Z</time></trkpt><trkpt lat="48.88036297259375" lon="2.064898378849904"><ele>148.25</ele><time>2026-03-31T16:46:38.999Z</time></trkpt><trkpt lat="48.88045335908079" lon="2.0650283329434025"><ele>146.5</ele><time>2026-03-31T16:46:39.999Z</time></trkpt><trkpt lat="48.8805413242409" lon="2.065154970996868"><ele>144.75</ele><time>2026-03-31T16:46:40.999Z</time></trkpt><trkpt lat="48.8806290838398" lon="2.065284324276123"><ele>143.0</ele><time>2026-03-31T16:46:41.999Z</time></trkpt><trkpt lat="48.88071732581977" lon="2.0654090654357966"><ele>143.0</ele><time>2026-03-31T16:46:42.999Z</time></trkpt><trkpt lat="48.8808065385272" lon="2.06553930282688"><ele>143.0</ele><time>2026-03-31T16:46:43.999Z</time></trkpt><trkpt lat="48.88089106010918" lon="2.065668907268003"><ele>143.0</ele><time>2026-03-31T16:46:44.999Z</time></trkpt><trkpt lat="48.88098004646311" lon="2.065800723082232"><ele>143.0</ele><time>2026-03-31T16:46:45.999Z</time></trkpt><trkpt lat="48.88107557510714" lon="2.065923734182712"><ele>141.75</ele><time>2026-03-31T16:46:46.999Z</time></trkpt><trkpt lat="48.881165811196716" lon="2.06604228643354"><ele>140.5</ele><time>2026-03-31T16:46:47.999Z</time></trkpt><trkpt lat="48.88125344220838" lon="2.066161625913266"><ele>139.25</ele><time>2026-03-31T16:46:48.999Z</time></trkpt><trkpt lat="48.88133806963517" lon="2.066285057202474"><ele>138.0</ele><time>2026-03-31T16:46:49.999Z</time></trkpt><trkpt lat="48.88142831905195" lon="2.066405253486213"><ele>138.0</ele><time>2026-03-31T16:46:50.999Z</time></trkpt><trkpt lat="48.88151212801576" lon="2.0665242314776924"><ele>138.0</ele><time>2026-03-31T16:46:51.999Z</time></trkpt><trkpt lat="48.88159201085301" lon="2.066642226892447"><ele>138.0</ele><time>2026-03-31T16:46:52.999Z</time></trkpt><trkpt lat="48.88167429992096" lon="2.0667586741531103"><ele>138.0</ele><time>2026-03-31T16:46:53.999Z</time></trkpt><trkpt lat="48.88175945459566" lon="2.066864636708873"><ele>138.0</ele><time>2026-03-31T16:46:54.999Z</time></trkpt><trkpt lat="48.88184123856375" lon="2.066976690829298"><ele>136.4</ele><time>2026-03-31T16:46:55.999Z</time></trkpt><trkpt lat="48.88190975037348" lon="2.067091178014944"><ele>134.8</ele><time>2026-03-31T16:46:56.999Z</time></trkpt><trkpt lat="48.88198669422867" lon="2.0672045640811483"><ele>133.2</ele><time>2026-03-31T16:46:57.999Z</time></trkpt><trkpt lat="48.88206811169032" lon="2.067306011586099"><ele>131.6</ele><time>2026-03-31T16:46:58.999Z</time></trkpt><trkpt lat="48.88215139751694" lon="2.0674010940850285"><ele>130.0</ele><time>2026-03-31T16:46:59.999Z</time></trkpt><trkpt lat="48.88222662737839" lon="2.067501790039933"><ele>129.0</ele><time>2026-03-31T16:47:00.999Z</time></trkpt><trkpt lat="48.88229617549045" lon="2.067605174565113"><ele>128.0</ele><time>2026-03-31T16:47:01.999Z</time></trkpt><trkpt lat="48.88236572843781" lon="2.067706728378429"><ele>127.0</ele><time>2026-03-31T16:47:02.999Z</time></trkpt><trkpt lat="48.882439647997785" lon="2.0678047244490605"><ele>126.0</ele><time>2026-03-31T16:47:03.999Z</time></trkpt><trkpt lat="48.882508895539615" lon="2.067896530391383"><ele>125.0</ele><time>2026-03-31T16:47:04.999Z</time></trkpt><trkpt lat="48.882569518233566" lon="2.067981695251766"><ele>124.16666666666666</ele><time>2026-03-31T16:47:05.999Z</time></trkpt><trkpt lat="48.8826187800925" lon="2.0680581848918864"><ele>123.33333333333333</ele><time>2026-03-31T16:47:06.999Z</time></trkpt><trkpt lat="48.882663676253884" lon="2.0681266923176898"><ele>122.5</ele><time>2026-03-31T16:47:07.999Z</time></trkpt><trkpt lat="48.88274875716909" lon="2.068258700513378"><ele>121.66666666666666</ele><time>2026-03-31T16:47:09.999Z</time></trkpt><trkpt lat="48.8827937969452" lon="2.068334424268332"><ele>120.83333333333333</ele><time>2026-03-31T16:47:10.999Z</time></trkpt><trkpt lat="48.88283754386009" lon="2.068409436822168"><ele>120.0</ele><time>2026-03-31T16:47:11.999Z</time></trkpt><trkpt lat="48.88288092002583" lon="2.0684842938607786"><ele>119.25</ele><time>2026-03-31T16:47:12.999Z</time></trkpt><trkpt lat="48.88293587564345" lon="2.0686501940629287"><ele>118.5</ele><time>2026-03-31T16:47:14.999Z</time></trkpt><trkpt lat="48.88300609469427" lon="2.068762407721951"><ele>117.75</ele><time>2026-03-31T16:47:16.999Z</time></trkpt><trkpt lat="48.8831110750212" lon="2.0687815794493605"><ele>117.0</ele><time>2026-03-31T16:47:18.999Z</time></trkpt><trkpt lat="48.88320341135581" lon="2.068644134973878"><ele>117.0</ele><time>2026-03-31T16:47:20.999Z</time></trkpt><trkpt lat="48.883307372240445" lon="2.0685372543094718"><ele>117.0</ele><time>2026-03-31T16:47:22.999Z</time></trkpt><trkpt lat="48.88339446680234" lon="2.0684114055256897"><ele>117.0</ele><time>2026-03-31T16:47:24.999Z</time></trkpt><trkpt lat="48.88345870359176" lon="2.068272347379036"><ele>117.0</ele><time>2026-03-31T16:47:27Z</time></trkpt><trkpt lat="48.88352407571046" lon="2.068153483224207"><ele>117.19999999999999</ele><time>2026-03-31T16:47:29Z</time></trkpt><trkpt lat="48.88358672247009" lon="2.068028164463402"><ele>117.39999999999999</ele><time>2026-03-31T16:47:31Z</time></trkpt><trkpt lat="48.88364289573421" lon="2.067897634525703"><ele>117.60000000000001</ele><time>2026-03-31T16:47:33Z</time></trkpt><trkpt lat="48.88368732811362" lon="2.067756466501959"><ele>117.80000000000001</ele><time>2026-03-31T16:47:35Z</time></trkpt><trkpt lat="48.88374100859541" lon="2.0676237310310945"><ele>118.0</ele><time>2026-03-31T16:47:37Z</time></trkpt><trkpt lat="48.88380348475907" lon="2.067498485060508"><ele>118.80000000000001</ele><time>2026-03-31T16:47:39Z</time></trkpt><trkpt lat="48.88386451398449" lon="2.0673671588179086"><ele>119.60000000000001</ele><time>2026-03-31T16:47:41Z</time></trkpt><trkpt lat="48.88392851213612" lon="2.067240340664447"><ele>120.39999999999999</ele><time>2026-03-31T16:47:43Z</time></trkpt><trkpt lat="48.88399767680518" lon="2.0671220997593704"><ele>121.19999999999999</ele><time>2026-03-31T16:47:45Z</time></trkpt><trkpt lat="48.884059823987286" lon="2.066997227739608"><ele>122.0</ele><time>2026-03-31T16:47:47Z</time></trkpt><trkpt lat="48.88412317589437" lon="2.066875166135234"><ele>121.99999999999999</ele><time>2026-03-31T16:47:49Z</time></trkpt><trkpt lat="48.88417565918596" lon="2.0667702839633497"><ele>122.0</ele><time>2026-03-31T16:47:51Z</time></trkpt><trkpt lat="48.88421593887553" lon="2.066665291571771"><ele>122.0</ele><time>2026-03-31T16:47:53Z</time></trkpt><trkpt lat="48.884257808679564" lon="2.06655772884275"><ele>122.0</ele><time>2026-03-31T16:47:55Z</time></trkpt><trkpt lat="48.88430907771783" lon="2.0664445466520336"><ele>121.99999999999999</ele><time>2026-03-31T16:47:57Z</time></trkpt><trkpt lat="48.88436034223528" lon="2.066321377819185"><ele>122.0</ele><time>2026-03-31T16:47:59Z</time></trkpt><trkpt lat="48.88441587265438" lon="2.0662216883960562"><ele>122.83333333333333</ele><time>2026-03-31T16:48:01Z</time></trkpt><trkpt lat="48.8844515901518" lon="2.0661374972138535"><ele>123.66666666666666</ele><time>2026-03-31T16:48:03Z</time></trkpt><trkpt lat="48.884502414536385" lon="2.0660215853560144"><ele>124.5</ele><time>2026-03-31T16:48:06Z</time></trkpt><trkpt lat="48.88453750278248" lon="2.0659420354390536"><ele>125.33333333333334</ele><time>2026-03-31T16:48:08Z</time></trkpt><trkpt lat="48.8845840154213" lon="2.065845832874595"><ele>126.16666666666667</ele><time>2026-03-31T16:48:11Z</time></trkpt><trkpt lat="48.88462498623957" lon="2.0657359790136818"><ele>127.0</ele><time>2026-03-31T16:48:14Z</time></trkpt><trkpt lat="48.88453053069144" lon="2.0655859054358077"><ele>127.50000000000001</ele><time>2026-03-31T16:48:15Z</time></trkpt><trkpt lat="48.88446112081628" lon="2.0655205126356346"><ele>128.0</ele><time>2026-03-31T16:48:17Z</time></trkpt><trkpt lat="48.88437577036237" lon="2.0654773768805437"><ele>128.5</ele><time>2026-03-31T16:48:18.999Z</time></trkpt><trkpt lat="48.88430405563781" lon="2.0654098408930923"><ele>129.0</ele><time>2026-03-31T16:48:20.999Z</time></trkpt><trkpt lat="48.88423217524694" lon="2.065338749459692"><ele>129.5</ele><time>2026-03-31T16:48:22.999Z</time></trkpt><trkpt lat="48.8841908690524" lon="2.0652531218053993"><ele>130.0</ele><time>2026-03-31T16:48:24.999Z</time></trkpt><trkpt lat="48.88420168810683" lon="2.065148249814424"><ele>121.0</ele><time>2026-03-31T16:48:28.999Z</time></trkpt><trkpt lat="48.88546294528531" lon="2.0633702516759396"><ele>121.0</ele><time>2026-03-31T16:55:37Z</time></trkpt><trkpt lat="48.88543524569165" lon="2.063467672570709"><ele>120.99999999999999</ele><time>2026-03-31T16:55:44Z</time></trkpt><trkpt lat="48.88541879863722" lon="2.0635681565021358"><ele>121.0</ele><time>2026-03-31T16:55:48Z</time></trkpt><trkpt lat="48.88536288858118" lon="2.06361980825449"><ele>121.0</ele><time>2026-03-31T16:55:50Z</time></trkpt><trkpt lat="48.88529183972141" lon="2.0637119578972296"><ele>120.99999999999999</ele><time>2026-03-31T16:55:53Z</time></trkpt><trkpt lat="48.88523539556072" lon="2.063781102622406"><ele>121.0</ele><time>2026-03-31T16:55:55Z</time></trkpt><trkpt lat="48.88518323693795" lon="2.063865826253667"><ele>121.0</ele><time>2026-03-31T16:55:57Z</time></trkpt><trkpt lat="48.885127505057895" lon="2.063944972179424"><ele>122.16666666666667</ele><time>2026-03-31T16:55:59Z</time></trkpt><trkpt lat="48.88506941883611" lon="2.0639964333326657"><ele>123.33333333333334</ele><time>2026-03-31T16:56:00.999Z</time></trkpt><trkpt lat="48.88502189175502" lon="2.0640697109374946"><ele>124.5</ele><time>2026-03-31T16:56:02.999Z</time></trkpt><trkpt lat="48.88495047256108" lon="2.064166627680039"><ele>125.66666666666666</ele><time>2026-03-31T16:56:05.999Z</time></trkpt><trkpt lat="48.884906813509666" lon="2.064251051159941"><ele>126.83333333333333</ele><time>2026-03-31T16:56:07.999Z</time></trkpt><trkpt lat="48.884858547558906" lon="2.064329416405246"><ele>128.0</ele><time>2026-03-31T16:56:10.999Z</time></trkpt><trkpt lat="48.884800794165976" lon="2.0644140656573833"><ele>128.16666666666666</ele><time>2026-03-31T16:56:13.999Z</time></trkpt><trkpt lat="48.88474361843871" lon="2.0645020055338104"><ele>128.33333333333331</ele><time>2026-03-31T16:56:17.999Z</time></trkpt><trkpt lat="48.88469405557656" lon="2.0646172343988085"><ele>128.5</ele><time>2026-03-31T16:56:21.999Z</time></trkpt><trkpt lat="48.88463598019679" lon="2.0647019599218535"><ele>128.66666666666666</ele><time>2026-03-31T16:56:25.999Z</time></trkpt><trkpt lat="48.884549847653915" lon="2.064824999995382"><ele>128.83333333333334</ele><time>2026-03-31T16:56:29.999Z</time></trkpt><trkpt lat="48.88449160538697" lon="2.0648744965729002"><ele>129.0</ele><time>2026-03-31T16:56:31.999Z</time></trkpt><trkpt lat="48.88444098935201" lon="2.064947257869083"><ele>129.14285714285714</ele><time>2026-03-31T16:56:34.999Z</time></trkpt><trkpt lat="48.88438876627353" lon="2.0650327567430127"><ele>129.28571428571428</ele><time>2026-03-31T16:56:36.999Z</time></trkpt><trkpt lat="48.88433678236325" lon="2.0651218188172007"><ele>129.42857142857144</ele><time>2026-03-31T16:56:38.999Z</time></trkpt><trkpt lat="48.884286353394536" lon="2.065186384556805"><ele>129.57142857142856</ele><time>2026-03-31T16:56:40.999Z</time></trkpt><trkpt lat="48.884237951886824" lon="2.0652476139751546"><ele>129.71428571428572</ele><time>2026-03-31T16:56:42.999Z</time></trkpt><trkpt lat="48.88424733963564" lon="2.065350409182882"><ele>129.85714285714286</ele><time>2026-03-31T16:56:44.999Z</time></trkpt><trkpt lat="48.88431488789362" lon="2.0654366693191397"><ele>130.0</ele><time>2026-03-31T16:56:46.999Z</time></trkpt><trkpt lat="48.884377817710394" lon="2.0655373566037687"><ele>130.0</ele><time>2026-03-31T16:56:48.999Z</time></trkpt><trkpt lat="48.88448078802941" lon="2.065622370467765"><ele>130.0</ele><time>2026-03-31T16:56:50.999Z</time></trkpt><trkpt lat="48.88455713304102" lon="2.065700000860917"><ele>130.0</ele><time>2026-03-31T16:56:52.999Z</time></trkpt><trkpt lat="48.884528432158476" lon="2.0658718538935554"><ele>130.0</ele><time>2026-03-31T16:56:55.999Z</time></trkpt><trkpt lat="48.88447634329592" lon="2.0660128354556693"><ele>130.0</ele><time>2026-03-31T16:56:57.999Z</time></trkpt><trkpt lat="48.88440686599321" lon="2.066169420527776"><ele>129.83333333333334</ele><time>2026-03-31T16:56:59.999Z</time></trkpt><trkpt lat="48.88437412999355" lon="2.0662561168496905"><ele>129.66666666666669</ele><time>2026-03-31T16:57:00.999Z</time></trkpt><trkpt lat="48.8843379189264" lon="2.06635185073583"><ele>129.5</ele><time>2026-03-31T16:57:01.999Z</time></trkpt><trkpt lat="48.88429399194127" lon="2.066454593100292"><ele>129.33333333333334</ele><time>2026-03-31T16:57:02.999Z</time></trkpt><trkpt lat="48.88424479460265" lon="2.0665683365365517"><ele>129.16666666666666</ele><time>2026-03-31T16:57:03.999Z</time></trkpt><trkpt lat="48.88418212217035" lon="2.06667062399498"><ele>129.0</ele><time>2026-03-31T16:57:04.999Z</time></trkpt><trkpt lat="48.88412571038615" lon="2.066787889715997"><ele>127.6</ele><time>2026-03-31T16:57:05.999Z</time></trkpt><trkpt lat="48.884065488395926" lon="2.066904979450252"><ele>126.2</ele><time>2026-03-31T16:57:06.999Z</time></trkpt><trkpt lat="48.88400421914843" lon="2.0670233976298493"><ele>124.79999999999998</ele><time>2026-03-31T16:57:07.999Z</time></trkpt><trkpt lat="48.88394353424472" lon="2.0671430577017214"><ele>123.39999999999999</ele><time>2026-03-31T16:57:08.999Z</time></trkpt><trkpt lat="48.88388954094474" lon="2.0672528256041978"><ele>122.0</ele><time>2026-03-31T16:57:09.999Z</time></trkpt><trkpt lat="48.88383340213231" lon="2.0673694290710567"><ele>121.19999999999999</ele><time>2026-03-31T16:57:10.999Z</time></trkpt><trkpt lat="48.883780510328826" lon="2.0674805340414233"><ele>120.39999999999999</ele><time>2026-03-31T16:57:11.999Z</time></trkpt><trkpt lat="48.883727861898436" lon="2.0675911275894108"><ele>119.60000000000001</ele><time>2026-03-31T16:57:12.999Z</time></trkpt><trkpt lat="48.8836741250936" lon="2.0677145768000322"><ele>118.80000000000001</ele><time>2026-03-31T16:57:13.999Z</time></trkpt><trkpt lat="48.88363796112219" lon="2.067835686984911"><ele>118.0</ele><time>2026-03-31T16:57:14.999Z</time></trkpt><trkpt lat="48.88359486966123" lon="2.0679543848210935"><ele>118.00000000000001</ele><time>2026-03-31T16:57:15.999Z</time></trkpt><trkpt lat="48.88354919815982" lon="2.0680593034324692"><ele>118.0</ele><time>2026-03-31T16:57:16.999Z</time></trkpt><trkpt lat="48.88350116389111" lon="2.068156061613937"><ele>118.0</ele><time>2026-03-31T16:57:18Z</time></trkpt><trkpt lat="48.883455475634" lon="2.0682408030163817"><ele>118.0</ele><time>2026-03-31T16:57:19Z</time></trkpt><trkpt lat="48.883403600868355" lon="2.0683300088262078"><ele>118.00000000000001</ele><time>2026-03-31T16:57:20Z</time></trkpt><trkpt lat="48.88336333295377" lon="2.068405549983627"><ele>118.0</ele><time>2026-03-31T16:57:21Z</time></trkpt><trkpt lat="48.88328520502038" lon="2.068503421670045"><ele>117.80000000000001</ele><time>2026-03-31T16:57:23Z</time></trkpt><trkpt lat="48.88323122697995" lon="2.0685537474919173"><ele>117.60000000000001</ele><time>2026-03-31T16:57:25Z</time></trkpt><trkpt lat="48.88315016070185" lon="2.068503320528815"><ele>117.39999999999999</ele><time>2026-03-31T16:57:27Z</time></trkpt><trkpt lat="48.883049787243195" lon="2.0684210386838826"><ele>117.19999999999999</ele><time>2026-03-31T16:57:29Z</time></trkpt><trkpt lat="48.882946291347984" lon="2.0683587913507973"><ele>117.0</ele><time>2026-03-31T16:57:31Z</time></trkpt><trkpt lat="48.88285047366147" lon="2.068287662402133"><ele>117.6</ele><time>2026-03-31T16:57:33Z</time></trkpt><trkpt lat="48.88276261118272" lon="2.0682141287336355"><ele>118.19999999999999</ele><time>2026-03-31T16:57:35Z</time></trkpt><trkpt lat="48.882707830456255" lon="2.0680762395789722"><ele>118.8</ele><time>2026-03-31T16:57:37Z</time></trkpt><trkpt lat="48.88264088860978" lon="2.067991148322628"><ele>119.4</ele><time>2026-03-31T16:57:39Z</time></trkpt><trkpt lat="48.88256900526972" lon="2.0678987810789313"><ele>120.0</ele><time>2026-03-31T16:57:41Z</time></trkpt><trkpt lat="48.88250322246497" lon="2.067809719427798"><ele>120.83333333333333</ele><time>2026-03-31T16:57:43Z</time></trkpt><trkpt lat="48.88244987510449" lon="2.0677165928509824"><ele>121.66666666666666</ele><time>2026-03-31T16:57:45Z</time></trkpt><trkpt lat="48.882403851700374" lon="2.0676364106912533"><ele>122.5</ele><time>2026-03-31T16:57:47Z</time></trkpt><trkpt lat="48.882351095224436" lon="2.0675554246578574"><ele>123.33333333333333</ele><time>2026-03-31T16:57:49Z</time></trkpt><trkpt lat="48.88229177161599" lon="2.067489161415798"><ele>124.16666666666666</ele><time>2026-03-31T16:57:51Z</time></trkpt><trkpt lat="48.882239061390614" lon="2.067420954347795"><ele>125.0</ele><time>2026-03-31T16:57:53Z</time></trkpt><trkpt lat="48.88217779461277" lon="2.067297730452695"><ele>126.0</ele><time>2026-03-31T16:57:57Z</time></trkpt><trkpt lat="48.88210036322035" lon="2.067178147875806"><ele>127.0</ele><time>2026-03-31T16:58:01Z</time></trkpt><trkpt lat="48.88202463013091" lon="2.0670854661404747"><ele>128.0</ele><time>2026-03-31T16:58:04Z</time></trkpt><trkpt lat="48.881920376413454" lon="2.066955909418217"><ele>129.0</ele><time>2026-03-31T16:58:05Z</time></trkpt><trkpt lat="48.88186815891751" lon="2.066871978439113"><ele>130.0</ele><time>2026-03-31T16:58:07Z</time></trkpt><trkpt lat="48.88181465679516" lon="2.0667962319804283"><ele>130.14285714285717</ele><time>2026-03-31T16:58:09Z</time></trkpt><trkpt lat="48.881762408924416" lon="2.066722048030593"><ele>130.28571428571428</ele><time>2026-03-31T16:58:11Z</time></trkpt><trkpt lat="48.88171313185258" lon="2.066647534452024"><ele>130.42857142857144</ele><time>2026-03-31T16:58:13Z</time></trkpt><trkpt lat="48.88166281229718" lon="2.0665784184046405"><ele>130.57142857142858</ele><time>2026-03-31T16:58:15Z</time></trkpt><trkpt lat="48.88161118537159" lon="2.0665091684321273"><ele>130.71428571428572</ele><time>2026-03-31T16:58:16.999Z</time></trkpt><trkpt lat="48.88155865647247" lon="2.0664387335798957"><ele>130.85714285714286</ele><time>2026-03-31T16:58:18.999Z</time></trkpt><trkpt lat="48.88150830936651" lon="2.0663675465166147"><ele>131.0</ele><time>2026-03-31T16:58:20.999Z</time></trkpt><trkpt lat="48.8814579691737" lon="2.066309717703314"><ele>132.16666666666666</ele><time>2026-03-31T16:58:22.999Z</time></trkpt><trkpt lat="48.88140163950646" lon="2.0662110984525452"><ele>133.33333333333331</ele><time>2026-03-31T16:58:26.999Z</time></trkpt><trkpt lat="48.881348523107015" lon="2.066149865580678"><ele>134.5</ele><time>2026-03-31T16:58:29.999Z</time></trkpt><trkpt lat="48.881266018551" lon="2.066086848864904"><ele>135.66666666666666</ele><time>2026-03-31T16:58:33.999Z</time></trkpt><trkpt lat="48.88120730191813" lon="2.0659840576251662"><ele>136.83333333333334</ele><time>2026-03-31T16:58:36.999Z</time></trkpt><trkpt lat="48.88117097403669" lon="2.0658796591281665"><ele>138.0</ele><time>2026-03-31T16:58:38.999Z</time></trkpt><trkpt lat="48.88111132097926" lon="2.0658068613010885"><ele>138.83333333333334</ele><time>2026-03-31T16:58:41.999Z</time></trkpt><trkpt lat="48.88105686463217" lon="2.065719737065631"><ele>139.66666666666666</ele><time>2026-03-31T16:58:43.999Z</time></trkpt><trkpt lat="48.88101106440524" lon="2.0656487523946723"><ele>140.5</ele><time>2026-03-31T16:58:45.999Z</time></trkpt><trkpt lat="48.88094426772057" lon="2.0655574089217956"><ele>141.33333333333331</ele><time>2026-03-31T16:58:48.999Z</time></trkpt><trkpt lat="48.88086549594118" lon="2.06545475003859"><ele>142.16666666666666</ele><time>2026-03-31T16:58:51.999Z</time></trkpt><trkpt lat="48.88079156563855" lon="2.065358211240522"><ele>143.0</ele><time>2026-03-31T16:58:54.999Z</time></trkpt><trkpt lat="48.88073106803713" lon="2.0652832529858314"><ele>143.0</ele><time>2026-03-31T16:58:56.999Z</time></trkpt><trkpt lat="48.88065828254444" lon="2.065178729629857"><ele>143.0</ele><time>2026-03-31T16:58:59.999Z</time></trkpt><trkpt lat="48.88059300450541" lon="2.0650906136807405"><ele>143.0</ele><time>2026-03-31T16:59:01.999Z</time></trkpt><trkpt lat="48.88051791577779" lon="2.0649778852282124"><ele>143.0</ele><time>2026-03-31T16:59:04.999Z</time></trkpt><trkpt lat="48.88046920529054" lon="2.0649067317558747"><ele>143.0</ele><time>2026-03-31T16:59:05.999Z</time></trkpt><trkpt lat="48.8804154557054" lon="2.064830051174643"><ele>143.0</ele><time>2026-03-31T16:59:07.999Z</time></trkpt><trkpt lat="48.88035195844861" lon="2.0647405714806704"><ele>143.33333333333331</ele><time>2026-03-31T16:59:09.999Z</time></trkpt><trkpt lat="48.880298119730526" lon="2.0646736461797093"><ele>143.66666666666666</ele><time>2026-03-31T16:59:12.999Z</time></trkpt><trkpt lat="48.880247725590905" lon="2.064614379484076"><ele>144.0</ele><time>2026-03-31T16:59:14.999Z</time></trkpt><trkpt lat="48.880185431402694" lon="2.0645166055492266"><ele>144.33333333333334</ele><time>2026-03-31T16:59:17.999Z</time></trkpt><trkpt lat="48.88013079739231" lon="2.0644189823323313"><ele>144.66666666666669</ele><time>2026-03-31T16:59:19.999Z</time></trkpt><trkpt lat="48.880076389975954" lon="2.064297008314702"><ele>145.0</ele><time>2026-03-31T16:59:22.999Z</time></trkpt><trkpt lat="48.88000942978197" lon="2.0641922067683116"><ele>146.14285714285714</ele><time>2026-03-31T16:59:26Z</time></trkpt><trkpt lat="48.87996952963872" lon="2.0641118875905593"><ele>147.2857142857143</ele><time>2026-03-31T16:59:28Z</time></trkpt><trkpt lat="48.87993050636824" lon="2.0640281900421407"><ele>148.42857142857144</ele><time>2026-03-31T16:59:30Z</time></trkpt><trkpt lat="48.87988735424664" lon="2.063958178610199"><ele>149.57142857142858</ele><time>2026-03-31T16:59:32Z</time></trkpt><trkpt lat="48.87984815132286" lon="2.0638811730585314"><ele>150.71428571428572</ele><time>2026-03-31T16:59:34Z</time></trkpt><trkpt lat="48.879814418547724" lon="2.06379494401765"><ele>151.85714285714286</ele><time>2026-03-31T16:59:36Z</time></trkpt><trkpt lat="48.87977494571277" lon="2.063713786725464"><ele>153.0</ele><time>2026-03-31T16:59:38Z</time></trkpt><trkpt lat="48.87972763988997" lon="2.06359177729234"><ele>153.0</ele><time>2026-03-31T16:59:41Z</time></trkpt><trkpt lat="48.879674263642144" lon="2.063480943314386"><ele>153.0</ele><time>2026-03-31T16:59:44Z</time></trkpt><trkpt lat="48.87962091259114" lon="2.063362967489253"><ele>153.0</ele><time>2026-03-31T16:59:47Z</time></trkpt><trkpt lat="48.87958735526837" lon="2.063268068033291"><ele>153.0</ele><time>2026-03-31T16:59:49Z</time></trkpt><trkpt lat="48.87957979379085" lon="2.0631635093359275"><ele>153.0</ele><time>2026-03-31T16:59:53Z</time></trkpt><trkpt lat="48.87952865064175" lon="2.063046314640368"><ele>153.0</ele><time>2026-03-31T16:59:56Z</time></trkpt><trkpt lat="48.87950163878066" lon="2.062953911985935"><ele>155.0</ele><time>2026-03-31T16:59:59Z</time></trkpt><trkpt lat="48.87945903322432" lon="2.0628437609160684"><ele>157.0</ele><time>2026-03-31T17:00:01Z</time></trkpt><trkpt lat="48.87914457053772" lon="2.0622059192873725"><ele>157.66666666666669</ele><time>2026-03-31T17:00:02Z</time></trkpt><trkpt lat="48.879129396423984" lon="2.062109927730978"><ele>158.33333333333334</ele><time>2026-03-31T17:00:03Z</time></trkpt><trkpt lat="48.879097525057844" lon="2.062010744834091"><ele>159.0</ele><time>2026-03-31T17:00:05Z</time></trkpt><trkpt lat="48.879073188251844" lon="2.0619002938248996"><ele>159.66666666666666</ele><time>2026-03-31T17:00:07Z</time></trkpt><trkpt lat="48.879039127308104" lon="2.0617822893763416"><ele>160.33333333333331</ele><time>2026-03-31T17:00:09Z</time></trkpt><trkpt lat="48.87900891908437" lon="2.0616768883551067"><ele>161.0</ele><time>2026-03-31T17:00:11Z</time></trkpt><trkpt lat="48.879295821949455" lon="2.062127339205512"><ele>161.0</ele><time>2026-03-31T17:00:13Z</time></trkpt><trkpt lat="48.879270701280056" lon="2.0620279624941578"><ele>161.0</ele><time>2026-03-31T17:00:16Z</time></trkpt><trkpt lat="48.879230032610174" lon="2.0619007732683436"><ele>161.0</ele><time>2026-03-31T17:00:18.999Z</time></trkpt><trkpt lat="48.879204003668725" lon="2.061775686852574"><ele>161.0</ele><time>2026-03-31T17:00:21.999Z</time></trkpt><trkpt lat="48.879182098615026" lon="2.0616336901407273"><ele>161.0</ele><time>2026-03-31T17:00:24.999Z</time></trkpt><trkpt lat="48.87915158978256" lon="2.0615069772487176"><ele>161.0</ele><time>2026-03-31T17:00:27.999Z</time></trkpt><trkpt lat="48.87913125924981" lon="2.061383802788824"><ele>162.33333333333331</ele><time>2026-03-31T17:00:30.999Z</time></trkpt><trkpt lat="48.87911785452717" lon="2.061259760943946"><ele>163.66666666666666</ele><time>2026-03-31T17:00:33.999Z</time></trkpt><trkpt lat="48.8790732083586" lon="2.0611149651512948"><ele>165.0</ele><time>2026-03-31T17:00:34.999Z</time></trkpt><trkpt lat="48.879065432847064" lon="2.060973651163595"><ele>166.33333333333334</ele><time>2026-03-31T17:00:36.999Z</time></trkpt><trkpt lat="48.87907074137484" lon="2.06087585265832"><ele>167.66666666666669</ele><time>2026-03-31T17:00:38.999Z</time></trkpt><trkpt lat="48.87906607282925" lon="2.060775151588029"><ele>169.0</ele><time>2026-03-31T17:00:40.999Z</time></trkpt><trkpt lat="48.8790583706589" lon="2.0606688728667"><ele>169.6</ele><time>2026-03-31T17:00:42.999Z</time></trkpt><trkpt lat="48.87907395191779" lon="2.0605372811400966"><ele>170.2</ele><time>2026-03-31T17:00:45.999Z</time></trkpt><trkpt lat="48.87907842452276" lon="2.0604295830595887"><ele>170.79999999999998</ele><time>2026-03-31T17:00:47.999Z</time></trkpt><trkpt lat="48.87906891043034" lon="2.0602988209687982"><ele>171.39999999999998</ele><time>2026-03-31T17:00:49.999Z</time></trkpt><trkpt lat="48.87906740645451" lon="2.0601423056054484"><ele>172.0</ele><time>2026-03-31T17:00:51.999Z</time></trkpt><trkpt lat="48.87905805539553" lon="2.0599591465691005"><ele>172.2</ele><time>2026-03-31T17:00:53.999Z</time></trkpt><trkpt lat="48.87905182677345" lon="2.0598298199784035"><ele>172.39999999999998</ele><time>2026-03-31T17:00:55.999Z</time></trkpt><trkpt lat="48.879043623472135" lon="2.059673300601365"><ele>172.60000000000002</ele><time>2026-03-31T17:00:57.999Z</time></trkpt><trkpt lat="48.879035955990034" lon="2.05951576947289"><ele>172.8</ele><time>2026-03-31T17:00:59.999Z</time></trkpt><trkpt lat="48.87902191172728" lon="2.059381996879096"><ele>173.0</ele><time>2026-03-31T17:01:01.999Z</time></trkpt><trkpt lat="48.87861721236806" lon="2.058582902584355"><ele>173.25</ele><time>2026-03-31T17:01:03.999Z</time></trkpt><trkpt lat="48.87861326471382" lon="2.0584625667966394"><ele>173.5</ele><time>2026-03-31T17:01:05.999Z</time></trkpt><trkpt lat="48.87860290321054" lon="2.058299047700101"><ele>173.75</ele><time>2026-03-31T17:01:07.999Z</time></trkpt><trkpt lat="48.878573366462014" lon="2.0579886980341686"><ele>174.0</ele><time>2026-03-31T17:01:09.999Z</time></trkpt><trkpt lat="48.87856699800111" lon="2.057876439908786"><ele>174.14285714285714</ele><time>2026-03-31T17:01:10.999Z</time></trkpt><trkpt lat="48.878559904572384" lon="2.0577623157882656"><ele>174.28571428571428</ele><time>2026-03-31T17:01:11.999Z</time></trkpt><trkpt lat="48.87855094547618" lon="2.057652838097357"><ele>174.42857142857144</ele><time>2026-03-31T17:01:12.999Z</time></trkpt><trkpt lat="48.87854178731545" lon="2.057547929637186"><ele>174.57142857142856</ele><time>2026-03-31T17:01:13.999Z</time></trkpt><trkpt lat="48.878532776354945" lon="2.0574431716193096"><ele>174.71428571428572</ele><time>2026-03-31T17:01:14.999Z</time></trkpt><trkpt lat="48.878532654853366" lon="2.0573373938813044"><ele>174.85714285714286</ele><time>2026-03-31T17:01:15.999Z</time></trkpt><trkpt lat="48.878520308041644" lon="2.0572324324541937"><ele>175.0</ele><time>2026-03-31T17:01:16.999Z</time></trkpt><trkpt lat="48.87851247902229" lon="2.057119540409259"><ele>175.14285714285714</ele><time>2026-03-31T17:01:17.999Z</time></trkpt><trkpt lat="48.878508734335504" lon="2.0570223724006547"><ele>175.28571428571428</ele><time>2026-03-31T17:01:18.999Z</time></trkpt><trkpt lat="48.878497708435454" lon="2.0569263175456194"><ele>175.42857142857144</ele><time>2026-03-31T17:01:19.999Z</time></trkpt><trkpt lat="48.87849493276756" lon="2.056826855147096"><ele>175.57142857142856</ele><time>2026-03-31T17:01:20.999Z</time></trkpt><trkpt lat="48.878487798280126" lon="2.056728354847674"><ele>175.71428571428572</ele><time>2026-03-31T17:01:21.999Z</time></trkpt><trkpt lat="48.87847277657541" lon="2.0566312672029663"><ele>175.85714285714286</ele><time>2026-03-31T17:01:22.999Z</time></trkpt><trkpt lat="48.87846903881541" lon="2.056535202921122"><ele>176.0</ele><time>2026-03-31T17:01:23.999Z</time></trkpt><trkpt lat="48.87846180092949" lon="2.056356437990121"><ele>176.0</ele><time>2026-03-31T17:01:25.999Z</time></trkpt><trkpt lat="48.878454219971864" lon="2.0562464317974367"><ele>176.0</ele><time>2026-03-31T17:01:26.999Z</time></trkpt><trkpt lat="48.87844521867181" lon="2.0560664226058885"><ele>176.0</ele><time>2026-03-31T17:01:28.999Z</time></trkpt><trkpt lat="48.87842356133561" lon="2.0559045488668546"><ele>176.0</ele><time>2026-03-31T17:01:31Z</time></trkpt><trkpt lat="48.87842020404863" lon="2.0557482902071618"><ele>176.0</ele><time>2026-03-31T17:01:33Z</time></trkpt><trkpt lat="48.87841349245252" lon="2.055648696573126"><ele>175.66666666666666</ele><time>2026-03-31T17:01:34Z</time></trkpt><trkpt lat="48.87838789831257" lon="2.055463303830045"><ele>175.33333333333331</ele><time>2026-03-31T17:01:36Z</time></trkpt><trkpt lat="48.878388951734955" lon="2.0553606213240863"><ele>175.0</ele><time>2026-03-31T17:01:37Z</time></trkpt><trkpt lat="48.87838303277461" lon="2.055258142536458"><ele>174.66666666666666</ele><time>2026-03-31T17:01:38Z</time></trkpt><trkpt lat="48.87837461726477" lon="2.055159425332705"><ele>174.33333333333334</ele><time>2026-03-31T17:01:39Z</time></trkpt><trkpt lat="48.8783571159438" lon="2.055059306215984"><ele>174.0</ele><time>2026-03-31T17:01:40Z</time></trkpt><trkpt lat="48.878338217405904" lon="2.0549607301551687"><ele>173.5</ele><time>2026-03-31T17:01:41Z</time></trkpt><trkpt lat="48.87832292329945" lon="2.0548564837770904"><ele>173.0</ele><time>2026-03-31T17:01:42Z</time></trkpt><trkpt lat="48.87830655512254" lon="2.054758472906017"><ele>172.5</ele><time>2026-03-31T17:01:43Z</time></trkpt><trkpt lat="48.878289642187625" lon="2.0546561089890565"><ele>172.0</ele><time>2026-03-31T17:01:44Z</time></trkpt><trkpt lat="48.87827339370383" lon="2.054547194382129"><ele>171.5</ele><time>2026-03-31T17:01:45Z</time></trkpt><trkpt lat="48.87824076479355" lon="2.0543847201633594"><ele>171.0</ele><time>2026-03-31T17:01:47Z</time></trkpt><trkpt lat="48.87820774078879" lon="2.05428944219682"><ele>171.0</ele><time>2026-03-31T17:01:48Z</time></trkpt><trkpt lat="48.87817588227322" lon="2.054189700393159"><ele>171.0</ele><time>2026-03-31T17:01:49Z</time></trkpt><trkpt lat="48.87814446102745" lon="2.054069049588079"><ele>171.0</ele><time>2026-03-31T17:01:50Z</time></trkpt><trkpt lat="48.878108342126716" lon="2.0539429889727825"><ele>171.0</ele><time>2026-03-31T17:01:51Z</time></trkpt><trkpt lat="48.87807795280088" lon="2.0538313304196376"><ele>171.0</ele><time>2026-03-31T17:01:52Z</time></trkpt><trkpt lat="48.878042098399725" lon="2.05372303949752"><ele>171.0</ele><time>2026-03-31T17:01:53Z</time></trkpt><trkpt lat="48.87800236934764" lon="2.0536115696107893"><ele>171.0</ele><time>2026-03-31T17:01:54Z</time></trkpt><trkpt lat="48.87796579611879" lon="2.0535073104562134"><ele>171.0</ele><time>2026-03-31T17:01:55Z</time></trkpt><trkpt lat="48.877932028075776" lon="2.0533958457176564"><ele>171.0</ele><time>2026-03-31T17:01:56Z</time></trkpt><trkpt lat="48.8779022046786" lon="2.053288773411123"><ele>171.0</ele><time>2026-03-31T17:01:57Z</time></trkpt><trkpt lat="48.87787268797415" lon="2.0531769605299757"><ele>171.0</ele><time>2026-03-31T17:01:58Z</time></trkpt><trkpt lat="48.87783821371101" lon="2.053076178189"><ele>171.0</ele><time>2026-03-31T17:01:59Z</time></trkpt><trkpt lat="48.8778066166959" lon="2.0529728865281163"><ele>170.7142857142857</ele><time>2026-03-31T17:02:00Z</time></trkpt><trkpt lat="48.87776867938013" lon="2.0528759555542395"><ele>170.42857142857142</ele><time>2026-03-31T17:02:01Z</time></trkpt><trkpt lat="48.87773904804066" lon="2.0527759834411556"><ele>170.14285714285714</ele><time>2026-03-31T17:02:02Z</time></trkpt><trkpt lat="48.8777096508119" lon="2.052676027130797"><ele>169.85714285714283</ele><time>2026-03-31T17:02:03Z</time></trkpt><trkpt lat="48.877675356478626" lon="2.0525835856727364"><ele>169.57142857142856</ele><time>2026-03-31T17:02:04Z</time></trkpt><trkpt lat="48.87764632762902" lon="2.052486336587313"><ele>169.28571428571428</ele><time>2026-03-31T17:02:05Z</time></trkpt><trkpt lat="48.877612219247226" lon="2.052393841375404"><ele>169.0</ele><time>2026-03-31T17:02:06Z</time></trkpt><trkpt lat="48.87758295872642" lon="2.0522953617465642"><ele>169.71428571428572</ele><time>2026-03-31T17:02:07Z</time></trkpt><trkpt lat="48.877554598836156" lon="2.0522017680332563"><ele>170.42857142857142</ele><time>2026-03-31T17:02:08Z</time></trkpt><trkpt lat="48.87752686052386" lon="2.05211439086833"><ele>171.14285714285714</ele><time>2026-03-31T17:02:09Z</time></trkpt><trkpt lat="48.87749290376942" lon="2.052025042309717"><ele>171.85714285714286</ele><time>2026-03-31T17:02:10Z</time></trkpt><trkpt lat="48.87746790576708" lon="2.0519344691330947"><ele>172.57142857142858</ele><time>2026-03-31T17:02:11Z</time></trkpt><trkpt lat="48.87743265881951" lon="2.0518459725788922"><ele>173.28571428571428</ele><time>2026-03-31T17:02:12Z</time></trkpt><trkpt lat="48.877409628503" lon="2.0517430334154367"><ele>174.0</ele><time>2026-03-31T17:02:13Z</time></trkpt><trkpt lat="48.87737797990351" lon="2.0516444937166094"><ele>173.71428571428572</ele><time>2026-03-31T17:02:14Z</time></trkpt><trkpt lat="48.87734846633271" lon="2.051550591666984"><ele>173.42857142857144</ele><time>2026-03-31T17:02:15Z</time></trkpt><trkpt lat="48.87732146650135" lon="2.0514588912327802"><ele>173.14285714285717</ele><time>2026-03-31T17:02:16Z</time></trkpt><trkpt lat="48.877302346007546" lon="2.0513540320703685"><ele>172.85714285714286</ele><time>2026-03-31T17:02:17Z</time></trkpt><trkpt lat="48.87727350269292" lon="2.051255329105933"><ele>172.57142857142858</ele><time>2026-03-31T17:02:18Z</time></trkpt><trkpt lat="48.877244907585116" lon="2.0511622571604646"><ele>172.2857142857143</ele><time>2026-03-31T17:02:19Z</time></trkpt><trkpt lat="48.87721459267157" lon="2.0510774384885067"><ele>172.0</ele><time>2026-03-31T17:02:20Z</time></trkpt><trkpt lat="48.877176265770586" lon="2.0509989421646697"><ele>172.0</ele><time>2026-03-31T17:02:21Z</time></trkpt><trkpt lat="48.87710189061511" lon="2.050847568537676"><ele>172.0</ele><time>2026-03-31T17:02:23Z</time></trkpt><trkpt lat="48.877059602686145" lon="2.05075541560402"><ele>172.0</ele><time>2026-03-31T17:02:23.999Z</time></trkpt><trkpt lat="48.8770111340547" lon="2.0506684248723808"><ele>172.0</ele><time>2026-03-31T17:02:24.999Z</time></trkpt><trkpt lat="48.87695669315109" lon="2.050583853248882"><ele>172.0</ele><time>2026-03-31T17:02:25.999Z</time></trkpt><trkpt lat="48.876906806557436" lon="2.0504860637664004"><ele>172.0</ele><time>2026-03-31T17:02:26.999Z</time></trkpt><trkpt lat="48.876852505986434" lon="2.0503950187818303"><ele>172.0</ele><time>2026-03-31T17:02:27.999Z</time></trkpt><trkpt lat="48.87679656070003" lon="2.050302187633686"><ele>172.0</ele><time>2026-03-31T17:02:28.999Z</time></trkpt><trkpt lat="48.876740867985035" lon="2.050211544709743"><ele>172.0</ele><time>2026-03-31T17:02:29.999Z</time></trkpt><trkpt lat="48.876686316958384" lon="2.0501266191136867"><ele>172.0</ele><time>2026-03-31T17:02:30.999Z</time></trkpt><trkpt lat="48.87663769461074" lon="2.0500434324831405"><ele>172.0</ele><time>2026-03-31T17:02:31.999Z</time></trkpt><trkpt lat="48.87659228314845" lon="2.0499582089307244"><ele>172.0</ele><time>2026-03-31T17:02:32.999Z</time></trkpt><trkpt lat="48.87654629590449" lon="2.049877296161623"><ele>172.42857142857144</ele><time>2026-03-31T17:02:33.999Z</time></trkpt><trkpt lat="48.87649995218481" lon="2.049795888922134"><ele>172.85714285714286</ele><time>2026-03-31T17:02:34.999Z</time></trkpt><trkpt lat="48.87645293554561" lon="2.049716438273371"><ele>173.28571428571428</ele><time>2026-03-31T17:02:35.999Z</time></trkpt><trkpt lat="48.87640182705263" lon="2.049648742812594"><ele>173.71428571428572</ele><time>2026-03-31T17:02:36.999Z</time></trkpt><trkpt lat="48.87635594737784" lon="2.0495784545975386"><ele>174.14285714285714</ele><time>2026-03-31T17:02:37.999Z</time></trkpt><trkpt lat="48.876312663549" lon="2.049504662321945"><ele>174.57142857142858</ele><time>2026-03-31T17:02:38.999Z</time></trkpt><trkpt lat="48.87626855707946" lon="2.049428035414318"><ele>175.0</ele><time>2026-03-31T17:02:39.999Z</time></trkpt><trkpt lat="48.87618370406273" lon="2.049289941925549"><ele>175.0</ele><time>2026-03-31T17:02:41.999Z</time></trkpt><trkpt lat="48.876101141912415" lon="2.0491578987588053"><ele>175.0</ele><time>2026-03-31T17:02:43.999Z</time></trkpt><trkpt lat="48.8760222223333" lon="2.0490180670285554"><ele>175.0</ele><time>2026-03-31T17:02:45.999Z</time></trkpt><trkpt lat="48.875941099988005" lon="2.0488852774942927"><ele>175.0</ele><time>2026-03-31T17:02:47.999Z</time></trkpt><trkpt lat="48.87589614190501" lon="2.048815574759596"><ele>175.0</ele><time>2026-03-31T17:02:48.999Z</time></trkpt><trkpt lat="48.875852158592124" lon="2.048739559981456"><ele>175.42857142857142</ele><time>2026-03-31T17:02:49.999Z</time></trkpt><trkpt lat="48.875808253810476" lon="2.0486608704739737"><ele>175.85714285714286</ele><time>2026-03-31T17:02:50.999Z</time></trkpt><trkpt lat="48.8757626720017" lon="2.0485883803343565"><ele>176.28571428571428</ele><time>2026-03-31T17:02:51.999Z</time></trkpt><trkpt lat="48.87571541992884" lon="2.0485109654086737"><ele>176.71428571428572</ele><time>2026-03-31T17:02:52.999Z</time></trkpt><trkpt lat="48.87566835177215" lon="2.0484328178345477"><ele>177.14285714285714</ele><time>2026-03-31T17:02:53.999Z</time></trkpt><trkpt lat="48.87562231621713" lon="2.0483523683774636"><ele>177.57142857142856</ele><time>2026-03-31T17:02:54.999Z</time></trkpt><trkpt lat="48.875574610438896" lon="2.048271524860605"><ele>178.0</ele><time>2026-03-31T17:02:55.999Z</time></trkpt><trkpt lat="48.87552402375283" lon="2.0481939638703603"><ele>178.0</ele><time>2026-03-31T17:02:56.999Z</time></trkpt><trkpt lat="48.87547538533793" lon="2.0481068568365353"><ele>178.0</ele><time>2026-03-31T17:02:57.999Z</time></trkpt><trkpt lat="48.87542141023055" lon="2.048020487345335"><ele>178.0</ele><time>2026-03-31T17:02:58.999Z</time></trkpt><trkpt lat="48.87536465424192" lon="2.047925982228363"><ele>178.0</ele><time>2026-03-31T17:02:59.999Z</time></trkpt><trkpt lat="48.87530847595616" lon="2.0478387340705737"><ele>178.0</ele><time>2026-03-31T17:03:00.999Z</time></trkpt><trkpt lat="48.875257187892295" lon="2.04776187765246"><ele>178.0</ele><time>2026-03-31T17:03:01.999Z</time></trkpt><trkpt lat="48.87520839821218" lon="2.047682235936591"><ele>178.0</ele><time>2026-03-31T17:03:02.999Z</time></trkpt><trkpt lat="48.875159811636294" lon="2.0475981056492087"><ele>178.0</ele><time>2026-03-31T17:03:03.999Z</time></trkpt><trkpt lat="48.87511326719245" lon="2.0475307432766603"><ele>178.0</ele><time>2026-03-31T17:03:04.999Z</time></trkpt><trkpt lat="48.87507063705354" lon="2.0474546287294637"><ele>178.0</ele><time>2026-03-31T17:03:05.999Z</time></trkpt><trkpt lat="48.87502796124124" lon="2.0473757450166636"><ele>178.0</ele><time>2026-03-31T17:03:06.999Z</time></trkpt><trkpt lat="48.87498401407065" lon="2.047303876477548"><ele>178.0</ele><time>2026-03-31T17:03:07.999Z</time></trkpt><trkpt lat="48.8749001212982" lon="2.0471710275999446"><ele>178.60000000000002</ele><time>2026-03-31T17:03:09.999Z</time></trkpt><trkpt lat="48.87481929485103" lon="2.0470429247213375"><ele>179.20000000000002</ele><time>2026-03-31T17:03:11.999Z</time></trkpt><trkpt lat="48.87474618679352" lon="2.0469222576495674"><ele>179.8</ele><time>2026-03-31T17:03:13.999Z</time></trkpt><trkpt lat="48.8746709095759" lon="2.046805742862165"><ele>180.4</ele><time>2026-03-31T17:03:15.999Z</time></trkpt><trkpt lat="48.87460389461743" lon="2.046686063218125"><ele>181.0</ele><time>2026-03-31T17:03:17.999Z</time></trkpt><trkpt lat="48.87453803165659" lon="2.0465697531181206"><ele>181.0</ele><time>2026-03-31T17:03:19.999Z</time></trkpt><trkpt lat="48.87445640059146" lon="2.046447922134228"><ele>181.0</ele><time>2026-03-31T17:03:21.999Z</time></trkpt><trkpt lat="48.87437431180823" lon="2.046314272428433"><ele>181.0</ele><time>2026-03-31T17:03:23.999Z</time></trkpt><trkpt lat="48.87433220666161" lon="2.0462428584119228"><ele>181.0</ele><time>2026-03-31T17:03:24.999Z</time></trkpt><trkpt lat="48.87428754981645" lon="2.0461675585460584"><ele>181.0</ele><time>2026-03-31T17:03:25.999Z</time></trkpt><trkpt lat="48.874242777106836" lon="2.046096548135329"><ele>181.0</ele><time>2026-03-31T17:03:26.999Z</time></trkpt><trkpt lat="48.87419629598405" lon="2.046025770200965"><ele>181.57142857142856</ele><time>2026-03-31T17:03:27.999Z</time></trkpt><trkpt lat="48.87414906587073" lon="2.045944714166305"><ele>182.14285714285714</ele><time>2026-03-31T17:03:28.999Z</time></trkpt><trkpt lat="48.874103162675965" lon="2.045866672947208"><ele>182.71428571428572</ele><time>2026-03-31T17:03:29.999Z</time></trkpt><trkpt lat="48.874057540353085" lon="2.0457889895179187"><ele>183.28571428571428</ele><time>2026-03-31T17:03:30.999Z</time></trkpt><trkpt lat="48.87401360027683" lon="2.045715106134928"><ele>183.85714285714286</ele><time>2026-03-31T17:03:31.999Z</time></trkpt><trkpt lat="48.87396862643647" lon="2.045645120324323"><ele>184.42857142857142</ele><time>2026-03-31T17:03:32.999Z</time></trkpt><trkpt lat="48.87393453302637" lon="2.0455640151363457"><ele>185.0</ele><time>2026-03-31T17:03:33.999Z</time></trkpt><trkpt lat="48.873888826568496" lon="2.0454965672833256"><ele>185.2</ele><time>2026-03-31T17:03:34.999Z</time></trkpt><trkpt lat="48.873841566546" lon="2.045426952452038"><ele>185.4</ele><time>2026-03-31T17:03:36Z</time></trkpt><trkpt lat="48.873753705643246" lon="2.045287813172826"><ele>185.60000000000002</ele><time>2026-03-31T17:03:38Z</time></trkpt><trkpt lat="48.87366871905923" lon="2.0451503153991353"><ele>185.8</ele><time>2026-03-31T17:03:40Z</time></trkpt><trkpt lat="48.87358833009104" lon="2.044998842581835"><ele>186.0</ele><time>2026-03-31T17:03:42Z</time></trkpt><trkpt lat="48.87350874753174" lon="2.0448675542087584"><ele>185.25</ele><time>2026-03-31T17:03:44Z</time></trkpt><trkpt lat="48.87343848290106" lon="2.044721016494043"><ele>184.5</ele><time>2026-03-31T17:03:46Z</time></trkpt><trkpt lat="48.87336267123293" lon="2.0445775755911906"><ele>183.75</ele><time>2026-03-31T17:03:48Z</time></trkpt><trkpt lat="48.873292855507295" lon="2.044425509987837"><ele>183.0</ele><time>2026-03-31T17:03:50Z</time></trkpt><trkpt lat="48.873224335535625" lon="2.0442697183567677"><ele>183.8</ele><time>2026-03-31T17:03:52Z</time></trkpt><trkpt lat="48.87315190095759" lon="2.044116292878874"><ele>184.60000000000002</ele><time>2026-03-31T17:03:54Z</time></trkpt><trkpt lat="48.87308029685765" lon="2.0439700553292104"><ele>185.39999999999998</ele><time>2026-03-31T17:03:56Z</time></trkpt><trkpt lat="48.873047626398844" lon="2.043884960573795"><ele>186.2</ele><time>2026-03-31T17:03:57Z</time></trkpt><trkpt lat="48.87297882087753" lon="2.0437225146544105"><ele>187.0</ele><time>2026-03-31T17:03:59Z</time></trkpt><trkpt lat="48.872902789894425" lon="2.043558856711586"><ele>187.0</ele><time>2026-03-31T17:04:01Z</time></trkpt><trkpt lat="48.8728672526491" lon="2.043476282772157"><ele>187.0</ele><time>2026-03-31T17:04:02Z</time></trkpt><trkpt lat="48.87283285095765" lon="2.04338854008861"><ele>187.0</ele><time>2026-03-31T17:04:03Z</time></trkpt><trkpt lat="48.872797085091854" lon="2.04330654537837"><ele>187.0</ele><time>2026-03-31T17:04:04Z</time></trkpt><trkpt lat="48.87275683665963" lon="2.043229322368702"><ele>187.0</ele><time>2026-03-31T17:04:05Z</time></trkpt><trkpt lat="48.872685712763456" lon="2.043064687537252"><ele>187.0</ele><time>2026-03-31T17:04:07Z</time></trkpt><trkpt lat="48.872614841280274" lon="2.0429033338494857"><ele>187.39999999999998</ele><time>2026-03-31T17:04:09Z</time></trkpt><trkpt lat="48.87258043913131" lon="2.0428226827856997"><ele>187.79999999999998</ele><time>2026-03-31T17:04:10Z</time></trkpt><trkpt lat="48.8725456131553" lon="2.0427402367143466"><ele>188.2</ele><time>2026-03-31T17:04:11Z</time></trkpt><trkpt lat="48.87248071774249" lon="2.0425760154156367"><ele>188.6</ele><time>2026-03-31T17:04:13Z</time></trkpt><trkpt lat="48.872411019885035" lon="2.042427436461848"><ele>189.0</ele><time>2026-03-31T17:04:15Z</time></trkpt><trkpt lat="48.872346051031954" lon="2.0422776162346956"><ele>189.39999999999998</ele><time>2026-03-31T17:04:17Z</time></trkpt><trkpt lat="48.87228665542224" lon="2.042127561038824"><ele>189.8</ele><time>2026-03-31T17:04:19Z</time></trkpt><trkpt lat="48.872227370738564" lon="2.0419866164536065"><ele>190.2</ele><time>2026-03-31T17:04:21Z</time></trkpt><trkpt lat="48.872159212254225" lon="2.0418287609950108"><ele>190.60000000000002</ele><time>2026-03-31T17:04:23Z</time></trkpt><trkpt lat="48.87212208197829" lon="2.041740849820544"><ele>191.0</ele><time>2026-03-31T17:04:24Z</time></trkpt><trkpt lat="48.872082895687775" lon="2.0416564842750438"><ele>191.33333333333331</ele><time>2026-03-31T17:04:25Z</time></trkpt><trkpt lat="48.872040227423675" lon="2.04157325308992"><ele>191.66666666666666</ele><time>2026-03-31T17:04:26Z</time></trkpt><trkpt lat="48.87199899756202" lon="2.0414749726605947"><ele>192.0</ele><time>2026-03-31T17:04:27Z</time></trkpt><trkpt lat="48.871958673227155" lon="2.04137839256765"><ele>192.33333333333331</ele><time>2026-03-31T17:04:28Z</time></trkpt><trkpt lat="48.87191441296891" lon="2.0412863357148625"><ele>192.66666666666666</ele><time>2026-03-31T17:04:29Z</time></trkpt><trkpt lat="48.871873040106465" lon="2.041187106071434"><ele>193.0</ele><time>2026-03-31T17:04:30Z</time></trkpt><trkpt lat="48.87182810990491" lon="2.041090745108178"><ele>192.99999999999997</ele><time>2026-03-31T17:04:31Z</time></trkpt><trkpt lat="48.8717848866666" lon="2.0409913055288933"><ele>193.0</ele><time>2026-03-31T17:04:31.999Z</time></trkpt><trkpt lat="48.87173472803613" lon="2.040894864333441"><ele>193.0</ele><time>2026-03-31T17:04:32.999Z</time></trkpt><trkpt lat="48.87169025592337" lon="2.0407898415871"><ele>193.0</ele><time>2026-03-31T17:04:33.999Z</time></trkpt><trkpt lat="48.871642050205516" lon="2.0406813241811133"><ele>192.99999999999997</ele><time>2026-03-31T17:04:34.999Z</time></trkpt><trkpt lat="48.871599106972916" lon="2.040566154295434"><ele>193.0</ele><time>2026-03-31T17:04:35.999Z</time></trkpt><trkpt lat="48.87154985933802" lon="2.0404603982127374"><ele>192.83333333333331</ele><time>2026-03-31T17:04:36.999Z</time></trkpt><trkpt lat="48.87150288097636" lon="2.0403574232806396"><ele>192.66666666666666</ele><time>2026-03-31T17:04:37.999Z</time></trkpt><trkpt lat="48.871456662962146" lon="2.040259676525111"><ele>192.5</ele><time>2026-03-31T17:04:38.999Z</time></trkpt><trkpt lat="48.871409362032956" lon="2.0401662418391777"><ele>192.33333333333331</ele><time>2026-03-31T17:04:39.999Z</time></trkpt><trkpt lat="48.87135936032004" lon="2.040082810114517"><ele>192.16666666666666</ele><time>2026-03-31T17:04:40.999Z</time></trkpt><trkpt lat="48.87126496620737" lon="2.0399594773231238"><ele>192.0</ele><time>2026-03-31T17:04:42.999Z</time></trkpt><trkpt lat="48.87116274586879" lon="2.0398673422423115"><ele>191.99999999999997</ele><time>2026-03-31T17:04:44.999Z</time></trkpt><trkpt lat="48.87110588081266" lon="2.039825929195752"><ele>192.0</ele><time>2026-03-31T17:04:45.999Z</time></trkpt><trkpt lat="48.87104680009962" lon="2.0397739734501252"><ele>192.0</ele><time>2026-03-31T17:04:46.999Z</time></trkpt><trkpt lat="48.87098870170671" lon="2.0397213842348614"><ele>192.0</ele><time>2026-03-31T17:04:47.999Z</time></trkpt><trkpt lat="48.87092703952791" lon="2.039670010104138"><ele>192.0</ele><time>2026-03-31T17:04:48.999Z</time></trkpt><trkpt lat="48.87086361681984" lon="2.0396118245976496"><ele>191.99999999999997</ele><time>2026-03-31T17:04:49.999Z</time></trkpt><trkpt lat="48.87080045370369" lon="2.039555434185657"><ele>192.0</ele><time>2026-03-31T17:04:50.999Z</time></trkpt><trkpt lat="48.87073228002193" lon="2.0394980350945318"><ele>191.16666666666666</ele><time>2026-03-31T17:04:51.999Z</time></trkpt><trkpt lat="48.87066492599603" lon="2.039440138421898"><ele>190.33333333333334</ele><time>2026-03-31T17:04:52.999Z</time></trkpt><trkpt lat="48.87059818871324" lon="2.039375762995224"><ele>189.5</ele><time>2026-03-31T17:04:53.999Z</time></trkpt><trkpt lat="48.87052745421659" lon="2.039320523110231"><ele>188.66666666666669</ele><time>2026-03-31T17:04:54.999Z</time></trkpt><trkpt lat="48.87046053495277" lon="2.039261626642377"><ele>187.83333333333334</ele><time>2026-03-31T17:04:55.999Z</time></trkpt><trkpt lat="48.87039053781743" lon="2.0392038396992205"><ele>187.0</ele><time>2026-03-31T17:04:56.999Z</time></trkpt><trkpt lat="48.870320238389866" lon="2.0391500597909036"><ele>187.33333333333334</ele><time>2026-03-31T17:04:57.999Z</time></trkpt><trkpt lat="48.870252677209514" lon="2.0390925617514455"><ele>187.66666666666669</ele><time>2026-03-31T17:04:58.999Z</time></trkpt><trkpt lat="48.87018844986605" lon="2.0390303597827377"><ele>188.0</ele><time>2026-03-31T17:04:59.999Z</time></trkpt><trkpt lat="48.87011609328518" lon="2.038969168045913"><ele>188.33333333333334</ele><time>2026-03-31T17:05:00.999Z</time></trkpt><trkpt lat="48.87003421794929" lon="2.038912599424211"><ele>188.66666666666666</ele><time>2026-03-31T17:05:01.999Z</time></trkpt><trkpt lat="48.869969855521035" lon="2.0388628215851057"><ele>189.0</ele><time>2026-03-31T17:05:02.999Z</time></trkpt><trkpt lat="48.8698969979947" lon="2.038797517834212"><ele>189.0</ele><time>2026-03-31T17:05:03.999Z</time></trkpt><trkpt lat="48.8698269714711" lon="2.0387366881506592"><ele>189.0</ele><time>2026-03-31T17:05:04.999Z</time></trkpt><trkpt lat="48.869753628925594" lon="2.038672704285233"><ele>189.0</ele><time>2026-03-31T17:05:05.999Z</time></trkpt><trkpt lat="48.869687035171744" lon="2.038610502255886"><ele>189.0</ele><time>2026-03-31T17:05:06.999Z</time></trkpt><trkpt lat="48.86960847851411" lon="2.0385501431808586"><ele>189.0</ele><time>2026-03-31T17:05:07.999Z</time></trkpt><trkpt lat="48.86953415093429" lon="2.038484000382421"><ele>189.0</ele><time>2026-03-31T17:05:08.999Z</time></trkpt><trkpt lat="48.86946118033544" lon="2.038423541457052"><ele>189.0</ele><time>2026-03-31T17:05:09.999Z</time></trkpt><trkpt lat="48.86938809181153" lon="2.0383640632406705"><ele>189.0</ele><time>2026-03-31T17:05:10.999Z</time></trkpt><trkpt lat="48.86931653456042" lon="2.038302234395826"><ele>189.0</ele><time>2026-03-31T17:05:11.999Z</time></trkpt><trkpt lat="48.86924762272369" lon="2.0382457143659933"><ele>189.0</ele><time>2026-03-31T17:05:12.999Z</time></trkpt><trkpt lat="48.8691738487485" lon="2.0381911789754033"><ele>189.0</ele><time>2026-03-31T17:05:13.999Z</time></trkpt><trkpt lat="48.86909775565111" lon="2.0381250113430522"><ele>189.0</ele><time>2026-03-31T17:05:14.999Z</time></trkpt><trkpt lat="48.86903639905167" lon="2.0380347297467676"><ele>188.66666666666666</ele><time>2026-03-31T17:05:15.999Z</time></trkpt><trkpt lat="48.86896775220765" lon="2.037969885151201"><ele>188.33333333333334</ele><time>2026-03-31T17:05:16.999Z</time></trkpt><trkpt lat="48.868880355577794" lon="2.0379103468902398"><ele>188.0</ele><time>2026-03-31T17:05:17.999Z</time></trkpt><trkpt lat="48.86881216835408" lon="2.037836143510846"><ele>187.66666666666669</ele><time>2026-03-31T17:05:18.999Z</time></trkpt><trkpt lat="48.868753242966655" lon="2.037759102077084"><ele>187.33333333333334</ele><time>2026-03-31T17:05:19.999Z</time></trkpt><trkpt lat="48.868699740897654" lon="2.037680155402574"><ele>187.0</ele><time>2026-03-31T17:05:20.999Z</time></trkpt><trkpt lat="48.86865445329681" lon="2.0376121816215353"><ele>187.0</ele><time>2026-03-31T17:05:21.999Z</time></trkpt><trkpt lat="48.868565946939746" lon="2.037478419287893"><ele>187.0</ele><time>2026-03-31T17:05:23.999Z</time></trkpt><trkpt lat="48.86848455440709" lon="2.0373482517612627"><ele>187.0</ele><time>2026-03-31T17:05:25.999Z</time></trkpt><trkpt lat="48.86840628131578" lon="2.0372253261480684"><ele>187.0</ele><time>2026-03-31T17:05:27.999Z</time></trkpt><trkpt lat="48.86833383197051" lon="2.037100315758088"><ele>187.0</ele><time>2026-03-31T17:05:29.999Z</time></trkpt><trkpt lat="48.86826332444253" lon="2.037005187504966"><ele>187.0</ele><time>2026-03-31T17:05:31.999Z</time></trkpt><trkpt lat="48.86819486678021" lon="2.0368921869032985"><ele>187.0</ele><time>2026-03-31T17:05:33.999Z</time></trkpt><trkpt lat="48.86812740068744" lon="2.0367991103561214"><ele>187.0</ele><time>2026-03-31T17:05:35.999Z</time></trkpt><trkpt lat="48.8680660921208" lon="2.0367171981111967"><ele>187.0</ele><time>2026-03-31T17:05:37.999Z</time></trkpt><trkpt lat="48.86800129748628" lon="2.036613007811588"><ele>187.2</ele><time>2026-03-31T17:05:39.999Z</time></trkpt><trkpt lat="48.86794537598333" lon="2.0364937829028706"><ele>187.39999999999998</ele><time>2026-03-31T17:05:42Z</time></trkpt><trkpt lat="48.867898811464535" lon="2.0363394324997035"><ele>187.60000000000002</ele><time>2026-03-31T17:05:44Z</time></trkpt><trkpt lat="48.86783150051473" lon="2.0362257270533544"><ele>187.8</ele><time>2026-03-31T17:05:46Z</time></trkpt><trkpt lat="48.867731202315284" lon="2.036270965003214"><ele>188.0</ele><time>2026-03-31T17:05:48Z</time></trkpt><trkpt lat="48.867688081416226" lon="2.036447701086619"><ele>188.0</ele><time>2026-03-31T17:05:50Z</time></trkpt><trkpt lat="48.867633597392036" lon="2.0366109323202286"><ele>188.0</ele><time>2026-03-31T17:05:52Z</time></trkpt><trkpt lat="48.86759598232302" lon="2.036688555261942"><ele>188.0</ele><time>2026-03-31T17:05:53Z</time></trkpt><trkpt lat="48.86755217499546" lon="2.0367616608458774"><ele>188.0</ele><time>2026-03-31T17:05:54Z</time></trkpt><trkpt lat="48.867506307654395" lon="2.0368289378490125"><ele>188.0</ele><time>2026-03-31T17:05:55Z</time></trkpt><trkpt lat="48.86746517003691" lon="2.036903707776785"><ele>188.0</ele><time>2026-03-31T17:05:56Z</time></trkpt><trkpt lat="48.86742337194279" lon="2.0369804341517375"><ele>188.0</ele><time>2026-03-31T17:05:57Z</time></trkpt><trkpt lat="48.86737905482188" lon="2.037059265323144"><ele>187.5</ele><time>2026-03-31T17:05:58Z</time></trkpt><trkpt lat="48.86732998039667" lon="2.037144009900284"><ele>187.0</ele><time>2026-03-31T17:05:59Z</time></trkpt><trkpt lat="48.86728172235034" lon="2.037232717682639"><ele>186.5</ele><time>2026-03-31T17:06:00Z</time></trkpt><trkpt lat="48.8672395654406" lon="2.0373348216850338"><ele>186.0</ele><time>2026-03-31T17:06:01Z</time></trkpt><trkpt lat="48.86719214051819" lon="2.037437365338683"><ele>185.5</ele><time>2026-03-31T17:06:02Z</time></trkpt><trkpt lat="48.86714837610419" lon="2.0375363864504497"><ele>185.0</ele><time>2026-03-31T17:06:03Z</time></trkpt><trkpt lat="48.86709683546244" lon="2.0376407380314943"><ele>185.0</ele><time>2026-03-31T17:06:04Z</time></trkpt><trkpt lat="48.86704812153345" lon="2.0377284277782537"><ele>185.0</ele><time>2026-03-31T17:06:05Z</time></trkpt><trkpt lat="48.867001222554464" lon="2.0378287795437537"><ele>185.0</ele><time>2026-03-31T17:06:06Z</time></trkpt><trkpt lat="48.866958404075746" lon="2.037938031079421"><ele>185.0</ele><time>2026-03-31T17:06:07Z</time></trkpt><trkpt lat="48.8669069048869" lon="2.0380369617791354"><ele>185.0</ele><time>2026-03-31T17:06:08Z</time></trkpt><trkpt lat="48.866856491846576" lon="2.038132321824941"><ele>185.0</ele><time>2026-03-31T17:06:09Z</time></trkpt><trkpt lat="48.86680635349798" lon="2.0382230537356008"><ele>185.0</ele><time>2026-03-31T17:06:10Z</time></trkpt><trkpt lat="48.86675048061742" lon="2.038310326823798"><ele>185.0</ele><time>2026-03-31T17:06:11Z</time></trkpt><trkpt lat="48.86669555584897" lon="2.038409274096469"><ele>185.0</ele><time>2026-03-31T17:06:12Z</time></trkpt><trkpt lat="48.866644096501375" lon="2.038517447647913"><ele>185.0</ele><time>2026-03-31T17:06:13Z</time></trkpt><trkpt lat="48.86658386750258" lon="2.0386151754564823"><ele>185.0</ele><time>2026-03-31T17:06:14Z</time></trkpt><trkpt lat="48.8665296582531" lon="2.038726135416734"><ele>185.0</ele><time>2026-03-31T17:06:15Z</time></trkpt><trkpt lat="48.866472019360366" lon="2.0388345961625833"><ele>185.0</ele><time>2026-03-31T17:06:16Z</time></trkpt><trkpt lat="48.86641588161169" lon="2.0389487432974276"><ele>185.0</ele><time>2026-03-31T17:06:17Z</time></trkpt><trkpt lat="48.866347909454745" lon="2.0390614085133407"><ele>185.0</ele><time>2026-03-31T17:06:18Z</time></trkpt><trkpt lat="48.86629186816036" lon="2.039178455599586"><ele>185.0</ele><time>2026-03-31T17:06:19Z</time></trkpt><trkpt lat="48.86622683313018" lon="2.0392993106589774"><ele>185.0</ele><time>2026-03-31T17:06:20Z</time></trkpt><trkpt lat="48.86617157442252" lon="2.039418967450199"><ele>185.2</ele><time>2026-03-31T17:06:21Z</time></trkpt><trkpt lat="48.86610766493017" lon="2.0395386802034663"><ele>185.4</ele><time>2026-03-31T17:06:22Z</time></trkpt><trkpt lat="48.866045286583116" lon="2.039637752417214"><ele>185.60000000000002</ele><time>2026-03-31T17:06:23Z</time></trkpt><trkpt lat="48.86597924303013" lon="2.039749158920403"><ele>185.8</ele><time>2026-03-31T17:06:24Z</time></trkpt><trkpt lat="48.865912489667174" lon="2.039848985924172"><ele>186.0</ele><time>2026-03-31T17:06:25Z</time></trkpt><trkpt lat="48.865857189845954" lon="2.0399521970129117"><ele>186.0</ele><time>2026-03-31T17:06:26Z</time></trkpt><trkpt lat="48.865800723076745" lon="2.04005445048689"><ele>186.0</ele><time>2026-03-31T17:06:27Z</time></trkpt><trkpt lat="48.86575355861035" lon="2.0401515455131602"><ele>186.0</ele><time>2026-03-31T17:06:28Z</time></trkpt><trkpt lat="48.86571064737735" lon="2.040245125859213"><ele>186.0</ele><time>2026-03-31T17:06:29Z</time></trkpt><trkpt lat="48.86566247484558" lon="2.040335644772939"><ele>186.0</ele><time>2026-03-31T17:06:30Z</time></trkpt><trkpt lat="48.86562300382697" lon="2.0404308225884247"><ele>186.0</ele><time>2026-03-31T17:06:31Z</time></trkpt><trkpt lat="48.86556788979483" lon="2.04051426019232"><ele>186.00000000000003</ele><time>2026-03-31T17:06:32Z</time></trkpt><trkpt lat="48.8655514451364" lon="2.04062628413814"><ele>186.0</ele><time>2026-03-31T17:06:33Z</time></trkpt><trkpt lat="48.86553248804098" lon="2.040725063475019"><ele>186.0</ele><time>2026-03-31T17:06:34Z</time></trkpt><trkpt lat="48.86550447322284" lon="2.040837349429396"><ele>186.0</ele><time>2026-03-31T17:06:34.999Z</time></trkpt><trkpt lat="48.865486709030634" lon="2.0409416577540993"><ele>186.0</ele><time>2026-03-31T17:06:35.999Z</time></trkpt><trkpt lat="48.86547127104458" lon="2.041051193082113"><ele>186.00000000000003</ele><time>2026-03-31T17:06:36.999Z</time></trkpt><trkpt lat="48.86546344853375" lon="2.0411554769750535"><ele>186.0</ele><time>2026-03-31T17:06:37.999Z</time></trkpt><trkpt lat="48.865455329482536" lon="2.0412597190195005"><ele>185.85714285714286</ele><time>2026-03-31T17:06:38.999Z</time></trkpt><trkpt lat="48.86544056580329" lon="2.0413654387813844"><ele>185.71428571428572</ele><time>2026-03-31T17:06:39.999Z</time></trkpt><trkpt lat="48.865425116012105" lon="2.0414765466786586"><ele>185.57142857142856</ele><time>2026-03-31T17:06:40.999Z</time></trkpt><trkpt lat="48.86541763465143" lon="2.0415875933824"><ele>185.42857142857144</ele><time>2026-03-31T17:06:41.999Z</time></trkpt><trkpt lat="48.8653989762882" lon="2.041697597145439"><ele>185.28571428571428</ele><time>2026-03-31T17:06:42.999Z</time></trkpt><trkpt lat="48.86538715705442" lon="2.0418067542749694"><ele>185.14285714285714</ele><time>2026-03-31T17:06:43.999Z</time></trkpt><trkpt lat="48.86538893839906" lon="2.041920793812381"><ele>185.0</ele><time>2026-03-31T17:06:44.999Z</time></trkpt><trkpt lat="48.86536648171993" lon="2.0420290860981587"><ele>184.83333333333331</ele><time>2026-03-31T17:06:45.999Z</time></trkpt><trkpt lat="48.86534361314127" lon="2.042133799158434"><ele>184.66666666666666</ele><time>2026-03-31T17:06:46.999Z</time></trkpt><trkpt lat="48.86532604141157" lon="2.042250649663221"><ele>184.5</ele><time>2026-03-31T17:06:47.999Z</time></trkpt><trkpt lat="48.86531067728637" lon="2.042367304721443"><ele>184.33333333333334</ele><time>2026-03-31T17:06:48.999Z</time></trkpt><trkpt lat="48.8652855632176" lon="2.042482448893005"><ele>184.16666666666669</ele><time>2026-03-31T17:06:49.999Z</time></trkpt><trkpt lat="48.86527469520309" lon="2.0425908510542286"><ele>184.0</ele><time>2026-03-31T17:06:50.999Z</time></trkpt><trkpt lat="48.86529255506892" lon="2.0427026458412243"><ele>184.0</ele><time>2026-03-31T17:06:51.999Z</time></trkpt><trkpt lat="48.865264874593485" lon="2.04282464562272"><ele>184.0</ele><time>2026-03-31T17:06:52.999Z</time></trkpt><trkpt lat="48.865264797531076" lon="2.0429531472480393"><ele>184.0</ele><time>2026-03-31T17:06:53.999Z</time></trkpt><trkpt lat="48.86525200857298" lon="2.0430699279839932"><ele>184.0</ele><time>2026-03-31T17:06:54.999Z</time></trkpt><trkpt lat="48.865244932622296" lon="2.043180809445988"><ele>184.0</ele><time>2026-03-31T17:06:55.999Z</time></trkpt><trkpt lat="48.865246699717154" lon="2.043291445677099"><ele>184.0</ele><time>2026-03-31T17:06:56.999Z</time></trkpt><trkpt lat="48.865260810826015" lon="2.04341390276546"><ele>183.0</ele><time>2026-03-31T17:06:57.999Z</time></trkpt><trkpt lat="48.86525404725337" lon="2.0435395744471236"><ele>182.0</ele><time>2026-03-31T17:06:58.999Z</time></trkpt><trkpt lat="48.865272996850756" lon="2.043659478657177"><ele>181.0</ele><time>2026-03-31T17:06:59.999Z</time></trkpt><trkpt lat="48.86530781531205" lon="2.043777003723041"><ele>180.0</ele><time>2026-03-31T17:07:00.999Z</time></trkpt><trkpt lat="48.86534615433181" lon="2.043898260328461"><ele>179.0</ele><time>2026-03-31T17:07:01.999Z</time></trkpt><trkpt lat="48.86538947119955" lon="2.0440252576732183"><ele>178.0</ele><time>2026-03-31T17:07:02.999Z</time></trkpt><trkpt lat="48.86543087539151" lon="2.0441579713068143"><ele>177.2</ele><time>2026-03-31T17:07:03.999Z</time></trkpt><trkpt lat="48.865466746753846" lon="2.044301638923474"><ele>176.4</ele><time>2026-03-31T17:07:04.999Z</time></trkpt><trkpt lat="48.865503750774025" lon="2.0444423489680483"><ele>175.6</ele><time>2026-03-31T17:07:05.999Z</time></trkpt><trkpt lat="48.865546358552685" lon="2.044592860717586"><ele>174.79999999999998</ele><time>2026-03-31T17:07:06.999Z</time></trkpt><trkpt lat="48.86558264049863" lon="2.0447398672176123"><ele>174.0</ele><time>2026-03-31T17:07:07.999Z</time></trkpt><trkpt lat="48.86562353864139" lon="2.0448931892821043"><ele>173.79999999999998</ele><time>2026-03-31T17:07:08.999Z</time></trkpt><trkpt lat="48.865663117204676" lon="2.045047824667737"><ele>173.6</ele><time>2026-03-31T17:07:09.999Z</time></trkpt><trkpt lat="48.865708019173766" lon="2.0452035540935514"><ele>173.4</ele><time>2026-03-31T17:07:10.999Z</time></trkpt><trkpt lat="48.86574535297337" lon="2.0453650194726305"><ele>173.2</ele><time>2026-03-31T17:07:11.999Z</time></trkpt><trkpt lat="48.86578781005061" lon="2.045517958815961"><ele>173.0</ele><time>2026-03-31T17:07:12.999Z</time></trkpt><trkpt lat="48.865828179676" lon="2.045677674857232"><ele>172.75</ele><time>2026-03-31T17:07:13.999Z</time></trkpt><trkpt lat="48.86586856180309" lon="2.045840154527528"><ele>172.5</ele><time>2026-03-31T17:07:14.999Z</time></trkpt><trkpt lat="48.86591248491054" lon="2.0460018048424455"><ele>172.25</ele><time>2026-03-31T17:07:15.999Z</time></trkpt><trkpt lat="48.86595465224178" lon="2.046163068061626"><ele>172.0</ele><time>2026-03-31T17:07:16.999Z</time></trkpt><trkpt lat="48.865983520237876" lon="2.0463267124581823"><ele>170.25</ele><time>2026-03-31T17:07:17.999Z</time></trkpt><trkpt lat="48.8660376697851" lon="2.0464827340081135"><ele>168.5</ele><time>2026-03-31T17:07:18.999Z</time></trkpt><trkpt lat="48.866066793806546" lon="2.0466582937840143"><ele>166.75</ele><time>2026-03-31T17:07:19.999Z</time></trkpt><trkpt lat="48.86611057256445" lon="2.046831204823557"><ele>165.0</ele><time>2026-03-31T17:07:20.999Z</time></trkpt><trkpt lat="48.866154025255256" lon="2.047002310505604"><ele>163.75</ele><time>2026-03-31T17:07:21.999Z</time></trkpt><trkpt lat="48.86619934548619" lon="2.047180770066862"><ele>162.5</ele><time>2026-03-31T17:07:22.999Z</time></trkpt><trkpt lat="48.866244361803396" lon="2.047357601087236"><ele>161.25</ele><time>2026-03-31T17:07:23.999Z</time></trkpt><trkpt lat="48.866290002684" lon="2.047535494607838"><ele>160.0</ele><time>2026-03-31T17:07:24.999Z</time></trkpt><trkpt lat="48.866350064679075" lon="2.047700155003488"><ele>159.0</ele><time>2026-03-31T17:07:25.999Z</time></trkpt><trkpt lat="48.866391278540846" lon="2.047877439874489"><ele>158.0</ele><time>2026-03-31T17:07:26.999Z</time></trkpt><trkpt lat="48.86642956147488" lon="2.0480359969464446"><ele>157.0</ele><time>2026-03-31T17:07:27.999Z</time></trkpt><trkpt lat="48.86647284302795" lon="2.0481855430102547"><ele>156.0</ele><time>2026-03-31T17:07:28.999Z</time></trkpt><trkpt lat="48.86650446674399" lon="2.048320552924479"><ele>155.0</ele><time>2026-03-31T17:07:29.999Z</time></trkpt><trkpt lat="48.866535416183616" lon="2.0484462969769877"><ele>154.33333333333331</ele><time>2026-03-31T17:07:30.999Z</time></trkpt><trkpt lat="48.86656539550195" lon="2.048567723424764"><ele>153.66666666666666</ele><time>2026-03-31T17:07:31.999Z</time></trkpt><trkpt lat="48.86659613753964" lon="2.0486742676081438"><ele>153.0</ele><time>2026-03-31T17:07:32.999Z</time></trkpt><trkpt lat="48.866625216141664" lon="2.048787922575951"><ele>152.33333333333334</ele><time>2026-03-31T17:07:33.999Z</time></trkpt><trkpt lat="48.8666568368002" lon="2.0489083617957418"><ele>151.66666666666669</ele><time>2026-03-31T17:07:34.999Z</time></trkpt><trkpt lat="48.866693277353" lon="2.0490326024224315"><ele>151.0</ele><time>2026-03-31T17:07:35.999Z</time></trkpt><trkpt lat="48.86672427880839" lon="2.0491594873468504"><ele>150.33333333333334</ele><time>2026-03-31T17:07:36.999Z</time></trkpt><trkpt lat="48.866760970181" lon="2.049289318457763"><ele>149.66666666666669</ele><time>2026-03-31T17:07:37.999Z</time></trkpt><trkpt lat="48.86679468097855" lon="2.049421835991674"><ele>149.0</ele><time>2026-03-31T17:07:38.999Z</time></trkpt><trkpt lat="48.86682324863266" lon="2.0495524277445565"><ele>148.33333333333334</ele><time>2026-03-31T17:07:39.999Z</time></trkpt><trkpt lat="48.86684337773447" lon="2.0496794228334823"><ele>147.66666666666666</ele><time>2026-03-31T17:07:40.999Z</time></trkpt><trkpt lat="48.86684950493749" lon="2.049803968326502"><ele>147.0</ele><time>2026-03-31T17:07:41.999Z</time></trkpt><trkpt lat="48.86683177301946" lon="2.049920417334681"><ele>146.83333333333334</ele><time>2026-03-31T17:07:42.999Z</time></trkpt><trkpt lat="48.86679235478219" lon="2.05002810596309"><ele>146.66666666666666</ele><time>2026-03-31T17:07:43.999Z</time></trkpt><trkpt lat="48.86673876789167" lon="2.050120701825463"><ele>146.5</ele><time>2026-03-31T17:07:44.999Z</time></trkpt><trkpt lat="48.866694085888206" lon="2.050217654599271"><ele>146.33333333333331</ele><time>2026-03-31T17:07:45.999Z</time></trkpt><trkpt lat="48.86667561793349" lon="2.0503252119296307"><ele>146.16666666666666</ele><time>2026-03-31T17:07:46.999Z</time></trkpt><trkpt lat="48.86667484793019" lon="2.050434683233536"><ele>146.0</ele><time>2026-03-31T17:07:48Z</time></trkpt><trkpt lat="48.86668079672534" lon="2.0505464137998892"><ele>146.0</ele><time>2026-03-31T17:07:49Z</time></trkpt><trkpt lat="48.86668479972243" lon="2.0506580171937157"><ele>146.0</ele><time>2026-03-31T17:07:50Z</time></trkpt><trkpt lat="48.86668517375257" lon="2.050770773413267"><ele>146.0</ele><time>2026-03-31T17:07:51Z</time></trkpt><trkpt lat="48.86668176324909" lon="2.05088174418642"><ele>146.0</ele><time>2026-03-31T17:07:52Z</time></trkpt><trkpt lat="48.86670300843737" lon="2.050989531707241"><ele>146.0</ele><time>2026-03-31T17:07:53Z</time></trkpt><trkpt lat="48.86671262002018" lon="2.05114214629643"><ele>146.0</ele><time>2026-03-31T17:07:55Z</time></trkpt><trkpt lat="48.866756472034304" lon="2.051251370297586"><ele>143.0</ele><time>2026-03-31T17:07:57Z</time></trkpt><trkpt lat="48.8668611592227" lon="2.051210660222063"><ele>140.0</ele><time>2026-03-31T17:07:58Z</time></trkpt><trkpt lat="48.866975117161154" lon="2.0511430676427294"><ele>137.0</ele><time>2026-03-31T17:08:00Z</time></trkpt><trkpt lat="48.86707943965986" lon="2.0510704615587083"><ele>134.0</ele><time>2026-03-31T17:08:02Z</time></trkpt><trkpt lat="48.86718142382347" lon="2.051018470106598"><ele>134.0</ele><time>2026-03-31T17:08:04Z</time></trkpt><trkpt lat="48.86729021662361" lon="2.05095701601139"><ele>134.0</ele><time>2026-03-31T17:08:06Z</time></trkpt><trkpt lat="48.86735292166464" lon="2.0509254311425043"><ele>134.0</ele><time>2026-03-31T17:08:07Z</time></trkpt><trkpt lat="48.867420132991775" lon="2.050932591108394"><ele>134.0</ele><time>2026-03-31T17:08:08Z</time></trkpt><trkpt lat="48.86753931027395" lon="2.050888194164325"><ele>134.0</ele><time>2026-03-31T17:08:10Z</time></trkpt><trkpt lat="48.86763729923952" lon="2.0509010658643336"><ele>133.5</ele><time>2026-03-31T17:08:12Z</time></trkpt><trkpt lat="48.8677149193486" lon="2.050935857654424"><ele>133.0</ele><time>2026-03-31T17:08:14Z</time></trkpt><trkpt lat="48.86775526131889" lon="2.051038184807876"><ele>132.5</ele><time>2026-03-31T17:08:16Z</time></trkpt><trkpt lat="48.86775777329997" lon="2.0511773135163422"><ele>132.0</ele><time>2026-03-31T17:08:18Z</time></trkpt><trkpt lat="48.86776253006566" lon="2.051295181488892"><ele>131.5</ele><time>2026-03-31T17:08:20Z</time></trkpt><trkpt lat="48.86777176566679" lon="2.0514195864489815"><ele>131.0</ele><time>2026-03-31T17:08:22Z</time></trkpt><trkpt lat="48.86775760301545" lon="2.0515687885126037"><ele>130.16666666666666</ele><time>2026-03-31T17:08:24Z</time></trkpt><trkpt lat="48.86778637218604" lon="2.051732243314078"><ele>129.33333333333331</ele><time>2026-03-31T17:08:26Z</time></trkpt><trkpt lat="48.867790488670586" lon="2.0519106220635663"><ele>128.5</ele><time>2026-03-31T17:08:28Z</time></trkpt><trkpt lat="48.86779845233939" lon="2.0520059166808897"><ele>127.66666666666666</ele><time>2026-03-31T17:08:29Z</time></trkpt><trkpt lat="48.86780775016669" lon="2.052100969435805"><ele>126.83333333333333</ele><time>2026-03-31T17:08:30Z</time></trkpt><trkpt lat="48.867818110867766" lon="2.0521965442670704"><ele>126.0</ele><time>2026-03-31T17:08:31Z</time></trkpt><trkpt lat="48.867842439217696" lon="2.052338797353117"><ele>126.0</ele><time>2026-03-31T17:08:33Z</time></trkpt><trkpt lat="48.867862064151375" lon="2.052498966781648"><ele>126.0</ele><time>2026-03-31T17:08:35Z</time></trkpt><trkpt lat="48.86790892116756" lon="2.0525675885082304"><ele>126.0</ele><time>2026-03-31T17:08:36Z</time></trkpt><trkpt lat="48.86797717818931" lon="2.0526008834169676"><ele>126.0</ele><time>2026-03-31T17:08:37Z</time></trkpt><trkpt lat="48.86808324385312" lon="2.0526889609368806"><ele>126.0</ele><time>2026-03-31T17:08:39Z</time></trkpt><trkpt lat="48.868187188676686" lon="2.052759509855437"><ele>126.0</ele><time>2026-03-31T17:08:41Z</time></trkpt><trkpt lat="48.86831470716643" lon="2.052766828285041"><ele>126.0</ele><time>2026-03-31T17:08:43Z</time></trkpt><trkpt lat="48.8683846794843" lon="2.0527614249086654"><ele>126.0</ele><time>2026-03-31T17:08:43.999Z</time></trkpt><trkpt lat="48.868452970497444" lon="2.0527540611447925"><ele>126.0</ele><time>2026-03-31T17:08:44.999Z</time></trkpt><trkpt lat="48.868518886250015" lon="2.0527468605480346"><ele>126.0</ele><time>2026-03-31T17:08:45.999Z</time></trkpt><trkpt lat="48.86857928497517" lon="2.0527161688740625"><ele>126.0</ele><time>2026-03-31T17:08:46.999Z</time></trkpt><trkpt lat="48.86864528184655" lon="2.0527192907482177"><ele>125.16666666666667</ele><time>2026-03-31T17:08:47.999Z</time></trkpt><trkpt lat="48.86870992038951" lon="2.052721350470294"><ele>124.33333333333334</ele><time>2026-03-31T17:08:48.999Z</time></trkpt><trkpt lat="48.86877740037748" lon="2.052718537656113"><ele>123.5</ele><time>2026-03-31T17:08:49.999Z</time></trkpt><trkpt lat="48.86888831779392" lon="2.052726680987256"><ele>122.66666666666667</ele><time>2026-03-31T17:08:51.999Z</time></trkpt><trkpt lat="48.86894319618573" lon="2.0527884260205984"><ele>121.83333333333334</ele><time>2026-03-31T17:08:52.999Z</time></trkpt><trkpt lat="48.869043420083294" lon="2.052905331900759"><ele>121.0</ele><time>2026-03-31T17:08:54.999Z</time></trkpt><trkpt lat="48.869098079886385" lon="2.052962131813342"><ele>121.00000000000001</ele><time>2026-03-31T17:08:55.999Z</time></trkpt><trkpt lat="48.86912295549824" lon="2.0530689010693934"><ele>121.0</ele><time>2026-03-31T17:08:56.999Z</time></trkpt><trkpt lat="48.869166169007826" lon="2.0531575233451056"><ele>121.0</ele><time>2026-03-31T17:08:57.999Z</time></trkpt><trkpt lat="48.869165346931446" lon="2.05328221230884"><ele>121.0</ele><time>2026-03-31T17:08:58.999Z</time></trkpt><trkpt lat="48.86918471854255" lon="2.0534084263608237"><ele>121.00000000000001</ele><time>2026-03-31T17:08:59.999Z</time></trkpt><trkpt lat="48.869203299778604" lon="2.0535330210831844"><ele>121.0</ele><time>2026-03-31T17:09:00.999Z</time></trkpt><trkpt lat="48.869224346195224" lon="2.053661694839464"><ele>120.6</ele><time>2026-03-31T17:09:01.999Z</time></trkpt><trkpt lat="48.869245852651254" lon="2.0537918327708238"><ele>120.19999999999999</ele><time>2026-03-31T17:09:02.999Z</time></trkpt><trkpt lat="48.86927084178261" lon="2.0539272453575452"><ele>119.80000000000001</ele><time>2026-03-31T17:09:03.999Z</time></trkpt><trkpt lat="48.8693009375759" lon="2.054061563418572"><ele>119.4</ele><time>2026-03-31T17:09:04.999Z</time></trkpt><trkpt lat="48.869324737400206" lon="2.0542077449464817"><ele>119.0</ele><time>2026-03-31T17:09:05.999Z</time></trkpt><trkpt lat="48.8693464805132" lon="2.0543578070383712"><ele>118.80000000000001</ele><time>2026-03-31T17:09:06.999Z</time></trkpt><trkpt lat="48.86936333767922" lon="2.0545086264896453"><ele>118.60000000000001</ele><time>2026-03-31T17:09:07.999Z</time></trkpt><trkpt lat="48.86937782981828" lon="2.0546621706752193"><ele>118.4</ele><time>2026-03-31T17:09:08.999Z</time></trkpt><trkpt lat="48.86939359717847" lon="2.054823336653847"><ele>118.2</ele><time>2026-03-31T17:09:09.999Z</time></trkpt><trkpt lat="48.8694084328909" lon="2.0549781619145304"><ele>118.0</ele><time>2026-03-31T17:09:10.999Z</time></trkpt><trkpt lat="48.869427720736034" lon="2.0551377145325653"><ele>117.4</ele><time>2026-03-31T17:09:11.999Z</time></trkpt><trkpt lat="48.86944472548738" lon="2.0552951197432314"><ele>116.80000000000001</ele><time>2026-03-31T17:09:12.999Z</time></trkpt><trkpt lat="48.86945840664615" lon="2.0554562474479328"><ele>116.2</ele><time>2026-03-31T17:09:13.999Z</time></trkpt><trkpt lat="48.86947405985653" lon="2.0556179389812193"><ele>115.6</ele><time>2026-03-31T17:09:14.999Z</time></trkpt><trkpt lat="48.86949265820031" lon="2.0557719848757716"><ele>115.0</ele><time>2026-03-31T17:09:15.999Z</time></trkpt><trkpt lat="48.869508718647175" lon="2.0559262389331616"><ele>115.00000000000001</ele><time>2026-03-31T17:09:16.999Z</time></trkpt><trkpt lat="48.86952452030367" lon="2.056075117401568"><ele>115.0</ele><time>2026-03-31T17:09:17.999Z</time></trkpt><trkpt lat="48.8695396585313" lon="2.0562223932439663"><ele>115.0</ele><time>2026-03-31T17:09:18.999Z</time></trkpt><trkpt lat="48.86955717058404" lon="2.056364339212233"><ele>115.0</ele><time>2026-03-31T17:09:19.999Z</time></trkpt><trkpt lat="48.869573001727396" lon="2.0564854265748194"><ele>115.00000000000001</ele><time>2026-03-31T17:09:20.999Z</time></trkpt><trkpt lat="48.86958172351044" lon="2.056594821702385"><ele>115.0</ele><time>2026-03-31T17:09:21.999Z</time></trkpt><trkpt lat="48.86959457692589" lon="2.0567017582809766"><ele>114.50000000000001</ele><time>2026-03-31T17:09:22.999Z</time></trkpt><trkpt lat="48.86961111569807" lon="2.0568173942321097"><ele>114.0</ele><time>2026-03-31T17:09:23.999Z</time></trkpt><trkpt lat="48.86962103150745" lon="2.0569402303606847"><ele>113.5</ele><time>2026-03-31T17:09:24.999Z</time></trkpt><trkpt lat="48.869635749892645" lon="2.0570642480619172"><ele>113.0</ele><time>2026-03-31T17:09:25.999Z</time></trkpt><trkpt lat="48.86965157077168" lon="2.0571917388263126"><ele>112.50000000000001</ele><time>2026-03-31T17:09:26.999Z</time></trkpt><trkpt lat="48.869665108579" lon="2.0573158353373437"><ele>112.0</ele><time>2026-03-31T17:09:27.999Z</time></trkpt><trkpt lat="48.869680227468116" lon="2.0574414501615523"><ele>111.50000000000001</ele><time>2026-03-31T17:09:28.999Z</time></trkpt><trkpt lat="48.869694285701534" lon="2.057568995838528"><ele>111.0</ele><time>2026-03-31T17:09:29.999Z</time></trkpt><trkpt lat="48.869705215295376" lon="2.057696696818798"><ele>110.5</ele><time>2026-03-31T17:09:30.999Z</time></trkpt><trkpt lat="48.869713706693936" lon="2.0578236243228125"><ele>110.0</ele><time>2026-03-31T17:09:31.999Z</time></trkpt><trkpt lat="48.86972119251844" lon="2.0579335705802193"><ele>109.50000000000001</ele><time>2026-03-31T17:09:32.999Z</time></trkpt><trkpt lat="48.869735646019315" lon="2.058083718982278"><ele>109.0</ele><time>2026-03-31T17:09:34.999Z</time></trkpt><trkpt lat="48.86979526415999" lon="2.0581525157897373"><ele>109.00000000000001</ele><time>2026-03-31T17:09:36.999Z</time></trkpt><trkpt lat="48.869868524606375" lon="2.058195715465756"><ele>109.0</ele><time>2026-03-31T17:09:38.999Z</time></trkpt><trkpt lat="48.86991661436197" lon="2.0582792309933837"><ele>109.0</ele><time>2026-03-31T17:09:40.999Z</time></trkpt><trkpt lat="48.869959891459175" lon="2.0583865961302146"><ele>109.0</ele><time>2026-03-31T17:09:42.999Z</time></trkpt><trkpt lat="48.87001394135486" lon="2.05848623870936"><ele>109.00000000000001</ele><time>2026-03-31T17:09:44.999Z</time></trkpt><trkpt lat="48.87006638234658" lon="2.0585959921723163"><ele>109.0</ele><time>2026-03-31T17:09:46.999Z</time></trkpt><trkpt lat="48.8701178059109" lon="2.0586880669985317"><ele>110.14285714285714</ele><time>2026-03-31T17:09:48.999Z</time></trkpt><trkpt lat="48.870161983435445" lon="2.058780966248004"><ele>111.28571428571429</ele><time>2026-03-31T17:09:50.999Z</time></trkpt><trkpt lat="48.87020785775831" lon="2.0588697263780915"><ele>112.42857142857143</ele><time>2026-03-31T17:09:52.999Z</time></trkpt><trkpt lat="48.870243164849846" lon="2.0589608994091466"><ele>113.57142857142858</ele><time>2026-03-31T17:09:55Z</time></trkpt><trkpt lat="48.87028059680608" lon="2.0590490178357923"><ele>114.71428571428572</ele><time>2026-03-31T17:09:57Z</time></trkpt><trkpt lat="48.87031219987288" lon="2.0591782129918514"><ele>115.85714285714286</ele><time>2026-03-31T17:10:00Z</time></trkpt><trkpt lat="48.87032193645165" lon="2.0592783041595077"><ele>117.0</ele><time>2026-03-31T17:10:02Z</time></trkpt><trkpt lat="48.87033186768288" lon="2.059403484683517"><ele>117.0</ele><time>2026-03-31T17:10:04Z</time></trkpt><trkpt lat="48.870321318320464" lon="2.0595371698882197"><ele>116.99999999999999</ele><time>2026-03-31T17:10:06Z</time></trkpt><trkpt lat="48.87030752089521" lon="2.059678235372117"><ele>116.99999999999999</ele><time>2026-03-31T17:10:09Z</time></trkpt><trkpt lat="48.87027404207758" lon="2.0598838761376457"><ele>117.0</ele><time>2026-03-31T17:10:11Z</time></trkpt><trkpt lat="48.87026512027536" lon="2.0600313233691234"><ele>117.0</ele><time>2026-03-31T17:10:13Z</time></trkpt><trkpt lat="48.87024539831999" lon="2.0601796660284255"><ele>117.66666666666667</ele><time>2026-03-31T17:10:15Z</time></trkpt><trkpt lat="48.87022829033199" lon="2.0603333724005726"><ele>118.33333333333334</ele><time>2026-03-31T17:10:17Z</time></trkpt><trkpt lat="48.870240289084" lon="2.0604306216286443"><ele>119.0</ele><time>2026-03-31T17:10:18Z</time></trkpt><trkpt lat="48.870220946441805" lon="2.0605271676356183"><ele>119.66666666666667</ele><time>2026-03-31T17:10:19Z</time></trkpt><trkpt lat="48.87026157196319" lon="2.06061702558195"><ele>120.33333333333334</ele><time>2026-03-31T17:10:20Z</time></trkpt><trkpt lat="48.870267587870124" lon="2.0607131530559553"><ele>121.0</ele><time>2026-03-31T17:10:21Z</time></trkpt><trkpt lat="48.87025646854029" lon="2.06088518022771"><ele>121.50000000000001</ele><time>2026-03-31T17:10:23Z</time></trkpt><trkpt lat="48.87027168416548" lon="2.061026258699254"><ele>122.0</ele><time>2026-03-31T17:10:25Z</time></trkpt><trkpt lat="48.87029735321606" lon="2.061149638936814"><ele>122.5</ele><time>2026-03-31T17:10:27Z</time></trkpt><trkpt lat="48.870315201648744" lon="2.061285026578378"><ele>123.0</ele><time>2026-03-31T17:10:29Z</time></trkpt><trkpt lat="48.87031917354562" lon="2.061412440476959"><ele>123.50000000000001</ele><time>2026-03-31T17:10:31Z</time></trkpt><trkpt lat="48.870323566460684" lon="2.0615352178172386"><ele>124.0</ele><time>2026-03-31T17:10:33Z</time></trkpt><trkpt lat="48.870352330406135" lon="2.0616680711915767"><ele>124.0</ele><time>2026-03-31T17:10:35Z</time></trkpt><trkpt lat="48.870357817704125" lon="2.061785288754844"><ele>124.0</ele><time>2026-03-31T17:10:38Z</time></trkpt><trkpt lat="48.87037832434644" lon="2.0619351654721343"><ele>124.0</ele><time>2026-03-31T17:10:41Z</time></trkpt><trkpt lat="48.87037696044793" lon="2.0621130567834314"><ele>124.0</ele><time>2026-03-31T17:10:43Z</time></trkpt><trkpt lat="48.8703592958945" lon="2.0622770302825004"><ele>124.0</ele><time>2026-03-31T17:10:45Z</time></trkpt><trkpt lat="48.870363826862246" lon="2.0624180032118224"><ele>123.66666666666667</ele><time>2026-03-31T17:10:47Z</time></trkpt><trkpt lat="48.87035668875462" lon="2.0626027629445227"><ele>123.33333333333334</ele><time>2026-03-31T17:10:49Z</time></trkpt><trkpt lat="48.87035404848409" lon="2.062707158492243"><ele>123.0</ele><time>2026-03-31T17:10:50Z</time></trkpt><trkpt lat="48.870351736541195" lon="2.062807690823695"><ele>122.66666666666666</ele><time>2026-03-31T17:10:51Z</time></trkpt><trkpt lat="48.87034941075966" lon="2.062908824912214"><ele>122.33333333333333</ele><time>2026-03-31T17:10:51.999Z</time></trkpt><trkpt lat="48.870347210282866" lon="2.0630091918649422"><ele>122.0</ele><time>2026-03-31T17:10:52.999Z</time></trkpt><trkpt lat="48.87034517248324" lon="2.0631067733920956"><ele>121.99999999999999</ele><time>2026-03-31T17:10:53.999Z</time></trkpt><trkpt lat="48.870345963915334" lon="2.0632038816333185"><ele>122.0</ele><time>2026-03-31T17:10:54.999Z</time></trkpt><trkpt lat="48.87035869163031" lon="2.0633173949428287"><ele>122.0</ele><time>2026-03-31T17:10:55.999Z</time></trkpt><trkpt lat="48.87037710465514" lon="2.06342900982279"><ele>122.0</ele><time>2026-03-31T17:10:56.999Z</time></trkpt><trkpt lat="48.870411635454474" lon="2.063516757449584"><ele>121.99999999999999</ele><time>2026-03-31T17:10:57.999Z</time></trkpt><trkpt lat="48.8704338751973" lon="2.0636996330339765"><ele>122.0</ele><time>2026-03-31T17:10:59.999Z</time></trkpt><trkpt lat="48.870455479518235" lon="2.0637914720178583"><ele>122.0</ele><time>2026-03-31T17:11:00.999Z</time></trkpt><trkpt lat="48.87047694246531" lon="2.0638827116531964"><ele>121.99999999999999</ele><time>2026-03-31T17:11:01.999Z</time></trkpt><trkpt lat="48.87051033675918" lon="2.0640533272765316"><ele>121.99999999999999</ele><time>2026-03-31T17:11:03.999Z</time></trkpt><trkpt lat="48.870542917501105" lon="2.0642348080151516"><ele>122.0</ele><time>2026-03-31T17:11:05.999Z</time></trkpt><trkpt lat="48.87056250663525" lon="2.064409346801033"><ele>122.0</ele><time>2026-03-31T17:11:07.999Z</time></trkpt><trkpt lat="48.870586315176425" lon="2.0645040441189386"><ele>121.85714285714283</ele><time>2026-03-31T17:11:08.999Z</time></trkpt><trkpt lat="48.870594054909226" lon="2.0646011264638564"><ele>121.71428571428571</ele><time>2026-03-31T17:11:09.999Z</time></trkpt><trkpt lat="48.87060398219422" lon="2.064700853818431"><ele>121.57142857142856</ele><time>2026-03-31T17:11:10.999Z</time></trkpt><trkpt lat="48.87061395701976" lon="2.064802955496295"><ele>121.42857142857142</ele><time>2026-03-31T17:11:11.999Z</time></trkpt><trkpt lat="48.87060852962093" lon="2.0649109714976532"><ele>121.28571428571428</ele><time>2026-03-31T17:11:12.999Z</time></trkpt><trkpt lat="48.870620464514914" lon="2.0650166591494865"><ele>121.14285714285714</ele><time>2026-03-31T17:11:13.999Z</time></trkpt><trkpt lat="48.870649625570245" lon="2.065117820890793"><ele>121.0</ele><time>2026-03-31T17:11:14.999Z</time></trkpt><trkpt lat="48.870659409576874" lon="2.0652233363393884"><ele>120.8</ele><time>2026-03-31T17:11:15.999Z</time></trkpt><trkpt lat="48.87067761672646" lon="2.065323585532337"><ele>120.6</ele><time>2026-03-31T17:11:16.999Z</time></trkpt><trkpt lat="48.8706943871073" lon="2.0654217440664566"><ele>120.4</ele><time>2026-03-31T17:11:17.999Z</time></trkpt><trkpt lat="48.87070810368231" lon="2.065610140555752"><ele>120.2</ele><time>2026-03-31T17:11:19.999Z</time></trkpt><trkpt lat="48.870743370505785" lon="2.0657923690751634"><ele>120.0</ele><time>2026-03-31T17:11:21.999Z</time></trkpt><trkpt lat="48.87078498418498" lon="2.065884427352432"><ele>119.83333333333333</ele><time>2026-03-31T17:11:22.999Z</time></trkpt><trkpt lat="48.87080710774783" lon="2.0659860301126414"><ele>119.66666666666666</ele><time>2026-03-31T17:11:23.999Z</time></trkpt><trkpt lat="48.87083257523396" lon="2.0660897713298048"><ele>119.5</ele><time>2026-03-31T17:11:24.999Z</time></trkpt><trkpt lat="48.87086496890792" lon="2.066194704404669"><ele>119.33333333333333</ele><time>2026-03-31T17:11:25.999Z</time></trkpt><trkpt lat="48.87089451649007" lon="2.066307177906388"><ele>119.16666666666666</ele><time>2026-03-31T17:11:26.999Z</time></trkpt><trkpt lat="48.87092760744695" lon="2.0664199413650457"><ele>119.0</ele><time>2026-03-31T17:11:27.999Z</time></trkpt><trkpt lat="48.87095655478039" lon="2.066541958418067"><ele>119.6</ele><time>2026-03-31T17:11:28.999Z</time></trkpt><trkpt lat="48.871001902676525" lon="2.066658163109679"><ele>120.2</ele><time>2026-03-31T17:11:29.999Z</time></trkpt><trkpt lat="48.87104536403771" lon="2.066778482112302"><ele>120.79999999999998</ele><time>2026-03-31T17:11:30.999Z</time></trkpt><trkpt lat="48.871094350642814" lon="2.066895021567231"><ele>121.39999999999999</ele><time>2026-03-31T17:11:31.999Z</time></trkpt><trkpt lat="48.87114494803853" lon="2.0670106507675623"><ele>122.0</ele><time>2026-03-31T17:11:32.999Z</time></trkpt><trkpt lat="48.87118969338672" lon="2.0671263999505403"><ele>121.99999999999999</ele><time>2026-03-31T17:11:33.999Z</time></trkpt><trkpt lat="48.8712374447023" lon="2.0672431633800588"><ele>122.0</ele><time>2026-03-31T17:11:34.999Z</time></trkpt><trkpt lat="48.87128159471283" lon="2.0673463689472924"><ele>122.0</ele><time>2026-03-31T17:11:35.999Z</time></trkpt><trkpt lat="48.87132706995848" lon="2.0674480958391555"><ele>122.0</ele><time>2026-03-31T17:11:36.999Z</time></trkpt><trkpt lat="48.871373526568775" lon="2.067559308589604"><ele>121.99999999999999</ele><time>2026-03-31T17:11:37.999Z</time></trkpt><trkpt lat="48.87141290528595" lon="2.067664662137379"><ele>122.0</ele><time>2026-03-31T17:11:38.999Z</time></trkpt><trkpt lat="48.87147357602376" lon="2.067831779927331"><ele>121.0</ele><time>2026-03-31T17:11:40.999Z</time></trkpt><trkpt lat="48.87152112778404" lon="2.067901801048499"><ele>119.99999999999999</ele><time>2026-03-31T17:11:41.999Z</time></trkpt><trkpt lat="48.871571435364444" lon="2.0679856416941256"><ele>118.99999999999999</ele><time>2026-03-31T17:11:42.999Z</time></trkpt><trkpt lat="48.871640271877794" lon="2.0681192005773137"><ele>118.0</ele><time>2026-03-31T17:11:44.999Z</time></trkpt><trkpt lat="48.87171732369676" lon="2.0682485692070167"><ele>117.0</ele><time>2026-03-31T17:11:46.999Z</time></trkpt><trkpt lat="48.87177024673793" lon="2.0683555190498306"><ele>117.0</ele><time>2026-03-31T17:11:48.999Z</time></trkpt><trkpt lat="48.87180874407377" lon="2.0684768166522516"><ele>117.0</ele><time>2026-03-31T17:11:50.999Z</time></trkpt><trkpt lat="48.87178912664785" lon="2.0686264551638"><ele>117.0</ele><time>2026-03-31T17:11:52.999Z</time></trkpt><trkpt lat="48.87175111478442" lon="2.068724002069699"><ele>117.0</ele><time>2026-03-31T17:11:54.999Z</time></trkpt><trkpt lat="48.871698746046036" lon="2.0688053118938097"><ele>117.0</ele><time>2026-03-31T17:11:57.999Z</time></trkpt><trkpt lat="48.871673590997716" lon="2.0689299598139383"><ele>117.0</ele><time>2026-03-31T17:12:01Z</time></trkpt><trkpt lat="48.871796611763095" lon="2.068994905838141"><ele>117.0</ele><time>2026-03-31T17:12:03Z</time></trkpt><trkpt lat="48.871889184794405" lon="2.068986415115477"><ele>117.0</ele><time>2026-03-31T17:12:05Z</time></trkpt><trkpt lat="48.871970589307814" lon="2.0689669140441893"><ele>117.0</ele><time>2026-03-31T17:12:07Z</time></trkpt><trkpt lat="48.87204001954663" lon="2.0689027079316364"><ele>117.0</ele><time>2026-03-31T17:12:09Z</time></trkpt><trkpt lat="48.872102921225974" lon="2.0688298978362547"><ele>117.0</ele><time>2026-03-31T17:12:11Z</time></trkpt><trkpt lat="48.8721540845302" lon="2.068741607123706"><ele>117.0</ele><time>2026-03-31T17:12:13Z</time></trkpt><trkpt lat="48.87219572197605" lon="2.0686393336232833"><ele>117.0</ele><time>2026-03-31T17:12:15Z</time></trkpt><trkpt lat="48.87223335870007" lon="2.06855511918324"><ele>117.0</ele><time>2026-03-31T17:12:17Z</time></trkpt><trkpt lat="48.872277036483695" lon="2.0684679246455193"><ele>117.0</ele><time>2026-03-31T17:12:19Z</time></trkpt><trkpt lat="48.872306473360354" lon="2.0683144289336743"><ele>117.0</ele><time>2026-03-31T17:12:22Z</time></trkpt><trkpt lat="48.87227368092331" lon="2.0681916769221527"><ele>122.0</ele><time>2026-03-31T17:12:26Z</time></trkpt></trkseg></trk></gpx>